Provisional Data: Portage Creek near Emporium, PA


Please select a monitoring station.
Please select start date.
Please select start date.

Toggle Unit: C/F Toggle Unit: C/F
Sample Time Temperature (C) Temperature (F) Specific Conductivity (mS/cm) pH   Turbidity (NTU+) DO (mg/L)
12/4/2020 12:00:00 AM 3.26 37.868 0.066 7.2 8.08 13.19
12/4/2020 12:15:00 AM 3.26 37.868 0.066 7.2 3.61 13.2
12/4/2020 12:30:00 AM 3.25 37.85 0.066 7.2 3.42 13.21
12/4/2020 12:45:00 AM 3.25 37.85 0.066 7.2 3.21 13.2
12/4/2020 1:00:00 AM 3.25 37.85 0.066 7.2 3.3 13.2
12/4/2020 1:15:00 AM 3.26 37.868 0.066 7.2 3.47 13.21
12/4/2020 1:30:00 AM 3.26 37.868 0.066 7.2 3.18 13.2
12/4/2020 1:45:00 AM 3.27 37.886 0.066 7.2 3.06 13.2
12/4/2020 2:00:00 AM 3.27 37.886 0.066 7.2 3.13 13.2
12/4/2020 2:15:00 AM 3.26 37.868 0.066 7.2 3.18 13.2
12/4/2020 2:30:00 AM 3.25 37.85 0.066 7.2 2.95 13.2
12/4/2020 2:45:00 AM 3.24 37.832 0.066 7.2 2.93 13.2
12/4/2020 3:00:00 AM 3.22 37.796 0.066 7.2 3.55 13.21
12/4/2020 3:15:00 AM 3.22 37.796 0.066 7.2 3.39 13.21
12/4/2020 3:30:00 AM 3.21 37.778 0.066 7.2 3.1 13.22
12/4/2020 3:45:00 AM 3.2 37.76 0.066 7.2 3.01 13.22
12/4/2020 4:00:00 AM 3.19 37.742 0.066 7.2 2.93 13.22
12/4/2020 4:15:00 AM 3.19 37.742 0.066 7.2 3.22 13.21
12/4/2020 4:30:00 AM 3.18 37.724 0.066 7.2 2.85 13.22
12/4/2020 4:45:00 AM 3.17 37.706 0.066 7.2 3.06 13.22
12/4/2020 5:00:00 AM 3.15 37.67 0.066 7.2 3.12 13.23
12/4/2020 5:15:00 AM 3.14 37.652 0.066 7.2 3.18 13.22
12/4/2020 5:30:00 AM 3.14 37.652 0.066 7.2 3.33 13.23
12/4/2020 5:45:00 AM 3.14 37.652 0.066 7.2 3.04 13.23
12/4/2020 6:00:00 AM 3.14 37.652 0.066 7.2 3.12 13.24
12/4/2020 6:15:00 AM 3.14 37.652 0.066 7.2 2.89 13.24
12/4/2020 6:30:00 AM 3.15 37.67 0.066 7.2 3.11 13.22
12/4/2020 6:45:00 AM 3.15 37.67 0.066 7.2 3.47 13.23
12/4/2020 7:00:00 AM 3.15 37.67 0.066 7.2 3.43 13.23
12/4/2020 7:15:00 AM 3.16 37.688 0.066 7.2 3.09 13.23
12/4/2020 7:30:00 AM 3.17 37.706 0.066 7.2 4.27 13.23
12/4/2020 7:45:00 AM 3.18 37.724 0.066 7.2 3.23 13.25
12/4/2020 8:00:00 AM 3.19 37.742 0.066 7.21 3.47 13.28
12/4/2020 8:15:00 AM 3.2 37.76 0.066 7.21 2.89 13.31
12/4/2020 8:30:00 AM 3.21 37.778 0.066 7.22 3.35 13.35
12/4/2020 8:45:00 AM 3.21 37.778 0.066 7.24 3.88 13.41
12/4/2020 9:00:00 AM 3.22 37.796 0.066 7.25 2.89 13.46
12/4/2020 9:15:00 AM 3.23 37.814 0.066 7.27 3.06 13.51
12/4/2020 9:30:00 AM 3.24 37.832 0.066 7.27 3.04 13.53
12/4/2020 9:45:00 AM 3.31 37.958 0.066 7.29 3.24 13.58
12/4/2020 10:00:00 AM 3.39 38.102 0.065 7.3 3.09 13.62
12/4/2020 10:15:00 AM 3.46 38.228 0.065 7.32 2.99 13.63
12/4/2020 10:30:00 AM 3.54 38.372 0.065 7.33 3 13.65
12/4/2020 10:45:00 AM 3.62 38.516 0.065 7.34 3.01 13.65
12/4/2020 11:00:00 AM 3.7 38.66 0.065 7.35 3.34 13.64
12/4/2020 11:15:00 AM 3.81 38.858 0.065 7.36 3.43 13.63
12/4/2020 11:30:00 AM 3.93 39.074 0.065 7.37 3.8 13.63
12/4/2020 11:45:00 AM 4.04 39.272 0.065 7.38 3.48 13.6
12/4/2020 12:00:00 PM 4.18 39.524 0.065 7.4 3.65 13.58
12/4/2020 12:15:00 PM 4.32 39.776 0.065 7.41 3.27 13.55
12/4/2020 12:30:00 PM 4.42 39.956 0.065 7.42 3.53 13.52
12/4/2020 12:45:00 PM 4.48 40.064 0.065 7.42 4.75 13.48
12/4/2020 1:00:00 PM 4.51 40.118 0.064 7.42 3.18 13.44
12/4/2020 1:15:00 PM 4.54 40.172 0.064 7.42 3.09 13.41
12/4/2020 1:30:00 PM 4.55 40.19 0.064 7.42 3.19 13.37
12/4/2020 1:45:00 PM 4.55 40.19 0.064 7.42 3.72 13.34
12/4/2020 2:00:00 PM 4.55 40.19 0.064 7.41 3.42 13.3
12/4/2020 2:15:00 PM 4.56 40.208 0.064 7.41 3.59 13.28
12/4/2020 2:30:00 PM 4.59 40.262 0.064 7.41 3.1 13.28
12/4/2020 2:45:00 PM 4.63 40.334 0.064 7.42 2.93 13.28
12/4/2020 3:00:00 PM 4.66 40.388 0.064 7.42 3.27 13.25
12/4/2020 3:15:00 PM 4.71 40.478 0.065 7.43 3.01 13.24
12/4/2020 3:30:00 PM 4.76 40.568 0.064 7.43 3.16 13.22
12/4/2020 3:45:00 PM 4.77 40.586 0.064 7.43 3.17 13.17
12/4/2020 4:00:00 PM 4.77 40.586 0.064 7.41 4.51 13.1
12/4/2020 4:15:00 PM 4.76 40.568 0.064 7.4 3.48 13.03
12/4/2020 4:30:00 PM 4.75 40.55 0.064 7.38 3.23 12.96
12/4/2020 4:45:00 PM 4.73 40.514 0.064 7.36 3.95 12.91
12/4/2020 5:00:00 PM 4.7 40.46 0.065 7.34 5.94 12.85
12/4/2020 5:15:00 PM 4.66 40.388 0.065 7.32 8.11 12.8
12/4/2020 5:30:00 PM 4.62 40.316 0.065 7.3 4.01 12.76
12/4/2020 5:45:00 PM 4.58 40.244 0.065 7.29 4.2 12.75
12/4/2020 6:00:00 PM 4.55 40.19 0.065 7.28 6.22 12.73
12/4/2020 6:15:00 PM 4.53 40.154 0.065 7.27 5.69 12.71
12/4/2020 6:30:00 PM 4.5 40.1 0.065 7.26 3.15 12.7
12/4/2020 6:45:00 PM 4.47 40.046 0.065 7.25 2.96 12.7
12/4/2020 7:00:00 PM 4.45 40.01 0.065 7.24 2.92 12.7
12/4/2020 7:15:00 PM 4.42 39.956 0.065 7.24 2.76 12.71
12/4/2020 7:30:00 PM 4.4 39.92 0.065 7.24 2.78 12.71
12/4/2020 7:45:00 PM 4.38 39.884 0.065 7.23 2.53 12.71
12/4/2020 8:00:00 PM 4.37 39.866 0.066 7.23 2.64 12.7
12/4/2020 8:15:00 PM 4.35 39.83 0.066 7.22 4.63 12.72
12/4/2020 8:30:00 PM 4.33 39.794 0.066 7.22 9.57 12.71
12/4/2020 8:45:00 PM 4.32 39.776 0.066 7.21 6.82 12.71
12/4/2020 9:00:00 PM 4.31 39.758 0.066 7.22 6.73 12.73
12/4/2020 9:15:00 PM 4.29 39.722 0.066 7.22 2.66 12.74
12/4/2020 9:30:00 PM 4.27 39.686 0.066 7.22 2.78 12.75
12/4/2020 9:45:00 PM 4.25 39.65 0.066 7.21 2.75 12.74
12/4/2020 10:00:00 PM 4.23 39.614 0.066 7.21 2.66 12.76
12/4/2020 10:15:00 PM 4.22 39.596 0.066 7.21 2.89 12.76
12/4/2020 10:30:00 PM 4.21 39.578 0.066 7.21 2.61 12.76
12/4/2020 10:45:00 PM 4.19 39.542 0.066 7.21 2.67 12.77
12/4/2020 11:00:00 PM 4.18 39.524 0.066 7.21 3.17 12.78
12/4/2020 11:15:00 PM 4.17 39.506 0.066 7.21 3.83 12.78
12/4/2020 11:30:00 PM 4.16 39.488 0.065 7.21 3.76 12.78
12/4/2020 11:45:00 PM 4.16 39.488 0.065 7.21 3.81 12.78
12/5/2020 12:00:00 AM 4.15 39.47 0.065 7.2 3.77 12.77
12/5/2020 12:15:00 AM 4.15 39.47 0.065 7.2 3.06 12.78
12/5/2020 12:30:00 AM 4.15 39.47 0.065 7.2 2.8 12.8
12/5/2020 12:45:00 AM 4.15 39.47 0.065 7.2 2.92 12.79
12/5/2020 1:00:00 AM 4.15 39.47 0.065 7.2 2.68 12.79
12/5/2020 1:15:00 AM 4.14 39.452 0.065 7.2 3.03 12.8
12/5/2020 1:30:00 AM 4.14 39.452 0.065 7.2 2.76 12.79
12/5/2020 1:45:00 AM 4.14 39.452 0.065 7.2 2.54 12.78
12/5/2020 2:00:00 AM 4.14 39.452 0.065 7.2 2.78 12.77
12/5/2020 2:15:00 AM 4.14 39.452 0.065 7.19 2.58 12.78
12/5/2020 2:30:00 AM 4.14 39.452 0.065 7.19 2.91 12.79
12/5/2020 2:45:00 AM 4.14 39.452 0.065 7.19 2.52 12.78
12/5/2020 3:00:00 AM 4.14 39.452 0.065 7.2 2.6 12.78
12/5/2020 3:15:00 AM 4.14 39.452 0.065 7.2 2.99 12.78
12/5/2020 3:30:00 AM 4.15 39.47 0.065 7.2 2.8 12.78
12/5/2020 3:45:00 AM 4.15 39.47 0.065 7.2 3.31 12.78
12/5/2020 4:00:00 AM 4.15 39.47 0.065 7.2 2.68 12.77
12/5/2020 4:15:00 AM 4.16 39.488 0.065 7.2 2.52 12.77
12/5/2020 4:30:00 AM 4.16 39.488 0.065 7.19 2.62 12.77
12/5/2020 4:45:00 AM 4.16 39.488 0.065 7.2 2.55 12.78
12/5/2020 5:00:00 AM 4.16 39.488 0.065 7.2 2.73 12.78
12/5/2020 5:15:00 AM 4.16 39.488 0.065 7.19 2.81 12.78
12/5/2020 5:30:00 AM 4.16 39.488 0.065 7.19 2.6 12.77
12/5/2020 5:45:00 AM 4.16 39.488 0.065 7.19 2.56 12.77
12/5/2020 6:00:00 AM 4.16 39.488 0.065 7.19 2.51 12.77
12/5/2020 6:15:00 AM 4.16 39.488 0.065 7.19 2.8 12.78
12/5/2020 6:30:00 AM 4.16 39.488 0.065 7.19 2.58 12.78
12/5/2020 6:45:00 AM 4.16 39.488 0.065 7.19 2.69 12.78
12/5/2020 7:00:00 AM 4.16 39.488 0.065 7.19 3.5 12.78
12/5/2020 7:15:00 AM 4.15 39.47 0.065 7.2 3.18 12.79
12/5/2020 7:30:00 AM 4.15 39.47 0.065 7.2 2.7 12.79
12/5/2020 7:45:00 AM 4.15 39.47 0.065 7.2 2.97 12.81
12/5/2020 8:00:00 AM 4.15 39.47 0.065 7.21 2.86 12.85
12/5/2020 8:15:00 AM 4.15 39.47 0.065 7.23 3.02 12.9
12/5/2020 8:30:00 AM 4.16 39.488 0.065 7.24 3.05 12.95
12/5/2020 8:45:00 AM 4.17 39.506 0.065 7.25 3.02 12.99
12/5/2020 9:00:00 AM 4.19 39.542 0.065 7.26 2.82 13.03
12/5/2020 9:15:00 AM 4.2 39.56 0.065 7.27 2.73 13.08
12/5/2020 9:30:00 AM 4.22 39.596 0.065 7.29 2.79 13.12
12/5/2020 9:45:00 AM 4.24 39.632 0.065 7.3 2.85 13.16
12/5/2020 10:00:00 AM 4.27 39.686 0.065 7.32 2.73 13.21
12/5/2020 10:15:00 AM 4.29 39.722 0.065 7.33 2.73 13.23
12/5/2020 10:30:00 AM 4.31 39.758 0.065 7.34 2.74 13.24
12/5/2020 10:45:00 AM 4.32 39.776 0.064 7.35 2.84 13.25
12/5/2020 11:00:00 AM 4.35 39.83 0.064 7.36 2.7 13.28
12/5/2020 11:15:00 AM 4.4 39.92 0.064 7.37 2.64 13.31
12/5/2020 11:30:00 AM 4.44 39.992 0.064 7.39 2.9 13.34
12/5/2020 11:45:00 AM 4.5 40.1 0.064 7.4 3.33 13.35
12/5/2020 12:00:00 PM 4.53 40.154 0.064 7.41 2.82 13.34
12/5/2020 12:15:00 PM 4.54 40.172 0.064 7.41 2.69 13.3
12/5/2020 12:30:00 PM 4.55 40.19 0.064 7.42 3.73 13.28
12/5/2020 12:45:00 PM 4.57 40.226 0.064 7.41 3.13 13.26
12/5/2020 1:00:00 PM 4.58 40.244 0.064 7.41 8.22 13.23
12/5/2020 1:15:00 PM 4.61 40.298 0.064 7.42 2.68 13.25
12/5/2020 1:30:00 PM 4.64 40.352 0.064 7.43 2.63 13.26
12/5/2020 1:45:00 PM 4.65 40.37 0.064 7.42 98.12 13.2
12/5/2020 2:00:00 PM 4.65 40.37 0.064 7.43 2.38 13.2
12/5/2020 2:15:00 PM 4.65 40.37 0.064 7.41 2.47 13.17
12/5/2020 2:30:00 PM 4.65 40.37 0.064 7.41 3.33 13.16
12/5/2020 2:45:00 PM 4.66 40.388 0.064 7.42 3.33 13.17
12/5/2020 3:00:00 PM 4.66 40.388 0.064 7.4 3.5 13.1
12/5/2020 3:15:00 PM 4.66 40.388 0.064 7.4 2.54 13.08
12/5/2020 3:30:00 PM 4.66 40.388 0.064 7.4 3.4 13.09
12/5/2020 3:45:00 PM 4.65 40.37 0.064 7.39 2.86 13.04
12/5/2020 4:00:00 PM 4.63 40.334 0.064 7.37 2.36 12.98
12/5/2020 4:15:00 PM 4.62 40.316 0.064 7.36 2.46 12.94
12/5/2020 4:30:00 PM 4.6 40.28 0.064 7.34 2.61 12.88
12/5/2020 4:45:00 PM 4.58 40.244 0.064 7.33 2.33 12.85
12/5/2020 5:00:00 PM 4.56 40.208 0.064 7.32 2.7 12.81
12/5/2020 5:15:00 PM 4.55 40.19 0.064 7.3 5.01 12.78
12/5/2020 5:30:00 PM 4.53 40.154 0.064 7.29 2.63 12.76
12/5/2020 5:45:00 PM 4.51 40.118 0.065 7.28 3.84 12.75
12/5/2020 6:00:00 PM 4.49 40.082 0.065 7.27 4.55 12.72
12/5/2020 6:15:00 PM 4.47 40.046 0.065 7.27 2.38 12.73
12/5/2020 6:30:00 PM 4.45 40.01 0.065 7.26 2.17 12.73
12/5/2020 6:45:00 PM 4.43 39.974 0.065 7.26 2.41 12.72
12/5/2020 7:00:00 PM 4.41 39.938 0.065 7.26 2.49 12.73
12/5/2020 7:15:00 PM 4.39 39.902 0.065 7.25 2.61 12.72
12/5/2020 7:30:00 PM 4.37 39.866 0.065 7.25 2.13 12.73
12/5/2020 7:45:00 PM 4.35 39.83 0.065 7.25 1.98 12.74
12/5/2020 8:00:00 PM 4.33 39.794 0.065 7.25 2.25 12.74
12/5/2020 8:15:00 PM 4.31 39.758 0.065 7.24 2.23 12.75
12/5/2020 8:30:00 PM 4.3 39.74 0.065 7.24 2.47 12.75
12/5/2020 8:45:00 PM 4.28 39.704 0.065 7.24 3.78 12.75
12/5/2020 9:00:00 PM 4.26 39.668 0.065 7.24 2.52 12.76
12/5/2020 9:15:00 PM 4.24 39.632 0.065 7.24 2.77 12.76
12/5/2020 9:30:00 PM 4.22 39.596 0.065 7.24 3.97 12.78
12/5/2020 9:45:00 PM 4.2 39.56 0.065 7.23 2.27 12.78
12/5/2020 10:00:00 PM 4.18 39.524 0.065 7.23 2.21 12.8
12/5/2020 10:15:00 PM 4.16 39.488 0.065 7.23 2.45 12.79
12/5/2020 10:30:00 PM 4.14 39.452 0.065 7.23 2.48 12.8
12/5/2020 10:45:00 PM 4.12 39.416 0.065 7.23 2.63 12.81
12/5/2020 11:00:00 PM 4.09 39.362 0.065 7.23 5.32 12.82
12/5/2020 11:15:00 PM 4.07 39.326 0.065 7.23 2.65 12.82
12/5/2020 11:30:00 PM 4.05 39.29 0.065 7.23 2.16 12.84
12/5/2020 11:45:00 PM 4.03 39.254 0.066 7.23 2.47 12.83
12/6/2020 12:00:00 AM 4.01 39.218 0.065 7.23 2.39 12.84
12/6/2020 12:15:00 AM 3.99 39.182 0.065 7.23 2.41 12.84
12/6/2020 12:30:00 AM 3.97 39.146 0.065 7.22 2.47 12.86
12/6/2020 12:45:00 AM 3.95 39.11 0.065 7.23 2.25 12.88
12/6/2020 1:00:00 AM 3.94 39.092 0.065 7.22 2.2 12.87
12/6/2020 1:15:00 AM 3.91 39.038 0.065 7.22 2.41 12.88
12/6/2020 1:30:00 AM 3.89 39.002 0.065 7.22 2.46 12.9
12/6/2020 1:45:00 AM 3.88 38.984 0.065 7.23 2.24 12.9
12/6/2020 2:00:00 AM 3.86 38.948 0.065 7.22 2.32 12.9
12/6/2020 2:15:00 AM 3.84 38.912 0.065 7.22 2.29 12.92
12/6/2020 2:30:00 AM 3.82 38.876 0.065 7.22 2.26 12.92
12/6/2020 2:45:00 AM 3.79 38.822 0.065 7.22 2.22 12.93
12/6/2020 3:00:00 AM 3.77 38.786 0.065 7.22 2.18 12.95
12/6/2020 3:15:00 AM 3.75 38.75 0.065 7.23 2.32 12.96
12/6/2020 3:30:00 AM 3.72 38.696 0.065 7.22 2.17 12.97
12/6/2020 3:45:00 AM 3.69 38.642 0.065 7.22 2.32 12.97
12/6/2020 4:00:00 AM 3.65 38.57 0.065 7.22 3.07 12.99
12/6/2020 4:15:00 AM 3.63 38.534 0.065 7.23 2.61 13
12/6/2020 4:30:00 AM 3.6 38.48 0.065 7.22 2.25 13.01
12/6/2020 4:45:00 AM 3.58 38.444 0.065 7.23 2.54 13.03
12/6/2020 5:00:00 AM 3.55 38.39 0.065 7.23 2.27 13.03
12/6/2020 5:15:00 AM 3.53 38.354 0.065 7.22 2.86 13.04
12/6/2020 5:30:00 AM 3.5 38.3 0.065 7.23 2.34 13.05
12/6/2020 5:45:00 AM 3.47 38.246 0.065 7.23 2.31 13.06
12/6/2020 6:00:00 AM 3.45 38.21 0.065 7.22 2.39 13.07
12/6/2020 6:15:00 AM 3.42 38.156 0.065 7.23 2.26 13.08
12/6/2020 6:30:00 AM 3.39 38.102 0.065 7.22 2.28 13.09
12/6/2020 6:45:00 AM 3.37 38.066 0.065 7.23 2.31 13.1
12/6/2020 7:00:00 AM 3.34 38.012 0.065 7.22 2.37 13.11
12/6/2020 7:15:00 AM 3.31 37.958 0.065 7.22 2.63 13.12
12/6/2020 7:30:00 AM 3.28 37.904 0.065 7.23 2.54 13.14
12/6/2020 7:45:00 AM 3.25 37.85 0.065 7.23 2.96 13.16
12/6/2020 8:00:00 AM 3.22 37.796 0.065 7.23 2.39 13.2
12/6/2020 8:15:00 AM 3.2 37.76 0.065 7.24 2.32 13.25
12/6/2020 8:30:00 AM 3.19 37.742 0.065 7.26 3.03 13.33
12/6/2020 8:45:00 AM 3.18 37.724 0.065 7.27 2.98 13.42
12/6/2020 9:00:00 AM 3.18 37.724 0.065 7.29 3.9 13.5
12/6/2020 9:15:00 AM 3.17 37.706 0.065 7.31 2.52 13.57
12/6/2020 9:30:00 AM 3.18 37.724 0.065 7.33 2.87 13.62
12/6/2020 9:45:00 AM 3.18 37.724 0.065 7.34 2.39 13.67
12/6/2020 10:00:00 AM 3.22 37.796 0.065 7.36 2.35 13.72
12/6/2020 10:15:00 AM 3.24 37.832 0.065 7.38 2.38 13.75
12/6/2020 10:30:00 AM 3.28 37.904 0.064 7.39 2.4 13.78
12/6/2020 10:45:00 AM 3.3 37.94 0.064 7.4 2.44 13.79
12/6/2020 11:00:00 AM 3.33 37.994 0.064 7.41 2.4 13.81
12/6/2020 11:15:00 AM 3.36 38.048 0.064 7.42 2.27 13.8
12/6/2020 11:30:00 AM 3.4 38.12 0.064 7.43 2.4 13.81
12/6/2020 11:45:00 AM 3.46 38.228 0.064 7.44 2.4 13.81
12/6/2020 12:00:00 PM 3.51 38.318 0.064 7.45 2.7 13.8
12/6/2020 12:15:00 PM 3.56 38.408 0.064 7.46 2.33 13.79
12/6/2020 12:30:00 PM 3.63 38.534 0.064 7.47 2.42 13.79
12/6/2020 12:45:00 PM 3.7 38.66 0.064 7.47 2.49 13.77
12/6/2020 1:00:00 PM 3.81 38.858 0.064 7.48 2.33 13.76
12/6/2020 1:15:00 PM 3.89 39.002 0.064 7.48 2.28 13.73
12/6/2020 1:30:00 PM 3.93 39.074 0.063 7.49 2.29 13.72
12/6/2020 1:45:00 PM 3.97 39.146 0.063 7.49 2.5 13.69
12/6/2020 2:00:00 PM 4.01 39.218 0.063 7.49 2.2 13.67
12/6/2020 2:15:00 PM 4.03 39.254 0.063 7.49 2.42 13.66
12/6/2020 2:30:00 PM 4.02 39.236 0.063 7.49 2.33 13.63
12/6/2020 2:45:00 PM 3.96 39.128 0.063 7.49 2.48 13.61
12/6/2020 3:00:00 PM 3.86 38.948 0.063 7.48 2.46 13.59
12/6/2020 3:15:00 PM 3.81 38.858 0.063 7.47 2.4 13.57
12/6/2020 3:30:00 PM 3.75 38.75 0.063 7.46 3.16 13.55
12/6/2020 3:45:00 PM 3.7 38.66 0.063 7.45 2.53 13.54
12/6/2020 4:00:00 PM 3.67 38.606 0.064 7.44 3.65 13.48
12/6/2020 4:15:00 PM 3.64 38.552 0.064 7.42 2.51 13.44
12/6/2020 4:30:00 PM 3.62 38.516 0.064 7.4 5.2 13.4
12/6/2020 4:45:00 PM 3.6 38.48 0.064 7.38 2.7 13.33
12/6/2020 5:00:00 PM 3.6 38.48 0.064 7.36 2.37 13.26
12/6/2020 5:15:00 PM 3.6 38.48 0.064 7.35 2.59 13.19
12/6/2020 5:30:00 PM 3.62 38.516 0.064 7.33 2.55 13.15
12/6/2020 5:45:00 PM 3.61 38.498 0.064 7.32 2.44 13.11
12/6/2020 6:00:00 PM 3.59 38.462 0.064 7.31 2.57 13.09
12/6/2020 6:15:00 PM 3.57 38.426 0.065 7.3 2.42 13.08
12/6/2020 6:30:00 PM 3.52 38.336 0.065 7.29 2.38 13.08
12/6/2020 6:45:00 PM 3.47 38.246 0.065 7.28 2.46 13.09
12/6/2020 7:00:00 PM 3.41 38.138 0.065 7.28 2.33 13.1
12/6/2020 7:15:00 PM 3.35 38.03 0.065 7.27 2.34 13.12
12/6/2020 7:30:00 PM 3.29 37.922 0.065 7.27 2.47 13.13
12/6/2020 7:45:00 PM 3.22 37.796 0.065 7.26 2.44 13.16
12/6/2020 8:00:00 PM 3.16 37.688 0.065 7.26 2.32 13.18
12/6/2020 8:15:00 PM 3.11 37.598 0.065 7.26 2.92 13.21
12/6/2020 8:30:00 PM 3.06 37.508 0.065 7.26 2.33 13.22
12/6/2020 8:45:00 PM 3.02 37.436 0.066 7.25 9.77 13.23
12/6/2020 9:00:00 PM 2.97 37.346 0.066 7.25 2.18 13.25
12/6/2020 9:15:00 PM 2.93 37.274 0.066 7.25 2.31 13.27
12/6/2020 9:30:00 PM 2.9 37.22 0.066 7.25 2.26 13.29
12/6/2020 9:45:00 PM 2.87 37.166 0.066 7.25 2.36 13.29
12/6/2020 10:00:00 PM 2.85 37.13 0.066 7.25 2.26 13.3
12/6/2020 10:15:00 PM 2.82 37.076 0.066 7.24 2.26 13.3
12/6/2020 10:30:00 PM 2.79 37.022 0.065 7.24 2.33 13.31
12/6/2020 10:45:00 PM 2.77 36.986 0.065 7.24 2.19 13.33
12/6/2020 11:00:00 PM 2.76 36.968 0.065 7.24 2.21 13.32
12/6/2020 11:15:00 PM 2.74 36.932 0.065 7.24 2.44 13.33
12/6/2020 11:30:00 PM 2.73 36.914 0.065 7.24 2.16 13.34
12/6/2020 11:45:00 PM 2.71 36.878 0.065 7.24 2.18 13.35
12/7/2020 12:00:00 AM 2.69 36.842 0.065 7.24 2.19 13.35
12/7/2020 12:15:00 AM 2.68 36.824 0.065 7.23 2.24 13.35
12/7/2020 12:30:00 AM 2.67 36.806 0.065 7.23 5.49 13.36
12/7/2020 12:45:00 AM 2.65 36.77 0.065 7.23 2.45 13.36
12/7/2020 1:00:00 AM 2.64 36.752 0.065 7.23 2.66 13.37
12/7/2020 1:15:00 AM 2.62 36.716 0.065 7.23 2.24 13.38
12/7/2020 1:30:00 AM 2.6 36.68 0.065 7.23 2.15 13.38
12/7/2020 1:45:00 AM 2.59 36.662 0.065 7.23 2.21 13.39
12/7/2020 2:00:00 AM 2.58 36.644 0.065 7.23 2.18 13.39
12/7/2020 2:15:00 AM 2.56 36.608 0.065 7.23 2.16 13.39
12/7/2020 2:30:00 AM 2.55 36.59 0.065 7.23 2.35 13.39
12/7/2020 2:45:00 AM 2.54 36.572 0.065 7.23 2.29 13.4
12/7/2020 3:00:00 AM 2.52 36.536 0.065 7.23 2.35 13.41
12/7/2020 3:15:00 AM 2.51 36.518 0.065 7.23 2.38 13.4
12/7/2020 3:30:00 AM 2.5 36.5 0.065 7.23 2.62 13.41
12/7/2020 3:45:00 AM 2.49 36.482 0.065 7.23 2.24 13.41
12/7/2020 4:00:00 AM 2.48 36.464 0.065 7.23 2.29 13.42
12/7/2020 4:15:00 AM 2.47 36.446 0.065 7.23 2.31 13.42
12/7/2020 4:30:00 AM 2.45 36.41 0.065 7.23 2.15 13.43
12/7/2020 4:45:00 AM 2.44 36.392 0.065 7.23 2.43 13.44
12/7/2020 5:00:00 AM 2.42 36.356 0.065 7.23 2.88 13.44
12/7/2020 5:15:00 AM 2.42 36.356 0.065 7.23 2.09 13.45
12/7/2020 5:30:00 AM 2.4 36.32 0.065 7.23 2.21 13.44
12/7/2020 5:45:00 AM 2.4 36.32 0.065 7.23 2.1 13.45
12/7/2020 6:00:00 AM 2.39 36.302 0.065 7.23 2.06 13.45
12/7/2020 6:15:00 AM 2.38 36.284 0.065 7.23 2.14 13.46
12/7/2020 6:30:00 AM 2.37 36.266 0.065 7.23 2.12 13.46
12/7/2020 6:45:00 AM 2.35 36.23 0.065 7.23 2.1 13.47
12/7/2020 7:00:00 AM 2.34 36.212 0.065 7.23 2.02 13.47
12/7/2020 7:15:00 AM 2.33 36.194 0.065 7.23 1.98 13.47
12/7/2020 7:30:00 AM 2.32 36.176 0.066 7.23 2.07 13.49
12/7/2020 7:45:00 AM 2.31 36.158 0.065 7.23 1.97 13.5
12/7/2020 8:00:00 AM 2.3 36.14 0.065 7.24 1.99 13.52
12/7/2020 8:15:00 AM 2.29 36.122 0.065 7.25 1.97 13.57
12/7/2020 8:30:00 AM 2.28 36.104 0.065 7.26 2.06 13.64
12/7/2020 8:45:00 AM 2.26 36.068 0.065 7.27 2 13.69
12/7/2020 9:00:00 AM 2.27 36.086 0.065 7.29 2.5 13.76
12/7/2020 9:15:00 AM 2.29 36.122 0.065 7.31 1.94 13.86
12/7/2020 9:30:00 AM 2.31 36.158 0.065 7.33 1.99 13.93
12/7/2020 9:45:00 AM 2.33 36.194 0.065 7.34 2.48 13.97
12/7/2020 10:00:00 AM 2.35 36.23 0.065 7.36 2.06 14.03
12/7/2020 10:15:00 AM 2.41 36.338 0.065 7.38 2.38 14.06
12/7/2020 10:30:00 AM 2.47 36.446 0.065 7.39 2.22 14.09
12/7/2020 10:45:00 AM 2.51 36.518 0.065 7.41 2.33 14.09
12/7/2020 11:00:00 AM 2.55 36.59 0.064 7.42 2.31 14.09
12/7/2020 11:15:00 AM 2.61 36.698 0.064 7.43 2.26 14.09
12/7/2020 11:30:00 AM 2.7 36.86 0.064 7.44 2.27 14.08
12/7/2020 11:45:00 AM 2.78 37.004 0.064 7.44 2.31 14.07
12/7/2020 12:00:00 PM 2.88 37.184 0.064 7.45 2.16 14.04
12/7/2020 12:15:00 PM 2.96 37.328 0.064 7.46 2.2 14.03
12/7/2020 12:30:00 PM 3.01 37.418 0.064 7.46 2.24 14
12/7/2020 12:45:00 PM 3.09 37.562 0.064 7.47 2.33 13.97
12/7/2020 1:00:00 PM 3.23 37.814 0.064 7.47 2.36 13.96
12/7/2020 1:15:00 PM 3.33 37.994 0.064 7.48 2.88 13.93
12/7/2020 1:30:00 PM 3.33 37.994 0.063 7.48 2.02 13.89
12/7/2020 1:45:00 PM 3.32 37.976 0.063 7.49 2.4 13.88
12/7/2020 2:00:00 PM 3.28 37.904 0.063 7.49 2.08 13.87
12/7/2020 2:15:00 PM 3.31 37.958 0.063 7.49 1.76 13.88
12/7/2020 2:30:00 PM 3.3 37.94 0.063 7.49 1.85 13.86
12/7/2020 2:45:00 PM 3.28 37.904 0.063 7.49 1.93 13.85
12/7/2020 3:00:00 PM 3.22 37.796 0.064 7.49 2.64 13.84
12/7/2020 3:15:00 PM 3.16 37.688 0.064 7.48 1.82 13.82
12/7/2020 3:30:00 PM 3.13 37.634 0.064 7.48 1.98 13.82
12/7/2020 3:45:00 PM 3.1 37.58 0.064 7.48 1.88 13.79
12/7/2020 4:00:00 PM 3.08 37.544 0.064 7.47 1.85 13.75
12/7/2020 4:15:00 PM 3.05 37.49 0.064 7.45 1.9 13.71
12/7/2020 4:30:00 PM 3.02 37.436 0.064 7.43 5.28 13.65
12/7/2020 4:45:00 PM 2.99 37.382 0.064 7.41 2.37 13.58
12/7/2020 5:00:00 PM 2.97 37.346 0.064 7.39 2.33 13.51
12/7/2020 5:15:00 PM 2.93 37.274 0.064 7.37 3.28 13.45
12/7/2020 5:30:00 PM 2.89 37.202 0.064 7.35 2.05 13.41
12/7/2020 5:45:00 PM 2.84 37.112 0.064 7.33 3.37 13.38
12/7/2020 6:00:00 PM 2.78 37.004 0.064 7.32 2.09 13.37
12/7/2020 6:15:00 PM 2.73 36.914 0.065 7.31 2.4 13.37
12/7/2020 6:30:00 PM 2.69 36.842 0.065 7.3 2.35 13.36
12/7/2020 6:45:00 PM 2.64 36.752 0.065 7.29 2.09 13.36
12/7/2020 7:00:00 PM 2.58 36.644 0.065 7.28 2.1 13.37
12/7/2020 7:15:00 PM 2.52 36.536 0.065 7.28 2.07 13.38
12/7/2020 7:30:00 PM 2.46 36.428 0.065 7.27 2.01 13.41
12/7/2020 7:45:00 PM 2.4 36.32 0.065 7.27 2.27 13.41
12/7/2020 8:00:00 PM 2.34 36.212 0.065 7.27 2.02 13.44
12/7/2020 8:15:00 PM 2.28 36.104 0.065 7.27 2.24 13.47
12/7/2020 8:30:00 PM 2.22 35.996 0.065 7.26 2.27 13.49
12/7/2020 8:45:00 PM 2.16 35.888 0.066 7.26 2 13.51
12/7/2020 9:00:00 PM 2.1 35.78 0.066 7.26 1.95 13.54
12/7/2020 9:15:00 PM 2.04 35.672 0.066 7.26 2.07 13.56
12/7/2020 9:30:00 PM 1.99 35.582 0.066 7.25 2.9 13.58
12/7/2020 9:45:00 PM 1.94 35.492 0.066 7.25 2.55 13.6
12/7/2020 10:00:00 PM 1.89 35.402 0.066 7.25 1.97 13.62
12/7/2020 10:15:00 PM 1.84 35.312 0.066 7.25 1.91 13.64
12/7/2020 10:30:00 PM 1.79 35.222 0.066 7.25 2.12 13.66
12/7/2020 10:45:00 PM 1.75 35.15 0.066 7.25 2.16 13.67
12/7/2020 11:00:00 PM 1.72 35.096 0.066 7.25 1.9 13.7
12/7/2020 11:15:00 PM 1.7 35.06 0.066 7.24 1.95 13.7
12/7/2020 11:30:00 PM 1.69 35.042 0.066 7.24 2.04 13.71
12/7/2020 11:45:00 PM 1.67 35.006 0.066 7.24 2.63 13.72
12/8/2020 12:00:00 AM 1.66 34.988 0.066 7.24 2.09 13.74
12/8/2020 12:15:00 AM 1.65 34.97 0.066 7.24 2.12 13.74
12/8/2020 12:30:00 AM 1.64 34.952 0.066 7.24 3.44 13.74
12/8/2020 12:45:00 AM 1.64 34.952 0.066 7.24 2.27 13.75
12/8/2020 1:00:00 AM 1.63 34.934 0.066 7.24 1.89 13.75
12/8/2020 1:15:00 AM 1.62 34.916 0.066 7.24 2.6 13.76
12/8/2020 1:30:00 AM 1.61 34.898 0.066 7.24 1.87 13.77
12/8/2020 1:45:00 AM 1.6 34.88 0.066 7.23 1.94 13.76
12/8/2020 2:00:00 AM 1.58 34.844 0.066 7.23 2.05 13.77
12/8/2020 2:15:00 AM 1.57 34.826 0.066 7.23 1.94 13.78
12/8/2020 2:30:00 AM 1.54 34.772 0.066 7.24 1.88 13.78
12/8/2020 2:45:00 AM 1.52 34.736 0.066 7.24 1.89 13.79
12/8/2020 3:00:00 AM 1.51 34.718 0.066 7.24 2.1 13.79
12/8/2020 3:15:00 AM 1.49 34.682 0.066 7.24 1.98 13.81
12/8/2020 3:30:00 AM 1.49 34.682 0.066 7.24 1.96 13.81
12/8/2020 3:45:00 AM 1.48 34.664 0.066 7.24 1.86 13.81
12/8/2020 4:00:00 AM 1.46 34.628 0.066 7.24 1.98 13.82
12/8/2020 4:15:00 AM 1.43 34.574 0.066 7.24 1.98 13.83
12/8/2020 4:30:00 AM 1.4 34.52 0.066 7.24 2.07 13.84
12/8/2020 4:45:00 AM 1.38 34.484 0.066 7.24 1.91 13.85
12/8/2020 5:00:00 AM 1.36 34.448 0.066 7.24 1.88 13.87
12/8/2020 5:15:00 AM 1.33 34.394 0.066 7.24 1.9 13.88
12/8/2020 5:30:00 AM 1.31 34.358 0.066 7.24 1.95 13.88
12/8/2020 5:45:00 AM 1.29 34.322 0.066 7.23 1.91 13.89
12/8/2020 6:00:00 AM 1.26 34.268 0.066 7.24 1.89 13.91
12/8/2020 6:15:00 AM 1.23 34.214 0.066 7.24 1.86 13.92
12/8/2020 6:30:00 AM 1.2 34.16 0.066 7.24 1.85 13.93
12/8/2020 6:45:00 AM 1.17 34.106 0.066 7.22 1.84 13.94
12/8/2020 7:00:00 AM 1.14 34.052 0.066 7.24 1.81 13.96
12/8/2020 7:15:00 AM 1.1 33.98 0.066 7.24 4.28 13.97
12/8/2020 7:30:00 AM 1.07 33.926 0.066 7.24 1.96 13.99
12/8/2020 7:45:00 AM 1.04 33.872 0.066 7.24 2.04 14.02
12/8/2020 8:00:00 AM 1.01 33.818 0.066 7.25 1.98 14.08
12/8/2020 8:15:00 AM 0.98 33.764 0.066 7.26 1.89 14.14
12/8/2020 8:30:00 AM 0.97 33.746 0.066 7.27 1.88 14.22
12/8/2020 8:45:00 AM 0.98 33.764 0.066 7.28 1.83 14.32
12/8/2020 9:00:00 AM 0.98 33.764 0.066 7.3 1.85 14.38
12/8/2020 9:15:00 AM 1 33.8 0.065 7.32 1.88 14.45
12/8/2020 9:30:00 AM 1.02 33.836 0.065 7.33 1.86 14.49
12/8/2020 9:45:00 AM 1.08 33.944 0.065 7.35 1.89 14.54
12/8/2020 10:00:00 AM 1.15 34.07 0.065 7.36 1.85 14.57
12/8/2020 10:15:00 AM 1.23 34.214 0.065 7.37 1.84 14.57
12/8/2020 10:30:00 AM 1.31 34.358 0.065 7.39 1.83 14.58
12/8/2020 10:45:00 AM 1.39 34.502 0.065 7.39 1.83 14.57
12/8/2020 11:00:00 AM 1.47 34.646 0.065 7.4 1.82 14.57
12/8/2020 11:15:00 AM 1.57 34.826 0.064 7.4 1.88 14.55
12/8/2020 11:30:00 AM 1.67 35.006 0.064 7.41 1.97 14.52
12/8/2020 11:45:00 AM 1.77 35.186 0.064 7.42 1.85 14.5
12/8/2020 12:00:00 PM 1.88 35.384 0.064 7.42 2.03 14.47
12/8/2020 12:15:00 PM 2 35.6 0.064 7.42 2.07 14.42
12/8/2020 12:30:00 PM 2.14 35.852 0.064 7.43 1.87 14.37
12/8/2020 12:45:00 PM 2.29 36.122 0.064 7.43 1.92 14.32
12/8/2020 1:00:00 PM 2.44 36.392 0.064 7.44 2.63 14.26
12/8/2020 1:15:00 PM 2.58 36.644 0.064 7.44 1.91 14.22
12/8/2020 1:30:00 PM 2.69 36.842 0.064 7.45 1.87 14.18
12/8/2020 1:45:00 PM 2.77 36.986 0.064 7.45 2.19 14.12
12/8/2020 2:00:00 PM 2.83 37.094 0.064 7.45 2.32 14.09
12/8/2020 2:15:00 PM 2.87 37.166 0.064 7.45 2.5 14.06
12/8/2020 2:30:00 PM 2.88 37.184 0.064 7.45 2.17 14.05
12/8/2020 2:45:00 PM 2.84 37.112 0.064 7.45 2.12 14.04
12/8/2020 3:00:00 PM 2.76 36.968 0.064 7.45 2.12 14.03
12/8/2020 3:15:00 PM 2.65 36.77 0.064 7.45 2.17 14.03
12/8/2020 3:30:00 PM 2.54 36.572 0.064 7.44 2.09 14.02
12/8/2020 3:45:00 PM 2.44 36.392 0.064 7.43 2.19 14.01
12/8/2020 4:00:00 PM 2.37 36.266 0.064 7.42 2.23 13.98
12/8/2020 4:15:00 PM 2.32 36.176 0.064 7.41 2.18 13.93
12/8/2020 4:30:00 PM 2.32 36.176 0.064 7.4 2.19 13.9
12/8/2020 4:45:00 PM 2.32 36.176 0.064 7.38 2.18 13.83
12/8/2020 5:00:00 PM 2.32 36.176 0.064 7.36 2.2 13.76
12/8/2020 5:15:00 PM 2.35 36.23 0.064 7.35 5.53 13.7
12/8/2020 5:30:00 PM 2.37 36.266 0.065 7.33 2.07 13.63
12/8/2020 5:45:00 PM 2.39 36.302 0.065 7.32 1.88 13.59
12/8/2020 6:00:00 PM 2.41 36.338 0.065 7.31 3.2 13.53
12/8/2020 6:15:00 PM 2.43 36.374 0.065 7.3 2.93 13.53
12/8/2020 6:30:00 PM 2.43 36.374 0.065 7.3 2.2 13.52
12/8/2020 6:45:00 PM 2.44 36.392 0.065 7.29 2.37 13.49
12/8/2020 7:00:00 PM 2.42 36.356 0.065 7.29 2.14 13.5
12/8/2020 7:15:00 PM 2.4 36.32 0.065 7.29 2.18 13.5
12/8/2020 7:30:00 PM 2.37 36.266 0.066 7.28 3.12 13.52
12/8/2020 7:45:00 PM 2.32 36.176 0.066 7.28 2.32 13.54
12/8/2020 8:00:00 PM 2.28 36.104 0.066 7.28 1.97 13.55
12/8/2020 8:15:00 PM 2.24 36.032 0.066 7.28 1.96 13.57
12/8/2020 8:30:00 PM 2.19 35.942 0.066 7.27 2.1 13.58
12/8/2020 8:45:00 PM 2.16 35.888 0.066 7.27 1.97 13.59
12/8/2020 9:00:00 PM 2.13 35.834 0.066 7.27 2.02 13.61
12/8/2020 9:15:00 PM 2.1 35.78 0.066 7.27 2.05 13.62
12/8/2020 9:30:00 PM 2.08 35.744 0.066 7.26 2.34 13.63
12/8/2020 9:45:00 PM 2.06 35.708 0.066 7.26 2.58 13.63
12/8/2020 10:00:00 PM 2.03 35.654 0.066 7.26 2.55 13.65
12/8/2020 10:15:00 PM 2.01 35.618 0.066 7.26 2 13.66
12/8/2020 10:30:00 PM 1.99 35.582 0.066 7.26 2.49 13.66
12/8/2020 10:45:00 PM 1.98 35.564 0.066 7.26 2.07 13.67
12/8/2020 11:00:00 PM 1.97 35.546 0.066 7.26 2.01 13.66
12/8/2020 11:15:00 PM 1.97 35.546 0.066 7.26 1.99 13.67
12/8/2020 11:30:00 PM 1.96 35.528 0.066 7.26 1.96 13.66
12/8/2020 11:45:00 PM 1.96 35.528 0.066 7.26 1.96 13.67
12/9/2020 12:00:00 AM 1.95 35.51 0.066 7.26 2.12 13.67
12/9/2020 12:15:00 AM 1.94 35.492 0.066 7.26 1.97 13.68
12/9/2020 12:30:00 AM 1.93 35.474 0.066 7.26 2.07 13.67
12/9/2020 12:45:00 AM 1.93 35.474 0.066 7.26 1.94 13.67
12/9/2020 1:00:00 AM 1.92 35.456 0.066 7.25 2.07 13.67
12/9/2020 1:15:00 AM 1.91 35.438 0.066 7.25 2.05 13.67
12/9/2020 1:30:00 AM 1.9 35.42 0.066 7.25 2.14 13.67
12/9/2020 1:45:00 AM 1.9 35.42 0.066 7.25 1.92 13.67
12/9/2020 2:00:00 AM 1.89 35.402 0.066 7.25 1.95 13.67
12/9/2020 2:15:00 AM 1.89 35.402 0.066 7.25 1.96 13.66
12/9/2020 2:30:00 AM 1.88 35.384 0.066 7.25 1.95 13.66
12/9/2020 2:45:00 AM 1.87 35.366 0.066 7.25 2.06 13.66
12/9/2020 3:00:00 AM 1.86 35.348 0.066 7.25 2 13.67
12/9/2020 3:15:00 AM 1.85 35.33 0.066 7.25 2.04 13.66
12/9/2020 3:30:00 AM 1.85 35.33 0.066 7.25 2.06 13.67
12/9/2020 3:45:00 AM 1.84 35.312 0.066 7.25 2.23 13.67
12/9/2020 4:00:00 AM 1.84 35.312 0.066 7.25 1.95 13.67
12/9/2020 4:15:00 AM 1.83 35.294 0.066 7.25 2.03 13.67
12/9/2020 4:30:00 AM 1.83 35.294 0.066 7.25 2.25 13.67
12/9/2020 4:45:00 AM 1.82 35.276 0.066 7.25 2.07 13.68
12/9/2020 5:00:00 AM 1.82 35.276 0.066 7.24 1.98 13.67
12/9/2020 5:15:00 AM 1.82 35.276 0.066 7.25 1.94 13.66
12/9/2020 5:30:00 AM 1.82 35.276 0.066 7.25 3.02 13.65
12/9/2020 5:45:00 AM 1.81 35.258 0.066 7.25 2 13.67
12/9/2020 6:00:00 AM 1.8 35.24 0.066 7.24 2.05 13.67
12/9/2020 6:15:00 AM 1.8 35.24 0.066 7.24 2.02 13.68
12/9/2020 6:30:00 AM 1.79 35.222 0.066 7.24 2.09 13.67
12/9/2020 6:45:00 AM 1.79 35.222 0.066 7.25 2.07 13.68
12/9/2020 7:00:00 AM 1.78 35.204 0.066 7.25 2.07 13.68
12/9/2020 7:15:00 AM 1.78 35.204 0.066 7.25 2.07 13.68
12/9/2020 7:30:00 AM 1.78 35.204 0.066 7.25 2.01 13.68
12/9/2020 7:45:00 AM 1.78 35.204 0.066 7.24 1.97 13.68
12/9/2020 8:00:00 AM 1.79 35.222 0.066 7.25 1.99 13.7
12/9/2020 8:15:00 AM 1.79 35.222 0.066 7.25 1.99 13.71
12/9/2020 8:30:00 AM 1.79 35.222 0.066 7.26 1.97 13.73
12/9/2020 8:45:00 AM 1.79 35.222 0.066 7.26 2.11 13.75
12/9/2020 9:00:00 AM 1.8 35.24 0.066 7.27 1.98 13.79
12/9/2020 9:15:00 AM 1.81 35.258 0.066 7.28 1.97 13.85
12/9/2020 9:30:00 AM 1.84 35.312 0.066 7.3 2.01 13.94
12/9/2020 9:45:00 AM 1.86 35.348 0.066 7.32 1.7 14
12/9/2020 10:00:00 AM 1.88 35.384 0.066 7.33 2.1 14.03
12/9/2020 10:15:00 AM 1.89 35.402 0.066 7.33 2.07 14.03
12/9/2020 10:30:00 AM 1.89 35.402 0.066 7.34 1.73 14.03
12/9/2020 10:45:00 AM 1.91 35.438 0.066 7.35 1.69 14.05
12/9/2020 11:00:00 AM 1.93 35.474 0.066 7.35 1.74 14.05
12/9/2020 11:15:00 AM 1.96 35.528 0.065 7.36 2.47 14.06
12/9/2020 11:30:00 AM 1.98 35.564 0.065 7.37 2.02 14.08
12/9/2020 11:45:00 AM 2 35.6 0.065 7.37 2.17 14.08
12/9/2020 12:00:00 PM 2.03 35.654 0.065 7.38 2.04 14.07
12/9/2020 12:15:00 PM 2.05 35.69 0.065 7.38 2.14 14.07
12/9/2020 12:30:00 PM 2.08 35.744 0.065 7.39 1.81 14.06
12/9/2020 12:45:00 PM 2.11 35.798 0.065 7.39 1.83 14.05
12/9/2020 1:00:00 PM 2.13 35.834 0.065 7.4 1.82 14.05
12/9/2020 1:15:00 PM 2.15 35.87 0.065 7.4 2.09 14.05
12/9/2020 1:30:00 PM 2.16 35.888 0.065 7.4 3.38 14.02
12/9/2020 1:45:00 PM 2.18 35.924 0.065 7.4 2.1 14
12/9/2020 2:00:00 PM 2.2 35.96 0.065 7.39 2.18 13.98
12/9/2020 2:15:00 PM 2.22 35.996 0.065 7.39 2.36 13.95
12/9/2020 2:30:00 PM 2.24 36.032 0.065 7.38 3 13.91
12/9/2020 2:45:00 PM 2.25 36.05 0.065 7.37 2.5 13.86
12/9/2020 3:00:00 PM 2.26 36.068 0.065 7.37 2.25 13.84
12/9/2020 3:15:00 PM 2.28 36.104 0.065 7.37 2.17 13.83
12/9/2020 3:30:00 PM 2.29 36.122 0.065 7.36 2.06 13.83
12/9/2020 3:45:00 PM 2.3 36.14 0.065 7.36 2.06 13.8
12/9/2020 4:00:00 PM 2.32 36.176 0.065 7.35 2.08 13.76
12/9/2020 4:15:00 PM 2.33 36.194 0.065 7.33 2.67 13.71
12/9/2020 4:30:00 PM 2.34 36.212 0.065 7.32 2.1 13.67
12/9/2020 4:45:00 PM 2.35 36.23 0.066 7.31 2.08 13.63
12/9/2020 5:00:00 PM 2.37 36.266 0.066 7.3 2.37 13.59
12/9/2020 5:15:00 PM 2.38 36.284 0.066 7.3 2.33 13.55
12/9/2020 5:30:00 PM 2.39 36.302 0.066 7.28 2.42 13.52
12/9/2020 5:45:00 PM 2.4 36.32 0.066 7.28 2.09 13.51
12/9/2020 6:00:00 PM 2.41 36.338 0.066 7.28 2.29 13.48
12/9/2020 6:15:00 PM 2.42 36.356 0.066 7.27 3.04 13.48
12/9/2020 6:30:00 PM 2.43 36.374 0.066 7.26 2.93 13.46
12/9/2020 6:45:00 PM 2.44 36.392 0.066 7.26 2.8 13.45
12/9/2020 7:00:00 PM 2.45 36.41 0.066 7.26 4.76 13.43
12/9/2020 7:15:00 PM 2.46 36.428 0.066 7.26 1.79 13.44
12/9/2020 7:30:00 PM 2.47 36.446 0.066 7.26 1.82 13.43
12/9/2020 7:45:00 PM 2.48 36.464 0.066 7.26 1.76 13.45
12/9/2020 8:00:00 PM 2.49 36.482 0.066 7.26 1.71 13.44
12/9/2020 8:15:00 PM 2.5 36.5 0.066 7.26 2.01 13.41
12/9/2020 8:30:00 PM 2.51 36.518 0.067 7.26 1.91 13.43
12/9/2020 8:45:00 PM 2.52 36.536 0.067 7.25 1.7 13.43
12/9/2020 9:00:00 PM 2.53 36.554 0.067 7.25 1.66 13.42
12/9/2020 9:15:00 PM 2.54 36.572 0.067 7.25 2.08 13.42
12/9/2020 9:30:00 PM 2.55 36.59 0.067 7.25 2.21 13.4
12/9/2020 9:45:00 PM 2.56 36.608 0.067 7.25 1.71 13.41
12/9/2020 10:00:00 PM 2.57 36.626 0.067 7.25 1.66 13.41
12/9/2020 10:15:00 PM 2.58 36.644 0.067 7.24 2.22 13.4
12/9/2020 10:30:00 PM 2.59 36.662 0.067 7.25 1.85 13.4
12/9/2020 10:45:00 PM 2.6 36.68 0.067 7.25 2.65 13.4
12/9/2020 11:00:00 PM 2.61 36.698 0.067 7.24 1.66 13.39
12/9/2020 11:15:00 PM 2.62 36.716 0.067 7.24 1.73 13.39
12/9/2020 11:30:00 PM 2.63 36.734 0.067 7.25 1.82 13.39
12/9/2020 11:45:00 PM 2.64 36.752 0.067 7.24 1.88 13.39
12/10/2020 12:00:00 AM 2.64 36.752 0.067 7.25 1.91 13.39
12/10/2020 12:15:00 AM 2.64 36.752 0.067 7.25 1.77 13.39
12/10/2020 12:30:00 AM 2.64 36.752 0.067 7.24 1.87 13.38
12/10/2020 12:45:00 AM 2.64 36.752 0.067 7.24 1.93 13.39
12/10/2020 1:00:00 AM 2.65 36.77 0.067 7.24 2.01 13.39
12/10/2020 1:15:00 AM 2.66 36.788 0.067 7.24 1.79 13.39
12/10/2020 1:30:00 AM 2.66 36.788 0.067 7.24 1.99 13.38
12/10/2020 1:45:00 AM 2.67 36.806 0.067 7.24 2.03 13.37
12/10/2020 2:00:00 AM 2.67 36.806 0.067 7.24 2.21 13.38
12/10/2020 2:15:00 AM 2.68 36.824 0.067 7.24 1.89 13.4
12/10/2020 2:30:00 AM 2.68 36.824 0.066 7.24 1.8 13.4
12/10/2020 2:45:00 AM 2.69 36.842 0.066 7.24 1.79 13.4
12/10/2020 3:00:00 AM 2.7 36.86 0.066 7.24 1.74 13.4
12/10/2020 3:15:00 AM 2.7 36.86 0.066 7.25 1.74 13.4
12/10/2020 3:30:00 AM 2.7 36.86 0.066 7.24 1.81 13.39
12/10/2020 3:45:00 AM 2.7 36.86 0.066 7.24 1.7 13.41
12/10/2020 4:00:00 AM 2.71 36.878 0.067 7.24 1.78 13.41
12/10/2020 4:15:00 AM 2.71 36.878 0.067 7.24 1.74 13.4
12/10/2020 4:30:00 AM 2.71 36.878 0.067 7.24 1.78 13.41
12/10/2020 4:45:00 AM 2.71 36.878 0.067 7.24 1.92 13.41
12/10/2020 5:00:00 AM 2.71 36.878 0.067 7.24 1.79 13.41
12/10/2020 5:15:00 AM 2.72 36.896 0.067 7.23 1.75 13.4
12/10/2020 5:30:00 AM 2.72 36.896 0.067 7.24 1.77 13.41
12/10/2020 5:45:00 AM 2.73 36.914 0.067 7.23 1.93 13.41
12/10/2020 6:00:00 AM 2.74 36.932 0.067 7.24 1.95 13.41
12/10/2020 6:15:00 AM 2.75 36.95 0.067 7.23 1.85 13.4
12/10/2020 6:30:00 AM 2.76 36.968 0.067 7.23 1.83 13.41
12/10/2020 6:45:00 AM 2.76 36.968 0.067 7.23 1.74 13.4
12/10/2020 7:00:00 AM 2.77 36.986 0.067 7.23 1.81 13.4
12/10/2020 7:15:00 AM 2.78 37.004 0.067 7.23 1.87 13.41
12/10/2020 7:30:00 AM 2.79 37.022 0.067 7.23 1.97 13.4
12/10/2020 7:45:00 AM 2.79 37.022 0.067 7.23 1.78 13.42
12/10/2020 8:00:00 AM 2.8 37.04 0.067 7.24 1.94 13.43
12/10/2020 8:15:00 AM 2.82 37.076 0.067 7.25 2.74 13.45
12/10/2020 8:30:00 AM 2.83 37.094 0.067 7.25 3.08 13.51
12/10/2020 8:45:00 AM 2.85 37.13 0.067 7.27 2.44 13.57
12/10/2020 9:00:00 AM 2.87 37.166 0.067 7.28 1.99 13.61
12/10/2020 9:15:00 AM 2.89 37.202 0.066 7.3 1.81 13.67
12/10/2020 9:30:00 AM 2.92 37.256 0.066 7.32 2.08 13.74
12/10/2020 9:45:00 AM 2.96 37.328 0.066 7.33 1.8 13.81
12/10/2020 10:00:00 AM 3 37.4 0.066 7.36 1.96 13.84
12/10/2020 10:15:00 AM 3.05 37.49 0.066 7.38 1.73 13.9
12/10/2020 10:30:00 AM 3.09 37.562 0.066 7.4 1.79 13.95
12/10/2020 10:45:00 AM 3.13 37.634 0.066 7.42 2.71 13.97
12/10/2020 11:00:00 AM 3.18 37.724 0.066 7.43 1.85 13.98
12/10/2020 11:15:00 AM 3.23 37.814 0.066 7.44 1.66 13.98
12/10/2020 11:30:00 AM 3.29 37.922 0.066 7.46 1.74 13.99
12/10/2020 11:45:00 AM 3.35 38.03 0.065 7.48 1.89 14
12/10/2020 12:00:00 PM 3.41 38.138 0.065 7.49 1.76 13.99
12/10/2020 12:15:00 PM 3.47 38.246 0.065 7.51 1.74 13.99
12/10/2020 12:30:00 PM 3.54 38.372 0.065 7.52 1.72 13.98
12/10/2020 12:45:00 PM 3.6 38.48 0.065 7.52 2.47 13.95
12/10/2020 1:00:00 PM 3.65 38.57 0.065 7.53 1.77 13.95
12/10/2020 1:15:00 PM 3.72 38.696 0.065 7.54 1.79 13.94
12/10/2020 1:30:00 PM 3.8 38.84 0.065 7.56 1.78 13.93
12/10/2020 1:45:00 PM 3.87 38.966 0.065 7.57 1.82 13.91
12/10/2020 2:00:00 PM 3.93 39.074 0.065 7.56 2.72 13.86
12/10/2020 2:15:00 PM 3.99 39.182 0.065 7.57 2.07 13.86
12/10/2020 2:30:00 PM 4.05 39.29 0.065 7.58 2.12 13.84
12/10/2020 2:45:00 PM 4.1 39.38 0.065 7.58 1.88 13.81
12/10/2020 3:00:00 PM 4.13 39.434 0.065 7.59 3.4 13.79
12/10/2020 3:15:00 PM 4.15 39.47 0.065 7.58 2.11 13.74
12/10/2020 3:30:00 PM 4.13 39.434 0.065 7.57 2.08 13.69
12/10/2020 3:45:00 PM 4.1 39.38 0.065 7.56 2.17 13.65
12/10/2020 4:00:00 PM 4.06 39.308 0.065 7.54 2.03 13.6
12/10/2020 4:15:00 PM 4 39.2 0.065 7.51 2.24 13.54
12/10/2020 4:30:00 PM 3.95 39.11 0.065 7.49 2.19 13.49
12/10/2020 4:45:00 PM 3.88 38.984 0.066 7.46 2.38 13.43
12/10/2020 5:00:00 PM 3.82 38.876 0.066 7.42 2.06 13.35
12/10/2020 5:15:00 PM 3.74 38.732 0.066 7.4 2.67 13.29
12/10/2020 5:30:00 PM 3.67 38.606 0.066 7.37 1.92 13.27
12/10/2020 5:45:00 PM 3.62 38.516 0.066 7.35 3.37 13.21
12/10/2020 6:00:00 PM 3.57 38.426 0.066 7.34 1.96 13.21
12/10/2020 6:15:00 PM 3.53 38.354 0.066 7.32 2.04 13.19
12/10/2020 6:30:00 PM 3.49 38.282 0.066 7.31 1.91 13.2
12/10/2020 6:45:00 PM 3.44 38.192 0.066 7.3 1.91 13.2
12/10/2020 7:00:00 PM 3.39 38.102 0.067 7.3 2.05 13.2
12/10/2020 7:15:00 PM 3.34 38.012 0.067 7.29 2.14 13.22
12/10/2020 7:30:00 PM 3.29 37.922 0.067 7.28 2.28 13.2
12/10/2020 7:45:00 PM 3.23 37.814 0.067 7.28 1.82 13.23
12/10/2020 8:00:00 PM 3.17 37.706 0.067 7.28 1.9 13.24
12/10/2020 8:15:00 PM 3.12 37.616 0.067 7.28 1.85 13.26
12/10/2020 8:30:00 PM 3.06 37.508 0.068 7.27 1.84 13.28
12/10/2020 8:45:00 PM 2.99 37.382 0.068 7.27 1.85 13.3
12/10/2020 9:00:00 PM 2.93 37.274 0.068 7.27 1.81 13.32
12/10/2020 9:15:00 PM 2.86 37.148 0.068 7.26 1.74 13.35
12/10/2020 9:30:00 PM 2.8 37.04 0.068 7.26 2.7 13.36
12/10/2020 9:45:00 PM 2.74 36.932 0.068 7.26 1.58 13.39
12/10/2020 10:00:00 PM 2.67 36.806 0.068 7.26 1.63 13.41
12/10/2020 10:15:00 PM 2.61 36.698 0.068 7.26 1.55 13.45
12/10/2020 10:30:00 PM 2.55 36.59 0.068 7.26 1.72 13.46
12/10/2020 10:45:00 PM 2.49 36.482 0.068 7.25 1.61 13.49
12/10/2020 11:00:00 PM 2.43 36.374 0.069 7.25 1.58 13.52
12/10/2020 11:15:00 PM 2.38 36.284 0.069 7.25 1.75 13.52
12/10/2020 11:30:00 PM 2.32 36.176 0.069 7.25 1.6 13.57
12/10/2020 11:45:00 PM 2.27 36.086 0.069 7.25 1.66 13.58
12/11/2020 12:00:00 AM 2.22 35.996 0.069 7.25 1.55 13.59
12/11/2020 12:15:00 AM 2.18 35.924 0.068 7.25 1.47 13.61
12/11/2020 12:30:00 AM 2.14 35.852 0.068 7.25 1.56 13.63
12/11/2020 12:45:00 AM 2.11 35.798 0.068 7.25 1.56 13.65
12/11/2020 1:00:00 AM 2.07 35.726 0.068 7.25 1.58 13.67
12/11/2020 1:15:00 AM 2.03 35.654 0.068 7.25 1.45 13.69
12/11/2020 1:30:00 AM 1.99 35.582 0.068 7.25 1.56 13.7
12/11/2020 1:45:00 AM 1.96 35.528 0.068 7.25 1.64 13.73
12/11/2020 2:00:00 AM 1.92 35.456 0.069 7.24 2.09 13.74
12/11/2020 2:15:00 AM 1.87 35.366 0.068 7.24 1.84 13.76
12/11/2020 2:30:00 AM 1.82 35.276 0.068 7.24 1.66 13.78
12/11/2020 2:45:00 AM 1.78 35.204 0.068 7.24 4.25 13.78
12/11/2020 3:00:00 AM 1.74 35.132 0.068 7.24 1.65 13.8
12/11/2020 3:15:00 AM 1.7 35.06 0.068 7.24 2.53 13.82
12/11/2020 3:30:00 AM 1.67 35.006 0.069 7.24 3.48 13.83
12/11/2020 3:45:00 AM 1.63 34.934 0.069 7.24 2.17 13.85
12/11/2020 4:00:00 AM 1.58 34.844 0.069 7.24 1.45 13.87
12/11/2020 4:15:00 AM 1.52 34.736 0.069 7.24 1.63 13.89
12/11/2020 4:30:00 AM 1.48 34.664 0.069 7.24 1.54 13.92
12/11/2020 4:45:00 AM 1.44 34.592 0.069 7.24 1.47 13.92
12/11/2020 5:00:00 AM 1.4 34.52 0.069 7.24 1.57 13.94
12/11/2020 5:15:00 AM 1.36 34.448 0.069 7.23 1.54 13.95
12/11/2020 5:30:00 AM 1.33 34.394 0.069 7.23 1.48 13.96
12/11/2020 5:45:00 AM 1.3 34.34 0.069 7.23 1.53 13.99
12/11/2020 6:00:00 AM 1.26 34.268 0.069 7.23 1.5 14
12/11/2020 6:15:00 AM 1.23 34.214 0.069 7.23 1.5 14.02
12/11/2020 6:30:00 AM 1.2 34.16 0.069 7.23 1.49 14.03
12/11/2020 6:45:00 AM 1.18 34.124 0.069 7.23 1.6 14.05
12/11/2020 7:00:00 AM 1.16 34.088 0.069 7.24 13.04 14.02
12/11/2020 7:15:00 AM 1.13 34.034 0.069 7.24 2.45 14.07
12/11/2020 7:30:00 AM 1.11 33.998 0.069 7.24 1.63 14.09
12/11/2020 7:45:00 AM 1.09 33.962 0.069 7.24 1.54 14.11
12/11/2020 8:00:00 AM 1.07 33.926 0.069 7.25 1.54 14.18
12/11/2020 8:15:00 AM 1.05 33.89 0.069 7.27 1.49 14.29
12/11/2020 8:30:00 AM 1.04 33.872 0.069 7.29 1.52 14.38
12/11/2020 8:45:00 AM 1.03 33.854 0.069 7.31 1.53 14.48
12/11/2020 9:00:00 AM 1.03 33.854 0.069 7.33 2.13 14.57
12/11/2020 9:15:00 AM 1.06 33.908 0.069 7.34 1.92 14.62
12/11/2020 9:30:00 AM 1.1 33.98 0.068 7.36 1.53 14.69
12/11/2020 9:45:00 AM 1.14 34.052 0.068 7.38 1.87 14.74
12/11/2020 10:00:00 AM 1.19 34.142 0.068 7.4 1.69 14.77
12/11/2020 10:15:00 AM 1.25 34.25 0.068 7.41 1.6 14.79
12/11/2020 10:30:00 AM 1.3 34.34 0.068 7.42 1.6 14.78
12/11/2020 10:45:00 AM 1.35 34.43 0.068 7.43 1.64 14.78
12/11/2020 11:00:00 AM 1.44 34.592 0.068 7.44 1.64 14.77
12/11/2020 11:15:00 AM 1.55 34.79 0.068 7.45 1.67 14.75
12/11/2020 11:30:00 AM 1.66 34.988 0.068 7.45 1.64 14.72
12/11/2020 11:45:00 AM 1.81 35.258 0.068 7.46 1.61 14.69
12/11/2020 12:00:00 PM 1.92 35.456 0.067 7.46 1.58 14.64
12/11/2020 12:15:00 PM 2.03 35.654 0.067 7.47 1.57 14.6
12/11/2020 12:30:00 PM 2.15 35.87 0.067 7.48 1.59 14.56
12/11/2020 12:45:00 PM 2.28 36.104 0.067 7.48 1.78 14.52
12/11/2020 1:00:00 PM 2.41 36.338 0.067 7.49 1.66 14.47
12/11/2020 1:15:00 PM 2.56 36.608 0.067 7.49 1.58 14.42
12/11/2020 1:30:00 PM 2.7 36.86 0.067 7.5 3.58 14.35
12/11/2020 1:45:00 PM 2.83 37.094 0.067 7.51 1.65 14.3
12/11/2020 2:00:00 PM 2.93 37.274 0.067 7.52 1.6 14.25
12/11/2020 2:15:00 PM 3 37.4 0.067 7.52 1.64 14.21
12/11/2020 2:30:00 PM 3.05 37.49 0.067 7.53 1.87 14.17
12/11/2020 2:45:00 PM 3.11 37.598 0.067 7.54 1.71 14.16
12/11/2020 3:00:00 PM 3.15 37.67 0.067 7.54 1.6 14.11
12/11/2020 3:15:00 PM 3.17 37.706 0.067 7.54 1.65 14.1
12/11/2020 3:30:00 PM 3.15 37.67 0.067 7.53 1.6 14.05
12/11/2020 3:45:00 PM 3.13 37.634 0.067 7.53 1.69 14.02
12/11/2020 4:00:00 PM 3.1 37.58 0.067 7.52 1.7 14
12/11/2020 4:15:00 PM 3.06 37.508 0.067 7.51 1.71 13.95
12/11/2020 4:30:00 PM 3.03 37.454 0.067 7.48 1.7 13.88
12/11/2020 4:45:00 PM 2.99 37.382 0.067 7.45 1.7 13.79
12/11/2020 5:00:00 PM 2.96 37.328 0.067 7.42 2.13 13.68
12/11/2020 5:15:00 PM 2.93 37.274 0.067 7.39 1.78 13.6
12/11/2020 5:30:00 PM 2.91 37.238 0.067 7.37 1.72 13.55
12/11/2020 5:45:00 PM 2.9 37.22 0.067 7.35 1.79 13.5
12/11/2020 6:00:00 PM 2.88 37.184 0.067 7.33 1.83 13.45
12/11/2020 6:15:00 PM 2.88 37.184 0.068 7.32 1.74 13.41
12/11/2020 6:30:00 PM 2.88 37.184 0.068 7.31 1.61 13.39
12/11/2020 6:45:00 PM 2.89 37.202 0.068 7.31 1.99 13.38
12/11/2020 7:00:00 PM 2.89 37.202 0.068 7.3 1.54 13.36
12/11/2020 7:15:00 PM 2.9 37.22 0.068 7.29 1.59 13.34
12/11/2020 7:30:00 PM 2.89 37.202 0.068 7.28 2.01 13.34
12/11/2020 7:45:00 PM 2.88 37.184 0.068 7.28 1.51 13.34
12/11/2020 8:00:00 PM 2.86 37.148 0.068 7.28 2.05 13.34
12/11/2020 8:15:00 PM 2.82 37.076 0.069 7.28 2 13.36
12/11/2020 8:30:00 PM 2.78 37.004 0.069 7.27 1.91 13.36
12/11/2020 8:45:00 PM 2.74 36.932 0.069 7.27 2.01 13.38
12/11/2020 9:00:00 PM 2.69 36.842 0.069 7.27 2.02 13.39
12/11/2020 9:15:00 PM 2.64 36.752 0.069 7.27 2.33 13.41
12/11/2020 9:30:00 PM 2.59 36.662 0.069 7.27 2.1 13.44
12/11/2020 9:45:00 PM 2.54 36.572 0.069 7.26 2.16 13.45
12/11/2020 10:00:00 PM 2.49 36.482 0.07 7.26 2.07 13.48
12/11/2020 10:15:00 PM 2.43 36.374 0.07 7.26 2.11 13.5
12/11/2020 10:30:00 PM 2.38 36.284 0.07 7.26 1.97 13.51
12/11/2020 10:45:00 PM 2.34 36.212 0.07 7.26 1.85 13.54
12/11/2020 11:00:00 PM 2.3 36.14 0.07 7.26 1.89 13.55
12/11/2020 11:15:00 PM 2.26 36.068 0.07 7.26 1.89 13.58
12/11/2020 11:30:00 PM 2.23 36.014 0.07 7.26 2.03 13.6
12/11/2020 11:45:00 PM 2.21 35.978 0.07 7.25 1.88 13.61
12/12/2020 12:00:00 AM 2.19 35.942 0.07 7.25 1.87 13.62
12/12/2020 12:15:00 AM 2.16 35.888 0.07 7.25 1.94 13.64
12/12/2020 12:30:00 AM 2.13 35.834 0.07 7.25 1.96 13.65
12/12/2020 12:45:00 AM 2.1 35.78 0.07 7.25 1.91 13.65
12/12/2020 1:00:00 AM 2.07 35.726 0.07 7.25 2.3 13.65
12/12/2020 1:15:00 AM 2.05 35.69 0.07 7.25 1.79 13.67
12/12/2020 1:30:00 AM 2.03 35.654 0.07 7.25 1.49 13.68
12/12/2020 1:45:00 AM 2.01 35.618 0.07 7.25 1.47 13.68
12/12/2020 2:00:00 AM 1.99 35.582 0.07 7.24 1.65 13.69
12/12/2020 2:15:00 AM 1.97 35.546 0.07 7.24 1.58 13.7
12/12/2020 2:30:00 AM 1.95 35.51 0.07 7.24 1.57 13.71
12/12/2020 2:45:00 AM 1.93 35.474 0.07 7.24 1.57 13.72
12/12/2020 3:00:00 AM 1.91 35.438 0.07 7.24 1.48 13.74
12/12/2020 3:15:00 AM 1.89 35.402 0.07 7.24 1.47 13.74
12/12/2020 3:30:00 AM 1.86 35.348 0.07 7.24 1.5 13.74
12/12/2020 3:45:00 AM 1.82 35.276 0.07 7.24 1.5 13.75
12/12/2020 4:00:00 AM 1.8 35.24 0.07 7.24 1.51 13.77
12/12/2020 4:15:00 AM 1.79 35.222 0.07 7.24 1.49 13.76
12/12/2020 4:30:00 AM 1.78 35.204 0.07 7.24 1.51 13.78
12/12/2020 4:45:00 AM 1.78 35.204 0.07 7.24 1.46 13.78
12/12/2020 5:00:00 AM 1.77 35.186 0.07 7.24 1.46 13.79
12/12/2020 5:15:00 AM 1.77 35.186 0.07 7.24 1.59 13.79
12/12/2020 5:30:00 AM 1.76 35.168 0.07 7.23 1.54 13.78
12/12/2020 5:45:00 AM 1.74 35.132 0.07 7.24 1.36 13.81
12/12/2020 6:00:00 AM 1.73 35.114 0.07 7.24 1.63 13.8
12/12/2020 6:15:00 AM 1.72 35.096 0.07 7.24 1.48 13.81
12/12/2020 6:30:00 AM 1.72 35.096 0.07 7.24 1.43 13.81
12/12/2020 6:45:00 AM 1.72 35.096 0.07 7.24 1.44 13.81
12/12/2020 7:00:00 AM 1.72 35.096 0.07 7.24 1.42 13.81
12/12/2020 7:15:00 AM 1.72 35.096 0.07 7.24 1.43 13.8
12/12/2020 7:30:00 AM 1.72 35.096 0.07 7.24 1.4 13.82
12/12/2020 7:45:00 AM 1.73 35.114 0.07 7.24 1.46 13.82
12/12/2020 8:00:00 AM 1.73 35.114 0.07 7.24 1.45 13.82
12/12/2020 8:15:00 AM 1.74 35.132 0.07 7.25 1.41 13.87
12/12/2020 8:30:00 AM 1.75 35.15 0.07 7.27 1.43 13.94
12/12/2020 8:45:00 AM 1.77 35.186 0.07 7.29 1.4 14.03
12/12/2020 9:00:00 AM 1.81 35.258 0.069 7.31 1.4 14.14
12/12/2020 9:15:00 AM 1.86 35.348 0.069 7.33 1.41 14.22
12/12/2020 9:30:00 AM 1.9 35.42 0.069 7.35 1.46 14.28
12/12/2020 9:45:00 AM 1.94 35.492 0.069 7.37 1.45 14.32
12/12/2020 10:00:00 AM 2.02 35.636 0.069 7.39 1.51 14.36
12/12/2020 10:15:00 AM 2.1 35.78 0.069 7.41 1.4 14.4
12/12/2020 10:30:00 AM 2.17 35.906 0.069 7.42 1.46 14.4
12/12/2020 10:45:00 AM 2.25 36.05 0.069 7.44 1.42 14.39
12/12/2020 11:00:00 AM 2.34 36.212 0.068 7.46 3.89 14.39
12/12/2020 11:15:00 AM 2.44 36.392 0.068 7.47 1.4 14.39
12/12/2020 11:30:00 AM 2.53 36.554 0.068 7.49 1.4 14.37
12/12/2020 11:45:00 AM 2.63 36.734 0.068 7.5 1.43 14.35
12/12/2020 12:00:00 PM 2.75 36.95 0.068 7.51 2 14.32
12/12/2020 12:15:00 PM 2.88 37.184 0.068 7.52 1.91 14.28
12/12/2020 12:30:00 PM 3.08 37.544 0.068 7.53 1.92 14.26
12/12/2020 12:45:00 PM 3.26 37.868 0.068 7.54 1.89 14.18
12/12/2020 1:00:00 PM 3.4 38.12 0.068 7.54 2.23 14.11
12/12/2020 1:15:00 PM 3.55 38.39 0.068 7.55 1.95 14.06
12/12/2020 1:30:00 PM 3.73 38.714 0.067 7.55 1.85 13.98
12/12/2020 1:45:00 PM 3.87 38.966 0.067 7.56 1.89 13.91
12/12/2020 2:00:00 PM 3.98 39.164 0.067 7.57 1.83 13.85
12/12/2020 2:15:00 PM 4.03 39.254 0.067 7.56 1.84 13.77
12/12/2020 2:30:00 PM 4.07 39.326 0.067 7.55 1.98 13.66
12/12/2020 2:45:00 PM 4.15 39.47 0.067 7.55 1.88 13.6
12/12/2020 3:00:00 PM 4.27 39.686 0.067 7.56 1.79 13.59
12/12/2020 3:15:00 PM 4.37 39.866 0.067 7.57 1.83 13.53
12/12/2020 3:30:00 PM 4.45 40.01 0.067 7.56 1.91 13.46
12/12/2020 3:45:00 PM 4.49 40.082 0.067 7.54 1.9 13.36
12/12/2020 4:00:00 PM 4.5 40.1 0.067 7.51 2 13.26
12/12/2020 4:15:00 PM 4.49 40.082 0.068 7.49 2.06 13.18
12/12/2020 4:30:00 PM 4.46 40.028 0.068 7.45 2.06 13.09
12/12/2020 4:45:00 PM 4.43 39.974 0.068 7.42 1.63 13.01
12/12/2020 5:00:00 PM 4.39 39.902 0.068 7.4 1.58 12.96
12/12/2020 5:15:00 PM 4.37 39.866 0.068 7.38 2.82 12.9
12/12/2020 5:30:00 PM 4.37 39.866 0.068 7.37 2.53 12.85
12/12/2020 5:45:00 PM 4.39 39.902 0.069 7.35 2.29 12.8
12/12/2020 6:00:00 PM 4.43 39.974 0.069 7.34 1.72 12.77
12/12/2020 6:15:00 PM 4.47 40.046 0.069 7.33 1.79 12.73
12/12/2020 6:30:00 PM 4.51 40.118 0.069 7.33 1.72 12.7
12/12/2020 6:45:00 PM 4.55 40.19 0.069 7.32 1.85 12.67
12/12/2020 7:00:00 PM 4.57 40.226 0.069 7.32 1.73 12.67
12/12/2020 7:15:00 PM 4.59 40.262 0.07 7.31 1.78 12.64
12/12/2020 7:30:00 PM 4.61 40.298 0.07 7.31 1.86 12.62
12/12/2020 7:45:00 PM 4.63 40.334 0.07 7.3 1.69 12.61
12/12/2020 8:00:00 PM 4.64 40.352 0.07 7.3 1.65 12.61
12/12/2020 8:15:00 PM 4.63 40.334 0.07 7.3 1.7 12.61
12/12/2020 8:30:00 PM 4.63 40.334 0.07 7.3 1.75 12.6
12/12/2020 8:45:00 PM 4.63 40.334 0.07 7.3 1.73 12.59
12/12/2020 9:00:00 PM 4.62 40.316 0.07 7.3 1.57 12.6
12/12/2020 9:15:00 PM 4.6 40.28 0.07 7.28 4.14 12.58
12/12/2020 9:30:00 PM 4.59 40.262 0.07 7.29 1.78 12.62
12/12/2020 9:45:00 PM 4.57 40.226 0.07 7.29 1.55 12.59
12/12/2020 10:00:00 PM 4.56 40.208 0.07 7.29 1.78 12.62
12/12/2020 10:15:00 PM 4.54 40.172 0.07 7.28 1.71 12.63
12/12/2020 10:30:00 PM 4.54 40.172 0.07 7.28 1.63 12.64
12/12/2020 10:45:00 PM 4.53 40.154 0.07 7.28 1.53 12.63
12/12/2020 11:00:00 PM 4.51 40.118 0.07 7.28 1.54 12.62
12/12/2020 11:15:00 PM 4.51 40.118 0.07 7.27 1.58 12.6
12/12/2020 11:30:00 PM 4.51 40.118 0.07 7.27 1.94 12.62
12/12/2020 11:45:00 PM 4.51 40.118 0.07 7.27 1.52 12.61
12/13/2020 12:00:00 AM 4.51 40.118 0.07 7.27 1.79 12.61
12/13/2020 12:15:00 AM 4.52 40.136 0.07 7.27 1.7 12.59
12/13/2020 12:30:00 AM 4.53 40.154 0.07 7.27 1.79 12.61
12/13/2020 12:45:00 AM 4.56 40.208 0.07 7.27 1.57 12.59
12/13/2020 1:00:00 AM 4.59 40.262 0.07 7.27 1.63 12.59
12/13/2020 1:15:00 AM 4.62 40.316 0.07 7.27 1.71 12.59
12/13/2020 1:30:00 AM 4.64 40.352 0.07 7.27 1.63 12.58
12/13/2020 1:45:00 AM 4.69 40.442 0.07 7.27 1.6 12.58
12/13/2020 2:00:00 AM 4.74 40.532 0.07 7.27 1.56 12.56
12/13/2020 2:15:00 AM 4.77 40.586 0.07 7.28 1.81 12.54
12/13/2020 2:30:00 AM 4.78 40.604 0.07 7.27 1.67 12.53
12/13/2020 2:45:00 AM 4.77 40.586 0.07 7.27 1.82 12.53
12/13/2020 3:00:00 AM 4.75 40.55 0.071 7.27 2 12.52
12/13/2020 3:15:00 AM 4.74 40.532 0.07 7.27 1.79 12.52
12/13/2020 3:30:00 AM 4.72 40.496 0.07 7.27 1.75 12.53
12/13/2020 3:45:00 AM 4.7 40.46 0.07 7.27 1.74 12.54
12/13/2020 4:00:00 AM 4.68 40.424 0.07 7.27 1.71 12.55
12/13/2020 4:15:00 AM 4.66 40.388 0.07 7.27 3.89 12.55
12/13/2020 4:30:00 AM 4.64 40.352 0.07 7.27 1.78 12.56
12/13/2020 4:45:00 AM 4.63 40.334 0.07 7.27 1.79 12.56
12/13/2020 5:00:00 AM 4.62 40.316 0.07 7.27 1.75 12.57
12/13/2020 5:15:00 AM 4.62 40.316 0.07 7.27 2.08 12.58
12/13/2020 5:30:00 AM 4.62 40.316 0.07 7.27 2.56 12.57
12/13/2020 5:45:00 AM 4.63 40.334 0.07 7.27 1.97 12.59
12/13/2020 6:00:00 AM 4.62 40.316 0.07 7.27 1.84 12.6
12/13/2020 6:15:00 AM 4.62 40.316 0.07 7.27 2.01 12.6
12/13/2020 6:30:00 AM 4.62 40.316 0.07 7.27 2.62 12.58
12/13/2020 6:45:00 AM 4.63 40.334 0.07 7.27 1.8 12.6
12/13/2020 7:00:00 AM 4.63 40.334 0.07 7.27 1.8 12.59
12/13/2020 7:15:00 AM 4.64 40.352 0.07 7.27 1.69 12.61
12/13/2020 7:30:00 AM 4.65 40.37 0.069 7.27 1.61 12.61
12/13/2020 7:45:00 AM 4.66 40.388 0.07 7.27 1.59 12.61
12/13/2020 8:00:00 AM 4.67 40.406 0.069 7.27 1.83 12.61
12/13/2020 8:15:00 AM 4.68 40.424 0.069 7.28 1.58 12.65
12/13/2020 8:30:00 AM 4.69 40.442 0.069 7.29 1.52 12.7
12/13/2020 8:45:00 AM 4.7 40.46 0.069 7.3 1.46 12.74
12/13/2020 9:00:00 AM 4.72 40.496 0.069 7.31 1.55 12.8
12/13/2020 9:15:00 AM 4.74 40.532 0.069 7.33 1.68 12.89
12/13/2020 9:30:00 AM 4.75 40.55 0.069 7.34 1.98 12.93
12/13/2020 9:45:00 AM 4.77 40.586 0.069 7.36 2.26 12.99
12/13/2020 10:00:00 AM 4.81 40.658 0.068 7.39 1.9 13.09
12/13/2020 10:15:00 AM 4.85 40.73 0.068 7.41 1.71 13.18
12/13/2020 10:30:00 AM 4.87 40.766 0.068 7.43 1.55 13.19
12/13/2020 10:45:00 AM 4.88 40.784 0.068 7.43 1.61 13.17
12/13/2020 11:00:00 AM 4.89 40.802 0.068 7.44 1.66 13.2
12/13/2020 11:15:00 AM 4.94 40.892 0.068 7.47 1.9 13.27
12/13/2020 11:30:00 AM 5 41 0.068 7.5 1.82 13.35
12/13/2020 11:45:00 AM 5.05 41.09 0.068 7.53 2.01 13.38
12/13/2020 12:00:00 PM 5.12 41.216 0.068 7.56 1.84 13.39
12/13/2020 12:15:00 PM 5.23 41.414 0.068 7.58 3.49 13.42
12/13/2020 12:30:00 PM 5.36 41.648 0.068 7.61 1.88 13.41
12/13/2020 12:45:00 PM 5.4 41.72 0.067 7.61 1.75 13.38
12/13/2020 1:00:00 PM 5.43 41.774 0.067 7.62 1.82 13.34
12/13/2020 1:15:00 PM 5.48 41.864 0.067 7.62 1.9 13.33
12/13/2020 1:30:00 PM 5.54 41.972 0.067 7.64 2.07 13.32
12/13/2020 1:45:00 PM 5.58 42.044 0.067 7.65 3.07 13.3
12/13/2020 2:00:00 PM 5.6 42.08 0.067 7.64 2.26 13.26
12/13/2020 2:15:00 PM 5.62 42.116 0.067 7.64 2.2 13.23
12/13/2020 2:30:00 PM 5.63 42.134 0.067 7.67 2.4 13.25
12/13/2020 2:45:00 PM 5.63 42.134 0.067 7.67 2.42 13.23
12/13/2020 3:00:00 PM 5.6 42.08 0.067 7.63 2.39 13.11
12/13/2020 3:15:00 PM 5.57 42.026 0.067 7.59 2.4 13.07
12/13/2020 3:30:00 PM 5.57 42.026 0.067 7.58 2.5 13.09
12/13/2020 3:45:00 PM 5.55 41.99 0.067 7.57 2.22 13.06
12/13/2020 4:00:00 PM 5.52 41.936 0.067 7.55 5.58 13
12/13/2020 4:15:00 PM 5.49 41.882 0.068 7.52 1.99 12.91
12/13/2020 4:30:00 PM 5.46 41.828 0.068 7.49 8.31 12.82
12/13/2020 4:45:00 PM 5.43 41.774 0.068 7.46 2.25 12.76
12/13/2020 5:00:00 PM 5.39 41.702 0.068 7.42 15.66 12.67
12/13/2020 5:15:00 PM 5.36 41.648 0.068 7.4 2.67 12.62
12/13/2020 5:30:00 PM 5.34 41.612 0.069 7.38 4.57 12.55
12/13/2020 5:45:00 PM 5.3 41.54 0.069 7.37 4.61 12.56
12/13/2020 6:00:00 PM 5.27 41.486 0.069 7.35 4.6 12.52
12/13/2020 6:15:00 PM 5.23 41.414 0.069 7.34 2.38 12.52
12/13/2020 6:30:00 PM 5.19 41.342 0.069 7.33 4.06 12.51
12/13/2020 6:45:00 PM 5.15 41.27 0.069 7.33 2.36 12.51
12/13/2020 7:00:00 PM 5.11 41.198 0.069 7.32 2.54 12.5
12/13/2020 7:15:00 PM 5.08 41.144 0.07 7.32 1.88 12.53
12/13/2020 7:30:00 PM 5.05 41.09 0.07 7.31 3.56 12.51
12/13/2020 7:45:00 PM 5.02 41.036 0.07 7.3 1.92 12.53
12/13/2020 8:00:00 PM 4.99 40.982 0.07 7.3 2.27 12.53
12/13/2020 8:15:00 PM 4.96 40.928 0.07 7.3 4.17 12.53
12/13/2020 8:30:00 PM 4.93 40.874 0.07 7.3 2.11 12.54
12/13/2020 8:45:00 PM 4.9 40.82 0.07 7.3 1.87 12.56
12/13/2020 9:00:00 PM 4.88 40.784 0.07 7.29 2.35 12.56
12/13/2020 9:15:00 PM 4.85 40.73 0.071 7.29 2.27 12.57
12/13/2020 9:30:00 PM 4.82 40.676 0.071 7.29 4.15 12.57
12/13/2020 9:45:00 PM 4.78 40.604 0.071 7.29 2.55 12.57
12/13/2020 10:00:00 PM 4.75 40.55 0.071 7.29 1.89 12.58
12/13/2020 10:15:00 PM 4.73 40.514 0.071 7.29 1.89 12.6
12/13/2020 10:30:00 PM 4.71 40.478 0.071 7.28 1.84 12.6
12/13/2020 10:45:00 PM 4.69 40.442 0.071 7.29 1.8 12.61
12/13/2020 11:00:00 PM 4.65 40.37 0.071 7.29 1.76 12.64
12/13/2020 11:15:00 PM 4.63 40.334 0.071 7.29 1.58 12.64
12/13/2020 11:30:00 PM 4.6 40.28 0.071 7.29 1.6 12.66
12/13/2020 11:45:00 PM 4.58 40.244 0.072 7.29 1.71 12.66
12/14/2020 12:00:00 AM 4.54 40.172 0.072 7.28 1.73 12.66
12/14/2020 12:15:00 AM 4.51 40.118 0.072 7.28 1.69 12.67
12/14/2020 12:30:00 AM 4.48 40.064 0.072 7.28 1.87 12.69
12/14/2020 12:45:00 AM 4.45 40.01 0.072 7.28 1.76 12.69
12/14/2020 1:00:00 AM 4.43 39.974 0.072 7.28 1.64 12.7
12/14/2020 1:15:00 AM 4.4 39.92 0.072 7.28 1.62 12.71
12/14/2020 1:30:00 AM 4.38 39.884 0.072 7.28 1.6 12.71
12/14/2020 1:45:00 AM 4.36 39.848 0.072 7.28 1.72 12.73
12/14/2020 2:00:00 AM 4.33 39.794 0.072 7.28 1.94 12.74
12/14/2020 2:15:00 AM 4.32 39.776 0.072 7.28 1.66 12.74
12/14/2020 2:30:00 AM 4.29 39.722 0.072 7.28 1.58 12.74
12/14/2020 2:45:00 AM 4.27 39.686 0.072 7.28 1.68 12.75
12/14/2020 3:00:00 AM 4.26 39.668 0.072 7.27 1.71 12.75
12/14/2020 3:15:00 AM 4.23 39.614 0.072 7.28 1.61 12.76
12/14/2020 3:30:00 AM 4.21 39.578 0.072 7.27 1.64 12.76
12/14/2020 3:45:00 AM 4.2 39.56 0.072 7.28 1.8 12.77
12/14/2020 4:00:00 AM 4.18 39.524 0.072 7.27 1.62 12.78
12/14/2020 4:15:00 AM 4.16 39.488 0.072 7.27 1.59 12.78
12/14/2020 4:30:00 AM 4.14 39.452 0.072 7.27 1.63 12.79
12/14/2020 4:45:00 AM 4.13 39.434 0.072 7.27 1.68 12.8
12/14/2020 5:00:00 AM 4.11 39.398 0.071 7.27 1.79 12.8
12/14/2020 5:15:00 AM 4.09 39.362 0.071 7.27 1.59 12.8
12/14/2020 5:30:00 AM 4.06 39.308 0.071 7.27 1.62 12.81
12/14/2020 5:45:00 AM 4.04 39.272 0.071 7.27 1.62 12.82
12/14/2020 6:00:00 AM 4.01 39.218 0.071 7.27 1.57 12.83
12/14/2020 6:15:00 AM 3.99 39.182 0.071 7.27 1.58 12.84
12/14/2020 6:30:00 AM 3.97 39.146 0.071 7.27 1.58 12.84
12/14/2020 6:45:00 AM 3.95 39.11 0.071 7.27 1.58 12.86
12/14/2020 7:00:00 AM 3.92 39.056 0.071 7.27 1.64 12.87
12/14/2020 7:15:00 AM 3.9 39.02 0.071 7.27 1.81 12.87
12/14/2020 7:30:00 AM 3.87 38.966 0.071 7.27 1.77 12.87
12/14/2020 7:45:00 AM 3.82 38.876 0.071 7.27 1.8 12.87
12/14/2020 8:00:00 AM 3.76 38.768 0.071 7.27 1.79 12.91
12/14/2020 8:15:00 AM 3.72 38.696 0.071 7.27 7.99 12.94
12/14/2020 8:30:00 AM 3.71 38.678 0.071 7.29 2.03 13.03
12/14/2020 8:45:00 AM 3.7 38.66 0.071 7.3 1.98 13.1
12/14/2020 9:00:00 AM 3.7 38.66 0.071 7.31 2 13.18
12/14/2020 9:15:00 AM 3.71 38.678 0.071 7.34 1.96 13.3
12/14/2020 9:30:00 AM 3.72 38.696 0.071 7.36 1.95 13.4
12/14/2020 9:45:00 AM 3.73 38.714 0.071 7.39 1.96 13.49
12/14/2020 10:00:00 AM 3.73 38.714 0.071 7.4 1.99 13.53
12/14/2020 10:15:00 AM 3.74 38.732 0.071 7.42 1.9 13.55
12/14/2020 10:30:00 AM 3.75 38.75 0.071 7.43 1.89 13.57
12/14/2020 10:45:00 AM 3.76 38.768 0.071 7.44 1.9 13.59
12/14/2020 11:00:00 AM 3.79 38.822 0.07 7.46 2.02 13.64
12/14/2020 11:15:00 AM 3.82 38.876 0.07 7.48 1.96 13.69
12/14/2020 11:30:00 AM 3.83 38.894 0.07 7.5 1.92 13.71
12/14/2020 11:45:00 AM 3.84 38.912 0.07 7.51 1.9 13.7
12/14/2020 12:00:00 PM 3.89 39.002 0.07 7.53 2.32 13.74
12/14/2020 12:15:00 PM 3.96 39.128 0.07 7.56 1.93 13.79
12/14/2020 12:30:00 PM 4.05 39.29 0.07 7.59 1.86 13.8
12/14/2020 12:45:00 PM 4.09 39.362 0.07 7.6 1.88 13.79
12/14/2020 1:00:00 PM 4.12 39.416 0.07 7.61 1.87 13.76
12/14/2020 1:15:00 PM 4.13 39.434 0.07 7.6 1.89 13.71
12/14/2020 1:30:00 PM 4.14 39.452 0.07 7.6 1.9 13.68
12/14/2020 1:45:00 PM 4.16 39.488 0.069 7.61 1.87 13.68
12/14/2020 2:00:00 PM 4.18 39.524 0.069 7.62 1.97 13.66
12/14/2020 2:15:00 PM 4.19 39.542 0.069 7.61 2.11 13.61
12/14/2020 2:30:00 PM 4.22 39.596 0.069 7.61 5.54 13.61
12/14/2020 2:45:00 PM 4.23 39.614 0.069 7.63 2.19 13.6
12/14/2020 3:00:00 PM 4.23 39.614 0.069 7.61 2.24 13.51
12/14/2020 3:15:00 PM 4.21 39.578 0.069 7.58 1.81 13.43
12/14/2020 3:30:00 PM 4.2 39.56 0.069 7.56 1.92 13.42
12/14/2020 3:45:00 PM 4.18 39.524 0.069 7.55 1.58 13.42
12/14/2020 4:00:00 PM 4.16 39.488 0.069 7.52 1.56 13.34
12/14/2020 4:15:00 PM 4.13 39.434 0.069 7.49 1.59 13.28
12/14/2020 4:30:00 PM 4.09 39.362 0.069 7.47 1.65 13.21
12/14/2020 4:45:00 PM 4.04 39.272 0.069 7.45 1.69 13.18
12/14/2020 5:00:00 PM 3.99 39.182 0.07 7.42 1.73 13.13
12/14/2020 5:15:00 PM 3.94 39.092 0.07 7.4 1.6 13.09
12/14/2020 5:30:00 PM 3.88 38.984 0.07 7.39 1.63 13.05
12/14/2020 5:45:00 PM 3.83 38.894 0.07 7.37 1.6 13.03
12/14/2020 6:00:00 PM 3.77 38.786 0.07 7.36 1.54 13.03
12/14/2020 6:15:00 PM 3.71 38.678 0.07 7.35 1.65 13.02
12/14/2020 6:30:00 PM 3.65 38.57 0.07 7.34 1.58 13.04
12/14/2020 6:45:00 PM 3.59 38.462 0.07 7.34 1.63 13.03
12/14/2020 7:00:00 PM 3.53 38.354 0.071 7.33 1.82 13.05
12/14/2020 7:15:00 PM 3.47 38.246 0.071 7.33 1.52 13.08
12/14/2020 7:30:00 PM 3.42 38.156 0.071 7.32 1.6 13.08
12/14/2020 7:45:00 PM 3.36 38.048 0.071 7.31 2.87 13.1
12/14/2020 8:00:00 PM 3.3 37.94 0.071 7.32 1.52 13.13
12/14/2020 8:15:00 PM 3.24 37.832 0.071 7.32 1.56 13.14
12/14/2020 8:30:00 PM 3.18 37.724 0.071 7.31 1.52 13.18
12/14/2020 8:45:00 PM 3.13 37.634 0.071 7.31 1.49 13.2
12/14/2020 9:00:00 PM 3.07 37.526 0.072 7.3 1.47 13.22
12/14/2020 9:15:00 PM 3.02 37.436 0.072 7.31 1.61 13.24
12/14/2020 9:30:00 PM 2.98 37.364 0.072 7.31 1.51 13.25
12/14/2020 9:45:00 PM 2.94 37.292 0.072 7.31 1.55 13.28
12/14/2020 10:00:00 PM 2.88 37.184 0.072 7.31 1.52 13.31
12/14/2020 10:15:00 PM 2.82 37.076 0.072 7.31 1.54 13.32
12/14/2020 10:30:00 PM 2.75 36.95 0.072 7.3 1.46 13.35
12/14/2020 10:45:00 PM 2.68 36.824 0.072 7.31 1.68 13.38
12/14/2020 11:00:00 PM 2.63 36.734 0.072 7.31 1.56 13.41
12/14/2020 11:15:00 PM 2.58 36.644 0.072 7.31 1.55 13.43
12/14/2020 11:30:00 PM 2.52 36.536 0.072 7.3 1.77 13.45
12/14/2020 11:45:00 PM 2.47 36.446 0.073 7.3 1.53 13.47
12/15/2020 12:00:00 AM 2.42 36.356 0.073 7.3 1.42 13.49
12/15/2020 12:15:00 AM 2.38 36.284 0.073 7.3 1.5 13.51
12/15/2020 12:30:00 AM 2.34 36.212 0.073 7.3 1.32 13.53
12/15/2020 12:45:00 AM 2.31 36.158 0.073 7.3 1.37 13.55
12/15/2020 1:00:00 AM 2.28 36.104 0.073 7.3 1.35 13.57
12/15/2020 1:15:00 AM 2.24 36.032 0.073 7.3 1.33 13.58
12/15/2020 1:30:00 AM 2.18 35.924 0.073 7.3 1.28 13.6
12/15/2020 1:45:00 AM 2.11 35.798 0.073 7.3 1.29 13.63
12/15/2020 2:00:00 AM 2.05 35.69 0.073 7.3 1.29 13.62
12/15/2020 2:15:00 AM 1.98 35.564 0.073 7.3 1.27 13.68
12/15/2020 2:30:00 AM 1.93 35.474 0.073 7.3 1.32 13.69
12/15/2020 2:45:00 AM 1.89 35.402 0.073 7.3 1.31 13.71
12/15/2020 3:00:00 AM 1.84 35.312 0.073 7.3 1.29 13.74
12/15/2020 3:15:00 AM 1.77 35.186 0.073 7.3 1.25 13.78
12/15/2020 3:30:00 AM 1.73 35.114 0.073 7.3 1.31 13.8
12/15/2020 3:45:00 AM 1.7 35.06 0.073 7.3 1.44 13.82
12/15/2020 4:00:00 AM 1.66 34.988 0.073 7.3 1.27 13.83
12/15/2020 4:15:00 AM 1.63 34.934 0.073 7.3 1.26 13.86
12/15/2020 4:30:00 AM 1.61 34.898 0.073 7.3 1.53 13.86
12/15/2020 4:45:00 AM 1.59 34.862 0.073 7.3 1.74 13.89
12/15/2020 5:00:00 AM 1.57 34.826 0.073 7.3 1.66 13.9
12/15/2020 5:15:00 AM 1.55 34.79 0.073 7.29 1.6 13.92
12/15/2020 5:30:00 AM 1.54 34.772 0.073 7.3 1.62 13.94
12/15/2020 5:45:00 AM 1.54 34.772 0.073 7.29 1.58 13.93
12/15/2020 6:00:00 AM 1.53 34.754 0.073 7.3 1.67 13.94
12/15/2020 6:15:00 AM 1.52 34.736 0.073 7.29 1.59 13.95
12/15/2020 6:30:00 AM 1.52 34.736 0.073 7.29 1.61 13.96
12/15/2020 6:45:00 AM 1.51 34.718 0.073 7.29 1.63 13.96
12/15/2020 7:00:00 AM 1.5 34.7 0.073 7.29 2.07 13.95
12/15/2020 7:15:00 AM 1.49 34.682 0.073 7.29 1.63 13.96
12/15/2020 7:30:00 AM 1.47 34.646 0.073 7.29 1.62 13.97
12/15/2020 7:45:00 AM 1.46 34.628 0.073 7.29 1.64 14
12/15/2020 8:00:00 AM 1.45 34.61 0.073 7.3 1.58 14.04
12/15/2020 8:15:00 AM 1.44 34.592 0.073 7.31 1.6 14.1
12/15/2020 8:30:00 AM 1.44 34.592 0.073 7.33 1.65 14.17
12/15/2020 8:45:00 AM 1.43 34.574 0.073 7.34 2.03 14.26
12/15/2020 9:00:00 AM 1.44 34.592 0.073 7.36 1.52 14.34
12/15/2020 9:15:00 AM 1.46 34.628 0.072 7.38 1.74 14.42
12/15/2020 9:30:00 AM 1.48 34.664 0.072 7.4 1.83 14.51
12/15/2020 9:45:00 AM 1.52 34.736 0.072 7.43 1.77 14.58
12/15/2020 10:00:00 AM 1.56 34.808 0.072 7.45 1.66 14.65
12/15/2020 10:15:00 AM 1.62 34.916 0.072 7.48 1.62 14.72
12/15/2020 10:30:00 AM 1.69 35.042 0.072 7.49 1.59 14.75
12/15/2020 10:45:00 AM 1.74 35.132 0.072 7.51 1.63 14.76
12/15/2020 11:00:00 AM 1.79 35.222 0.072 7.52 1.75 14.77
12/15/2020 11:15:00 AM 1.85 35.33 0.071 7.54 1.71 14.77
12/15/2020 11:30:00 AM 1.91 35.438 0.071 7.55 1.97 14.76
12/15/2020 11:45:00 AM 1.97 35.546 0.071 7.56 1.65 14.77
12/15/2020 12:00:00 PM 2.03 35.654 0.071 7.57 1.65 14.76
12/15/2020 12:15:00 PM 2.11 35.798 0.071 7.58 1.64 14.74
12/15/2020 12:30:00 PM 2.21 35.978 0.071 7.59 1.73 14.71
12/15/2020 12:45:00 PM 2.29 36.122 0.071 7.59 1.67 14.67
12/15/2020 1:00:00 PM 2.35 36.23 0.071 7.59 1.61 14.63
12/15/2020 1:15:00 PM 2.43 36.374 0.071 7.6 1.67 14.62
12/15/2020 1:30:00 PM 2.52 36.536 0.07 7.61 1.65 14.58
12/15/2020 1:45:00 PM 2.58 36.644 0.07 7.62 1.61 14.55
12/15/2020 2:00:00 PM 2.62 36.716 0.07 7.62 1.77 14.53
12/15/2020 2:15:00 PM 2.66 36.788 0.07 7.63 1.59 14.5
12/15/2020 2:30:00 PM 2.67 36.806 0.07 7.63 1.64 14.48
12/15/2020 2:45:00 PM 2.65 36.77 0.07 7.63 1.65 14.47
12/15/2020 3:00:00 PM 2.64 36.752 0.07 7.63 1.72 14.46
12/15/2020 3:15:00 PM 2.63 36.734 0.07 7.64 1.66 14.45
12/15/2020 3:30:00 PM 2.59 36.662 0.07 7.63 1.68 14.43
12/15/2020 3:45:00 PM 2.55 36.59 0.07 7.63 1.66 14.42
12/15/2020 4:00:00 PM 2.5 36.5 0.07 7.62 1.74 14.4
12/15/2020 4:15:00 PM 2.45 36.41 0.07 7.6 1.59 14.35
12/15/2020 4:30:00 PM 2.39 36.302 0.07 7.57 1.65 14.29
12/15/2020 4:45:00 PM 2.32 36.176 0.071 7.54 1.68 14.22
12/15/2020 5:00:00 PM 2.25 36.05 0.071 7.5 1.65 14.12
12/15/2020 5:15:00 PM 2.19 35.942 0.071 7.46 1.81 14.03
12/15/2020 5:30:00 PM 2.13 35.834 0.071 7.44 1.81 13.99
12/15/2020 5:45:00 PM 2.06 35.708 0.071 7.41 1.7 13.95
12/15/2020 6:00:00 PM 2 35.6 0.071 7.39 1.73 13.93
12/15/2020 6:15:00 PM 1.94 35.492 0.071 7.38 1.96 13.92
12/15/2020 6:30:00 PM 1.88 35.384 0.071 7.37 1.74 13.9
12/15/2020 6:45:00 PM 1.82 35.276 0.072 7.35 3.44 13.89
12/15/2020 7:00:00 PM 1.76 35.168 0.072 7.35 2.23 13.91
12/15/2020 7:15:00 PM 1.69 35.042 0.072 7.34 1.9 13.93
12/15/2020 7:30:00 PM 1.64 34.952 0.072 7.33 1.89 13.95
12/15/2020 7:45:00 PM 1.58 34.844 0.072 7.33 1.81 13.97
12/15/2020 8:00:00 PM 1.53 34.754 0.072 7.33 1.76 13.98
12/15/2020 8:15:00 PM 1.48 34.664 0.073 7.32 1.84 13.99
12/15/2020 8:30:00 PM 1.42 34.556 0.073 7.32 1.64 14
12/15/2020 8:45:00 PM 1.36 34.448 0.073 7.32 1.6 14.04
12/15/2020 9:00:00 PM 1.31 34.358 0.073 7.32 1.58 14.06
12/15/2020 9:15:00 PM 1.26 34.268 0.073 7.32 1.6 14.08
12/15/2020 9:30:00 PM 1.19 34.142 0.073 7.31 1.67 14.1
12/15/2020 9:45:00 PM 1.15 34.07 0.074 7.32 1.54 14.12
12/15/2020 10:00:00 PM 1.11 33.998 0.074 7.31 1.67 14.14
12/15/2020 10:15:00 PM 1.05 33.89 0.074 7.31 1.66 14.16
12/15/2020 10:30:00 PM 1.01 33.818 0.074 7.31 1.62 14.18
12/15/2020 10:45:00 PM 0.96 33.728 0.074 7.31 1.56 14.2
12/15/2020 11:00:00 PM 0.92 33.656 0.074 7.31 1.63 14.22
12/15/2020 11:15:00 PM 0.88 33.584 0.074 7.31 1.62 14.23
12/15/2020 11:30:00 PM 0.83 33.494 0.074 7.31 1.84 14.26
12/15/2020 11:45:00 PM 0.77 33.386 0.074 7.31 1.6 14.29
12/16/2020 12:00:00 AM 0.73 33.314 0.074 7.31 1.59 14.31
12/16/2020 12:15:00 AM 0.69 33.242 0.074 7.31 1.62 14.33
12/16/2020 12:30:00 AM 0.66 33.188 0.075 7.3 4.53 14.34
12/16/2020 12:45:00 AM 0.63 33.134 0.074 7.3 1.67 14.34
12/16/2020 1:00:00 AM 0.59 33.062 0.075 7.3 1.56 14.36
12/16/2020 1:15:00 AM 0.56 33.008 0.075 7.3 1.56 14.38
12/16/2020 1:30:00 AM 0.51 32.918 0.075 7.3 1.61 14.39
12/16/2020 1:45:00 AM 0.47 32.846 0.075 7.3 1.59 14.42
12/16/2020 2:00:00 AM 0.43 32.774 0.075 7.31 1.56 14.43
12/16/2020 2:15:00 AM 0.4 32.72 0.075 7.31 1.56 14.44
12/16/2020 2:30:00 AM 0.38 32.684 0.075 7.3 1.71 14.46
12/16/2020 2:45:00 AM 0.35 32.63 0.075 7.3 6.79 14.46
12/16/2020 3:00:00 AM 0.32 32.576 0.075 7.3 1.67 14.5
12/16/2020 3:15:00 AM 0.28 32.504 0.075 7.3 1.63 14.5
12/16/2020 3:30:00 AM 0.24 32.432 0.075 7.3 1.68 14.51
12/16/2020 3:45:00 AM 0.18 32.324 0.075 7.3 1.6 14.56
12/16/2020 4:00:00 AM 0.15 32.27 0.075 7.3 3.45 14.57
12/16/2020 4:15:00 AM 0.12 32.216 0.075 7.3 1.56 14.59
12/16/2020 4:30:00 AM 0.1 32.18 0.075 7.3 1.61 14.59
12/16/2020 4:45:00 AM 0.07 32.126 0.075 7.3 1.59 14.61
12/16/2020 5:00:00 AM 0.05 32.09 0.075 7.3 1.57 14.63
12/16/2020 5:15:00 AM 0.03 32.054 0.075 7.3 1.68 14.6
12/16/2020 5:30:00 AM 0.01 32.018 0.075 7.3 1.6 14.61
12/16/2020 5:45:00 AM -0.01 31.982 0.075 7.3 1.56 14.64
12/16/2020 6:00:00 AM 0 32 0.075 7.3 1.61 14.65
12/16/2020 6:15:00 AM 0.01 32.018 0.075 7.3 1.64 14.67
12/16/2020 6:30:00 AM 0.02 32.036 0.075 7.29 1.41 14.65
12/16/2020 6:45:00 AM 0.02 32.036 0.075 7.3 1.4 14.66
12/16/2020 7:00:00 AM 0.02 32.036 0.075 7.3 1.42 14.66
12/16/2020 7:15:00 AM 0.01 32.018 0.075 7.29 1.54 14.66
12/16/2020 7:30:00 AM 0.01 32.018 0.075 7.29 1.61 14.67
12/16/2020 7:45:00 AM 0.02 32.036 0.075 7.29 1.46 14.68
12/16/2020 8:00:00 AM 0.02 32.036 0.075 7.29 1.51 14.69
12/16/2020 8:15:00 AM 0.02 32.036 0.075 7.3 1.56 14.7
12/16/2020 8:30:00 AM 0.02 32.036 0.075 7.31 1.49 14.77
12/16/2020 8:45:00 AM 0.02 32.036 0.075 7.32 1.47 14.83
12/16/2020 9:00:00 AM 0.03 32.054 0.075 7.34 1.55 14.93
12/16/2020 9:15:00 AM 0.03 32.054 0.075 7.36 1.52 15.01
12/16/2020 9:30:00 AM 0.02 32.036 0.074 7.38 1.47 15.08
12/16/2020 9:45:00 AM 0.03 32.054 0.074 7.39 1.47 15.13
12/16/2020 10:00:00 AM 0.03 32.054 0.074 7.41 1.51 15.19
12/16/2020 10:15:00 AM 0.04 32.072 0.074 7.43 1.5 15.24
12/16/2020 10:30:00 AM 0.04 32.072 0.074 7.44 1.54 15.28
12/16/2020 10:45:00 AM 0.03 32.054 0.074 7.46 1.44 15.3
12/16/2020 11:00:00 AM 0.03 32.054 0.074 7.46 1.52 15.29
12/16/2020 11:15:00 AM 0.02 32.036 0.074 7.46 1.52 15.27
12/16/2020 11:30:00 AM 0.02 32.036 0.074 7.47 1.49 15.27
12/16/2020 11:45:00 AM 0.02 32.036 0.074 7.46 1.49 15.24
12/16/2020 12:00:00 PM 0.02 32.036 0.074 7.46 1.52 15.27
12/16/2020 12:15:00 PM 0.02 32.036 0.073 7.47 1.56 15.27
12/16/2020 12:30:00 PM 0.02 32.036 0.073 7.47 1.6 15.28
12/16/2020 12:45:00 PM 0.02 32.036 0.073 7.47 1.6 15.27
12/16/2020 1:00:00 PM 0.02 32.036 0.073 7.47 1.58 15.27
12/16/2020 1:15:00 PM 0.03 32.054 0.076 7.41 1.61 15.2
12/16/2020 1:30:00 PM 0.02 32.036 0.074 7.44 2.4 15.21
12/16/2020 1:45:00 PM 0.02 32.036 0.074 7.46 1.63 15.2
12/16/2020 2:00:00 PM 0.02 32.036 0.074 7.45 3.22 15.16
12/16/2020 2:15:00 PM 0.03 32.054 0.077 7.39 1.46 15.11
12/16/2020 2:30:00 PM 0.03 32.054 0.076 7.36 1.45 15.08
12/16/2020 2:45:00 PM 0.04 32.072 0.077 7.35 1.56 15.03
12/16/2020 3:00:00 PM 0.07 32.126 0.078 7.29 1.54 14.94
12/16/2020 3:15:00 PM 0.09 32.162 0.078 7.26 1.57 14.87
12/16/2020 3:30:00 PM 0.08 32.144 0.077 7.27 1.68 14.89
12/16/2020 3:45:00 PM 0.06 32.108 0.076 7.32 1.77 14.93
12/16/2020 4:00:00 PM 0.05 32.09 0.075 7.32 1.66 14.92
12/16/2020 4:15:00 PM 0.02 32.036 0.075 7.37 2.32 14.98
12/16/2020 4:30:00 PM 0.02 32.036 0.075 7.37 2.02 14.94
12/16/2020 4:45:00 PM 0.02 32.036 0.075 7.36 2.05 14.86
12/16/2020 5:00:00 PM 0.03 32.054 0.076 7.33 1.93 14.76
12/16/2020 5:15:00 PM 0.03 32.054 0.077 7.3 1.69 14.68
12/16/2020 5:30:00 PM 0.03 32.054 0.076 7.3 2 14.63
12/16/2020 5:45:00 PM 0.03 32.054 0.076 7.3 1.67 14.62
12/16/2020 6:00:00 PM 0.04 32.072 0.078 7.26 1.62 14.55
12/16/2020 6:15:00 PM 0.05 32.09 0.079 7.22 1.69 14.47
12/16/2020 6:30:00 PM 0.05 32.09 0.08 7.19 1.66 14.4
12/16/2020 6:45:00 PM 0.05 32.09 0.079 7.19 1.57 14.42
12/16/2020 7:00:00 PM 0.05 32.09 0.08 7.19 1.59 14.38
12/16/2020 7:15:00 PM 0.05 32.09 0.08 7.19 1.85 14.34
12/16/2020 7:30:00 PM 0.04 32.072 0.079 7.22 1.52 14.39
12/16/2020 7:45:00 PM 0.04 32.072 0.08 7.22 1.44 14.37
12/16/2020 8:00:00 PM 0.08 32.144 0.084 7.13 1.52 14.27
12/16/2020 8:15:00 PM 0.11 32.198 0.086 7.11 1.52 14.15
12/16/2020 8:30:00 PM 0.14 32.252 0.088 7.06 1.71 14.02
12/16/2020 8:45:00 PM 0.13 32.234 0.088 7.06 1.83 13.99
12/16/2020 9:00:00 PM 0.18 32.324 0.091 6.99 1.74 13.78
12/16/2020 9:15:00 PM 0.25 32.45 0.109 6.96 1.73 13.76
12/16/2020 9:30:00 PM 0.24 32.432 0.107 6.89 1.6 13.55
12/16/2020 9:45:00 PM 0.17 32.306 0.098 6.97 1.93 13.63
12/16/2020 10:00:00 PM 0.09 32.162 0.085 7.11 1.71 14
12/16/2020 10:15:00 PM 0.05 32.09 0.082 7.18 1.59 14.2
12/16/2020 10:30:00 PM 0.04 32.072 0.08 7.22 1.65 14.27
12/16/2020 10:45:00 PM 0.06 32.108 0.088 7.2 1.61 14.16
12/16/2020 11:00:00 PM 0.1 32.18 0.094 7.14 1.66 13.91
12/16/2020 11:15:00 PM 0.2 32.36 0.107 7.04 1.52 13.65
12/16/2020 11:30:00 PM 0.2 32.36 0.099 7.02 1.63 13.64
12/16/2020 11:45:00 PM 0.4 32.72 0.124 6.84 1.81 13.34
12/17/2020 12:00:00 AM 0.3 32.54 0.104 6.87 1.86 13.13
12/17/2020 12:15:00 AM 0.34 32.612 0.117 6.88 1.97 13.34
12/17/2020 12:30:00 AM 0.33 32.594 0.102 6.88 1.77 13.31
12/17/2020 12:45:00 AM 0.34 32.612 0.1 6.9 1.69 13.41
12/17/2020 1:00:00 AM 0.32 32.576 0.099 6.94 1.64 13.51
12/17/2020 1:15:00 AM 0.38 32.684 0.1 6.91 1.64 13.44
12/17/2020 1:30:00 AM 0.41 32.738 0.101 6.9 1.67 13.34
12/17/2020 1:45:00 AM 0.5 32.9 0.111 6.95 1.85 13.31
12/17/2020 2:00:00 AM 0.15 32.27 0.093 7.14 1.55 13.69
12/17/2020 2:15:00 AM 0.01 32.018 0.082 7.18 1.97 14.14
12/17/2020 2:30:00 AM 0.06 32.108 0.083 7.2 2 14.18
12/17/2020 2:45:00 AM 0.03 32.054 0.093 7.13 2.11 14.1
12/17/2020 3:00:00 AM 0.08 32.144 0.098 7.06 1.86 13.86
12/17/2020 3:15:00 AM 0.05 32.09 0.087 7.17 1.98 14.02
12/17/2020 3:30:00 AM 0.03 32.054 0.083 7.17 1.99 14.17
12/17/2020 3:45:00 AM 0.06 32.108 0.089 7.16 2.18 14.02
12/17/2020 4:00:00 AM 0.07 32.126 0.083 7.18 1.94 14.01
12/17/2020 4:15:00 AM 0.05 32.09 0.083 7.18 1.92 14.01
12/17/2020 4:30:00 AM 0.03 32.054 0.083 7.2 1.91 14.06
12/17/2020 4:45:00 AM 0.03 32.054 0.083 7.2 1.9 14.11
12/17/2020 5:00:00 AM 0.04 32.072 0.083 7.2 1.81 14.08
12/17/2020 5:15:00 AM 0.04 32.072 0.083 7.2 1.96 14.05
12/17/2020 5:30:00 AM 0.03 32.054 0.083 7.2 2.12 14.04
12/17/2020 5:45:00 AM 0.03 32.054 0.084 7.2 1.94 14.05
12/17/2020 6:00:00 AM 0.03 32.054 0.084 7.2 2.15 14.03
12/17/2020 6:15:00 AM 0.03 32.054 0.084 7.2 1.95 14.03
12/17/2020 6:30:00 AM 0.04 32.072 0.085 7.19 1.85 14
12/17/2020 6:45:00 AM 0.04 32.072 0.085 7.19 1.79 13.98
12/17/2020 7:00:00 AM 0.03 32.054 0.085 7.19 1.8 13.97
12/17/2020 7:15:00 AM 0.02 32.036 0.085 7.19 1.78 13.95
12/17/2020 7:30:00 AM 0.01 32.018 0.085 7.19 2.05 14.02
12/17/2020 7:45:00 AM 0.02 32.036 0.085 7.19 2.11 14.02
12/17/2020 8:00:00 AM 0.03 32.054 0.085 7.19 2.07 14.03
12/17/2020 8:15:00 AM 0.02 32.036 0.085 7.2 2.05 14.12
12/17/2020 8:30:00 AM 0.02 32.036 0.085 7.21 1.98 14.17
12/17/2020 8:45:00 AM 0.01 32.018 0.084 7.21 2.45 14.14
12/17/2020 9:00:00 AM 0.01 32.018 0.084 7.24 2.03 14.32
12/17/2020 9:15:00 AM 0.01 32.018 0.084 7.25 2.14 14.34
12/17/2020 9:30:00 AM 0.01 32.018 0.083 7.26 2.05 14.45
12/17/2020 9:45:00 AM 0.01 32.018 0.083 7.27 2.32 14.56
12/17/2020 10:00:00 AM 0.01 32.018 0.083 7.29 2.43 14.67
12/17/2020 10:15:00 AM 0.02 32.036 0.083 7.3 2.08 14.72
12/17/2020 10:30:00 AM 0.01 32.018 0.083 7.33 2.11 14.82
12/17/2020 10:45:00 AM 0.01 32.018 0.082 7.34 2.33 14.9
12/17/2020 11:00:00 AM 0.01 32.018 0.082 7.35 2.32 14.95
12/17/2020 11:15:00 AM 0.01 32.018 0.082 7.36 2.4 15
12/17/2020 11:30:00 AM 0 32 0.082 7.38 2.35 15.04
12/17/2020 11:45:00 AM 0 32 0.081 7.39 2.44 15.08
12/17/2020 12:00:00 PM 0 32 0.081 7.38 2.29 15.11
12/17/2020 12:15:00 PM 0 32 0.081 7.4 1.7 15.16
12/17/2020 12:30:00 PM -0.01 31.982 0.08 7.41 2.64 15.2
12/17/2020 12:45:00 PM 0 32 0.08 7.44 2.11 15.24
12/17/2020 1:00:00 PM -0.01 31.982 0.08 7.44 2.81 15.24
12/17/2020 1:15:00 PM -0.01 31.982 0.081 7.47 3.96 15.28
12/17/2020 1:30:00 PM -0.01 31.982 0.081 7.48 12.45 15.31
12/17/2020 1:45:00 PM -0.01 31.982 0.082 7.49 2.11 15.33
12/17/2020 2:00:00 PM -0.01 31.982 0.082 7.5 3.29 15.33
12/17/2020 2:15:00 PM -0.01 31.982 0.082 7.5 3.14 15.31
12/17/2020 2:30:00 PM -0.01 31.982 0.082 7.51 2.85 15.32
12/17/2020 2:45:00 PM -0.01 31.982 0.082 7.51 3.73 15.32
12/17/2020 3:00:00 PM -0.02 31.964 0.081 7.52 3.24 15.32
12/17/2020 3:15:00 PM -0.01 31.982 0.081 7.52 2.46 15.3
12/17/2020 3:30:00 PM -0.01 31.982 0.08 7.52 3.57 15.28
12/17/2020 3:45:00 PM -0.01 31.982 0.08 7.52 4.82 15.23
12/17/2020 4:00:00 PM -0.01 31.982 0.08 7.51 4.1 15.19
12/17/2020 4:15:00 PM -0.01 31.982 0.079 7.5 3.32 15.13
12/17/2020 4:30:00 PM -0.02 31.964 0.079 7.48 3.16 15.09
12/17/2020 4:45:00 PM -0.01 31.982 0.079 7.47 2.68 15.02
12/17/2020 5:00:00 PM -0.02 31.964 0.078 7.45 2.69 14.97
12/17/2020 5:15:00 PM -0.02 31.964 0.078 7.44 2.49 14.93
12/17/2020 5:30:00 PM -0.02 31.964 0.078 7.42 2.37 14.88
12/17/2020 5:45:00 PM 0.01 32.018 0.079 7.39 2.13 14.8
12/17/2020 6:00:00 PM 0 32 0.078 7.37 2.24 14.76
12/17/2020 6:15:00 PM 0 32 0.078 7.35 2.15 14.71
12/17/2020 6:30:00 PM -0.01 31.982 0.077 7.36 2.58 14.72
12/17/2020 6:45:00 PM -0.01 31.982 0.076 7.36 2.05 14.68
12/17/2020 7:00:00 PM -0.01 31.982 0.076 7.35 2.14 14.68
12/17/2020 7:15:00 PM -0.01 31.982 0.076 7.35 2.19 14.68
12/17/2020 7:30:00 PM -0.01 31.982 0.075 7.34 1.95 14.65
12/17/2020 7:45:00 PM -0.02 31.964 0.075 7.33 2.39 14.64
12/17/2020 8:00:00 PM -0.02 31.964 0.075 7.32 2.08 14.63
12/17/2020 8:15:00 PM -0.02 31.964 0.074 7.31 2.32 14.62
12/17/2020 8:30:00 PM -0.02 31.964 0.074 7.31 2.3 14.6
12/17/2020 8:45:00 PM -0.02 31.964 0.074 7.3 2.46 14.59
12/17/2020 9:00:00 PM -0.02 31.964 0.073 7.3 1.94 14.59
12/17/2020 9:15:00 PM -0.02 31.964 0.073 7.3 2.31 14.58
12/17/2020 9:30:00 PM -0.02 31.964 0.073 7.29 2.11 14.57
12/17/2020 9:45:00 PM -0.01 31.982 0.073 7.28 2.05 14.52
12/17/2020 10:00:00 PM -0.01 31.982 0.073 7.28 3.4 14.5
12/17/2020 10:15:00 PM -0.01 31.982 0.073 7.27 2.33 14.49
12/17/2020 10:30:00 PM -0.01 31.982 0.072 7.27 2.38 14.52
12/17/2020 10:45:00 PM -0.01 31.982 0.072 7.27 2.07 14.5
12/17/2020 11:00:00 PM -0.01 31.982 0.072 7.27 2.92 14.51
12/17/2020 11:15:00 PM 0 32 0.072 7.26 2.31 14.49
12/17/2020 11:30:00 PM 0.01 32.018 0.072 7.26 2.5 14.47
12/17/2020 11:45:00 PM 0 32 0.072 7.25 2.06 14.45
12/18/2020 12:00:00 AM 0.01 32.018 0.072 7.25 2.32 14.42
12/18/2020 12:15:00 AM 0.02 32.036 0.072 7.25 2.4 14.43
12/18/2020 12:30:00 AM 0.01 32.018 0.072 7.24 1.93 14.42
12/18/2020 12:45:00 AM 0.01 32.018 0.072 7.24 1.94 14.43
12/18/2020 1:00:00 AM 0.01 32.018 0.071 7.25 2.06 14.43
12/18/2020 1:15:00 AM 0 32 0.071 7.25 2.03 14.46
12/18/2020 1:30:00 AM 0.01 32.018 0.071 7.25 1.94 14.42
12/18/2020 1:45:00 AM 0.02 32.036 0.071 7.24 2.01 14.4
12/18/2020 2:00:00 AM 0.01 32.018 0.071 7.24 1.87 14.43
12/18/2020 2:15:00 AM 0.01 32.018 0.071 7.24 1.98 14.44
12/18/2020 2:30:00 AM 0.01 32.018 0.071 7.24 2.02 14.43
12/18/2020 2:45:00 AM 0.01 32.018 0.071 7.24 1.86 14.44
12/18/2020 3:00:00 AM 0.02 32.036 0.071 7.23 1.94 14.42
12/18/2020 3:15:00 AM 0.01 32.018 0.071 7.23 1.89 14.44
12/18/2020 3:30:00 AM 0.01 32.018 0.071 7.23 1.91 14.44
12/18/2020 3:45:00 AM 0.01 32.018 0.071 7.23 1.98 14.43
12/18/2020 4:00:00 AM 0.02 32.036 0.071 7.23 1.88 14.41
12/18/2020 4:15:00 AM 0 32 0.071 7.23 1.92 14.43
12/18/2020 4:30:00 AM 0.01 32.018 0.071 7.23 1.77 14.44
12/18/2020 4:45:00 AM 0.01 32.018 0.071 7.23 1.86 14.43
12/18/2020 5:00:00 AM 0 32 0.071 7.23 1.8 14.46
12/18/2020 5:15:00 AM 0.01 32.018 0.071 7.22 1.76 14.43
12/18/2020 5:30:00 AM 0.02 32.036 0.071 7.22 1.74 14.41
12/18/2020 5:45:00 AM 0.01 32.018 0.071 7.22 1.66 14.44
12/18/2020 6:00:00 AM 0.01 32.018 0.071 7.22 1.67 14.44
12/18/2020 6:15:00 AM 0.01 32.018 0.071 7.22 1.69 14.46
12/18/2020 6:30:00 AM 0.02 32.036 0.071 7.22 1.73 14.41
12/18/2020 6:45:00 AM 0.01 32.018 0.071 7.22 1.81 14.45
12/18/2020 7:00:00 AM 0.01 32.018 0.071 7.22 1.65 14.44
12/18/2020 7:15:00 AM 0.01 32.018 0.071 7.22 1.66 14.45
12/18/2020 7:30:00 AM 0 32 0.071 7.22 1.93 14.45
12/18/2020 7:45:00 AM 0.01 32.018 0.071 7.22 1.59 14.44
12/18/2020 8:00:00 AM 0.01 32.018 0.071 7.22 2.34 14.5
12/18/2020 8:15:00 AM 0.01 32.018 0.071 7.22 1.73 14.5
12/18/2020 8:30:00 AM 0.01 32.018 0.071 7.23 1.74 14.55
12/18/2020 8:45:00 AM 0 32 0.071 7.24 1.7 14.59
12/18/2020 9:00:00 AM 0.01 32.018 0.071 7.23 1.65 14.62
12/18/2020 9:15:00 AM 0.01 32.018 0.071 7.25 1.71 14.69
12/18/2020 9:30:00 AM 0.01 32.018 0.071 7.26 1.66 14.72
12/18/2020 9:45:00 AM 0.01 32.018 0.071 7.28 1.64 14.79
12/18/2020 10:00:00 AM 0 32 0.071 7.28 1.8 14.87
12/18/2020 10:15:00 AM 0.02 32.036 0.071 7.29 1.89 14.9
12/18/2020 10:30:00 AM 0.01 32.018 0.071 7.31 1.87 14.98
12/18/2020 10:45:00 AM 0.01 32.018 0.071 7.32 1.83 15.02
12/18/2020 11:00:00 AM 0.01 32.018 0.071 7.33 5.05 15.07
12/18/2020 11:15:00 AM 0.01 32.018 0.071 7.34 1.72 15.12
12/18/2020 11:30:00 AM 0.02 32.036 0.071 7.35 1.86 15.13
12/18/2020 11:45:00 AM 0.01 32.018 0.071 7.36 2.25 15.16
12/18/2020 12:00:00 PM 0.02 32.036 0.071 7.37 2.24 15.21
12/18/2020 12:15:00 PM 0.01 32.018 0.071 7.39 1.79 15.27
12/18/2020 12:30:00 PM 0.01 32.018 0.071 7.39 2.07 15.28
12/18/2020 12:45:00 PM 0.01 32.018 0.071 7.4 1.65 15.3
12/18/2020 1:00:00 PM 0.01 32.018 0.071 7.41 1.69 15.3
12/18/2020 1:15:00 PM 0.01 32.018 0.071 7.42 1.7 15.32
12/18/2020 1:30:00 PM 0.02 32.036 0.071 7.42 1.61 15.37
12/18/2020 1:45:00 PM 0.02 32.036 0.071 7.43 1.71 15.38
12/18/2020 2:00:00 PM 0.01 32.018 0.071 7.44 1.54 15.41
12/18/2020 2:15:00 PM 0.01 32.018 0.071 7.45 1.67 15.41
12/18/2020 2:30:00 PM 0.01 32.018 0.071 7.46 1.7 15.42
12/18/2020 2:45:00 PM 0.01 32.018 0.071 7.45 1.72 15.4
12/18/2020 3:00:00 PM 0.01 32.018 0.071 7.46 1.54 15.42
12/18/2020 3:15:00 PM 0.01 32.018 0.071 7.46 1.54 15.41
12/18/2020 3:30:00 PM 0.02 32.036 0.071 7.45 1.79 15.38
12/18/2020 3:45:00 PM 0.01 32.018 0.07 7.45 1.71 15.38
12/18/2020 4:00:00 PM 0.01 32.018 0.07 7.45 1.62 15.34
12/18/2020 4:15:00 PM 0.01 32.018 0.07 7.44 1.5 15.31
12/18/2020 4:30:00 PM 0 32 0.07 7.43 1.52 15.29
12/18/2020 4:45:00 PM 0 32 0.07 7.42 1.52 15.24
12/18/2020 5:00:00 PM 0 32 0.07 7.41 1.51 15.16
12/18/2020 5:15:00 PM 0 32 0.071 7.39 1.56 15.11
12/18/2020 5:30:00 PM 0 32 0.071 7.38 1.54 15.07
12/18/2020 5:45:00 PM 0 32 0.071 7.37 1.52 15.01
12/18/2020 6:00:00 PM -0.01 31.982 0.071 7.35 1.52 14.99
12/18/2020 6:15:00 PM 0 32 0.071 7.34 1.55 14.95
12/18/2020 6:30:00 PM -0.01 31.982 0.071 7.33 1.5 14.91
12/18/2020 6:45:00 PM -0.02 31.964 0.071 7.32 1.49 14.9
12/18/2020 7:00:00 PM -0.01 31.982 0.071 7.32 1.44 14.87
12/18/2020 7:15:00 PM -0.01 31.982 0.071 7.3 1.45 14.84
12/18/2020 7:30:00 PM 0 32 0.071 7.3 1.58 14.82
12/18/2020 7:45:00 PM -0.01 31.982 0.071 7.29 1.48 14.82
12/18/2020 8:00:00 PM -0.01 31.982 0.071 7.29 1.41 14.82
12/18/2020 8:15:00 PM -0.02 31.964 0.072 7.28 1.49 14.8
12/18/2020 8:30:00 PM -0.01 31.982 0.072 7.28 1.4 14.78
12/18/2020 8:45:00 PM -0.01 31.982 0.072 7.27 1.48 14.79
12/18/2020 9:00:00 PM -0.02 31.964 0.072 7.27 1.43 14.79
12/18/2020 9:15:00 PM -0.02 31.964 0.072 7.27 1.48 14.79
12/18/2020 9:30:00 PM -0.02 31.964 0.072 7.26 1.36 14.77
12/18/2020 9:45:00 PM -0.02 31.964 0.072 7.26 1.45 14.78
12/18/2020 10:00:00 PM -0.01 31.982 0.073 7.25 1.48 14.76
12/18/2020 10:15:00 PM -0.01 31.982 0.073 7.25 1.46 14.76
12/18/2020 10:30:00 PM -0.01 31.982 0.073 7.25 1.41 14.75
12/18/2020 10:45:00 PM -0.02 31.964 0.073 7.25 1.65 14.76
12/18/2020 11:00:00 PM -0.01 31.982 0.073 7.25 1.48 14.75
12/18/2020 11:15:00 PM -0.01 31.982 0.073 7.24 1.35 14.74
12/18/2020 11:30:00 PM -0.01 31.982 0.073 7.24 1.39 14.74
12/18/2020 11:45:00 PM -0.01 31.982 0.074 7.24 1.42 14.72
12/19/2020 12:00:00 AM -0.01 31.982 0.074 7.24 1.36 14.73
12/19/2020 12:15:00 AM -0.01 31.982 0.074 7.24 1.36 14.72
12/19/2020 12:30:00 AM -0.01 31.982 0.074 7.23 1.44 14.72
12/19/2020 12:45:00 AM -0.01 31.982 0.074 7.23 1.35 14.72
12/19/2020 1:00:00 AM -0.01 31.982 0.075 7.23 1.85 14.71
12/19/2020 1:15:00 AM -0.01 31.982 0.075 7.23 1.4 14.72
12/19/2020 1:30:00 AM -0.01 31.982 0.075 7.23 1.39 14.7
12/19/2020 1:45:00 AM 0 32 0.075 7.23 1.38 14.68
12/19/2020 2:00:00 AM 0 32 0.075 7.23 1.38 14.69
12/19/2020 2:15:00 AM 0 32 0.075 7.23 1.36 14.67
12/19/2020 2:30:00 AM -0.01 31.982 0.076 7.23 1.37 14.68
12/19/2020 2:45:00 AM 0 32 0.076 7.23 1.36 14.68
12/19/2020 3:00:00 AM 0 32 0.076 7.23 1.35 14.66
12/19/2020 3:15:00 AM -0.01 31.982 0.076 7.23 1.38 14.67
12/19/2020 3:30:00 AM -0.01 31.982 0.076 7.23 1.32 14.66
12/19/2020 3:45:00 AM -0.01 31.982 0.076 7.23 1.33 14.65
12/19/2020 4:00:00 AM 0 32 0.077 7.23 1.3 14.63
12/19/2020 4:15:00 AM 0 32 0.077 7.23 1.4 14.66
12/19/2020 4:30:00 AM 0 32 0.077 7.23 1.35 14.64
12/19/2020 4:45:00 AM 0 32 0.077 7.23 1.36 14.63
12/19/2020 5:00:00 AM 0 32 0.077 7.23 1.32 14.62
12/19/2020 5:15:00 AM 0 32 0.077 7.22 1.36 14.59
12/19/2020 5:30:00 AM 0.01 32.018 0.078 7.22 1.33 14.56
12/19/2020 5:45:00 AM 0 32 0.078 7.23 1.37 14.59
12/19/2020 6:00:00 AM 0 32 0.078 7.22 1.35 14.59
12/19/2020 6:15:00 AM -0.01 31.982 0.078 7.23 1.33 14.61
12/19/2020 6:30:00 AM 0 32 0.078 7.22 1.32 14.61
12/19/2020 6:45:00 AM -0.01 31.982 0.078 7.23 1.39 14.62
12/19/2020 7:00:00 AM -0.01 31.982 0.079 7.23 1.35 14.62
12/19/2020 7:15:00 AM -0.01 31.982 0.079 7.23 1.35 14.61
12/19/2020 7:30:00 AM -0.01 31.982 0.079 7.23 1.33 14.61
12/19/2020 7:45:00 AM -0.01 31.982 0.079 7.23 1.33 14.6
12/19/2020 8:00:00 AM -0.01 31.982 0.079 7.23 1.33 14.62
12/19/2020 8:15:00 AM -0.01 31.982 0.079 7.23 1.3 14.63
12/19/2020 8:30:00 AM 0 32 0.079 7.24 1.35 14.69
12/19/2020 8:45:00 AM 0 32 0.079 7.25 1.31 14.73
12/19/2020 9:00:00 AM 0 32 0.079 7.26 1.3 14.78
12/19/2020 9:15:00 AM 0 32 0.079 7.27 1.32 14.87
12/19/2020 9:30:00 AM 0 32 0.079 7.28 1.38 14.92
12/19/2020 9:45:00 AM 0.01 32.018 0.079 7.29 1.42 15
12/19/2020 10:00:00 AM 0.01 32.018 0.079 7.3 1.32 15.06
12/19/2020 10:15:00 AM 0.01 32.018 0.078 7.31 1.44 15.11
12/19/2020 10:30:00 AM 0.02 32.036 0.078 7.32 1.42 15.14
12/19/2020 10:45:00 AM 0.02 32.036 0.078 7.33 1.34 15.21
12/19/2020 11:00:00 AM 0.02 32.036 0.078 7.34 1.39 15.26
12/19/2020 11:15:00 AM 0.02 32.036 0.078 7.36 1.32 15.32
12/19/2020 11:30:00 AM 0.03 32.054 0.078 7.37 1.36 15.34
12/19/2020 11:45:00 AM 0.04 32.072 0.077 7.38 1.36 15.32
12/19/2020 12:00:00 PM 0.03 32.054 0.077 7.39 1.29 15.34
12/19/2020 12:15:00 PM 0.03 32.054 0.077 7.41 1.35 15.35
12/19/2020 12:30:00 PM 0.03 32.054 0.077 7.41 1.37 15.35
12/19/2020 12:45:00 PM 0.04 32.072 0.077 7.41 1.42 15.32
12/19/2020 1:00:00 PM 0.02 32.036 0.076 7.44 1.36 15.42
12/19/2020 1:15:00 PM 0.02 32.036 0.076 7.46 1.44 15.45
12/19/2020 1:30:00 PM 0.02 32.036 0.076 7.46 1.46 15.47
12/19/2020 1:45:00 PM 0.03 32.054 0.076 7.46 1.4 15.4
12/19/2020 2:00:00 PM 0.04 32.072 0.076 7.46 1.41 15.39
12/19/2020 2:15:00 PM 0.02 32.036 0.075 7.47 1.4 15.41
12/19/2020 2:30:00 PM 0.01 32.018 0.075 7.49 1.45 15.45
12/19/2020 2:45:00 PM 0.02 32.036 0.075 7.48 1.53 15.42
12/19/2020 3:00:00 PM 0.02 32.036 0.075 7.49 1.58 15.42
12/19/2020 3:15:00 PM 0.02 32.036 0.074 7.48 1.52 15.41
12/19/2020 3:30:00 PM 0.01 32.018 0.074 7.48 1.54 15.4
12/19/2020 3:45:00 PM 0.01 32.018 0.074 7.48 1.55 15.37
12/19/2020 4:00:00 PM 0.01 32.018 0.074 7.47 1.69 15.35
12/19/2020 4:15:00 PM 0.01 32.018 0.074 7.46 1.78 15.3
12/19/2020 4:30:00 PM 0 32 0.074 7.45 1.77 15.25
12/19/2020 4:45:00 PM 0 32 0.073 7.44 1.69 15.19
12/19/2020 5:00:00 PM 0 32 0.073 7.42 1.85 15.12
12/19/2020 5:15:00 PM 0 32 0.073 7.4 1.73 15.05
12/19/2020 5:30:00 PM 0 32 0.073 7.39 1.71 14.98
12/19/2020 5:45:00 PM 0 32 0.073 7.37 1.76 14.92
12/19/2020 6:00:00 PM 0 32 0.073 7.36 1.7 14.89
12/19/2020 6:15:00 PM 0 32 0.073 7.35 1.69 14.85
12/19/2020 6:30:00 PM 0 32 0.073 7.34 1.63 14.82
12/19/2020 6:45:00 PM 0 32 0.073 7.33 1.58 14.77
12/19/2020 7:00:00 PM 0.01 32.018 0.073 7.32 1.56 14.73
12/19/2020 7:15:00 PM 0.01 32.018 0.073 7.31 1.53 14.7
12/19/2020 7:30:00 PM 0.01 32.018 0.073 7.3 1.57 14.69
12/19/2020 7:45:00 PM 0.01 32.018 0.073 7.29 1.66 14.67
12/19/2020 8:00:00 PM 0.01 32.018 0.073 7.29 1.6 14.62
12/19/2020 8:15:00 PM 0 32 0.073 7.28 1.57 14.62
12/19/2020 8:30:00 PM 0 32 0.073 7.27 1.59 14.59
12/19/2020 8:45:00 PM 0.01 32.018 0.073 7.27 1.67 14.58
12/19/2020 9:00:00 PM 0 32 0.073 7.27 1.65 14.57
12/19/2020 9:15:00 PM 0 32 0.073 7.26 1.54 14.55
12/19/2020 9:30:00 PM 0.01 32.018 0.073 7.26 1.56 14.54
12/19/2020 9:45:00 PM 0.01 32.018 0.073 7.26 1.52 14.54
12/19/2020 10:00:00 PM 0.01 32.018 0.074 7.25 1.62 14.51
12/19/2020 10:15:00 PM 0.01 32.018 0.074 7.25 1.76 14.5
12/19/2020 10:30:00 PM 0.01 32.018 0.074 7.25 1.63 14.49
12/19/2020 10:45:00 PM 0.01 32.018 0.074 7.24 1.52 14.49
12/19/2020 11:00:00 PM 0 32 0.074 7.24 1.65 14.49
12/19/2020 11:15:00 PM 0.01 32.018 0.074 7.24 1.55 14.48
12/19/2020 11:30:00 PM 0 32 0.074 7.24 1.75 14.47
12/19/2020 11:45:00 PM 0.01 32.018 0.074 7.24 1.8 14.47
12/20/2020 12:00:00 AM 0 32 0.074 7.23 1.63 14.45
12/20/2020 12:15:00 AM 0.01 32.018 0.074 7.24 1.53 14.46
12/20/2020 12:30:00 AM 0 32 0.074 7.23 1.54 14.46
12/20/2020 12:45:00 AM 0 32 0.074 7.23 1.47 14.46
12/20/2020 1:00:00 AM 0 32 0.074 7.23 1.47 14.46
12/20/2020 1:15:00 AM 0.01 32.018 0.075 7.23 1.54 14.46
12/20/2020 1:30:00 AM 0 32 0.075 7.23 1.48 14.46
12/20/2020 1:45:00 AM 0.01 32.018 0.075 7.23 2.85 14.43
12/20/2020 2:00:00 AM 0.01 32.018 0.075 7.23 1.44 14.45
12/20/2020 2:15:00 AM 0.01 32.018 0.075 7.23 1.47 14.45
12/20/2020 2:30:00 AM 0.01 32.018 0.075 7.23 1.48 14.45
12/20/2020 2:45:00 AM 0.01 32.018 0.075 7.23 1.49 14.45
12/20/2020 3:00:00 AM 0.01 32.018 0.075 7.23 1.45 14.45
12/20/2020 3:15:00 AM 0 32 0.075 7.23 1.46 14.43
12/20/2020 3:30:00 AM 0.01 32.018 0.075 7.23 1.57 14.44
12/20/2020 3:45:00 AM 0 32 0.075 7.22 3.39 14.43
12/20/2020 4:00:00 AM 0 32 0.075 7.22 5.85 14.44
12/20/2020 4:15:00 AM 0 32 0.075 7.22 1.48 14.43
12/20/2020 4:30:00 AM 0 32 0.075 7.22 1.47 14.42
12/20/2020 4:45:00 AM 0 32 0.075 7.22 1.46 14.41
12/20/2020 5:00:00 AM 0 32 0.075 7.22 1.42 14.41
12/20/2020 5:15:00 AM 0.01 32.018 0.075 7.22 1.47 14.42
12/20/2020 5:30:00 AM 0 32 0.075 7.22 8.18 14.41
12/20/2020 5:45:00 AM 0 32 0.075 7.22 1.37 14.4
12/20/2020 6:00:00 AM 0 32 0.075 7.22 1.31 14.4
12/20/2020 6:15:00 AM 0 32 0.075 7.22 1.37 14.41
12/20/2020 6:30:00 AM 0 32 0.075 7.22 1.36 14.4
12/20/2020 6:45:00 AM 0.01 32.018 0.075 7.22 4.82 14.41
12/20/2020 7:00:00 AM 0 32 0.075 7.22 2.97 14.4
12/20/2020 7:15:00 AM 0 32 0.075 7.22 1.62 14.41
12/20/2020 7:30:00 AM 0 32 0.075 7.22 1.55 14.42
12/20/2020 7:45:00 AM 0 32 0.075 7.21 1.63 14.43
12/20/2020 8:00:00 AM 0 32 0.075 7.22 1.61 14.43
12/20/2020 8:15:00 AM 0 32 0.075 7.22 1.44 14.45
12/20/2020 8:30:00 AM 0 32 0.075 7.22 1.41 14.46
12/20/2020 8:45:00 AM 0 32 0.075 7.23 1.53 14.49
12/20/2020 9:00:00 AM 0 32 0.075 7.24 1.57 14.53
12/20/2020 9:15:00 AM 0 32 0.075 7.25 1.56 14.57
12/20/2020 9:30:00 AM 0.01 32.018 0.075 7.25 1.42 14.62
12/20/2020 9:45:00 AM 0.01 32.018 0.075 7.26 1.76 14.66
12/20/2020 10:00:00 AM 0.01 32.018 0.074 7.27 3.26 14.7
12/20/2020 10:15:00 AM 0.01 32.018 0.074 7.28 1.67 14.74
12/20/2020 10:30:00 AM 0.01 32.018 0.074 7.3 1.6 14.81
12/20/2020 10:45:00 AM 0.02 32.036 0.074 7.31 1.6 14.85
12/20/2020 11:00:00 AM 0.01 32.018 0.074 7.32 1.6 14.89
12/20/2020 11:15:00 AM 0.01 32.018 0.074 7.33 1.27 14.91
12/20/2020 11:30:00 AM 0.02 32.036 0.074 7.34 1.37 14.93
12/20/2020 11:45:00 AM 0.01 32.018 0.074 7.34 1.3 14.92
12/20/2020 12:00:00 PM 0.02 32.036 0.074 7.35 1.29 14.94
12/20/2020 12:15:00 PM 0.01 32.018 0.073 7.36 1.41 14.95
12/20/2020 12:30:00 PM 0.01 32.018 0.073 7.36 1.42 14.98
12/20/2020 12:45:00 PM 0.01 32.018 0.073 7.36 1.39 14.96
12/20/2020 1:00:00 PM 0.01 32.018 0.073 7.37 6.86 14.95
12/20/2020 1:15:00 PM 0.01 32.018 0.073 7.37 1.27 14.95
12/20/2020 1:30:00 PM 0.01 32.018 0.073 7.37 1.32 14.97
12/20/2020 1:45:00 PM 0.01 32.018 0.073 7.38 1.34 14.98
12/20/2020 2:00:00 PM 0.01 32.018 0.073 7.38 1.25 14.98
12/20/2020 2:15:00 PM 0.01 32.018 0.073 7.38 1.26 14.96
12/20/2020 2:30:00 PM 0.01 32.018 0.073 7.38 1.36 14.95
12/20/2020 2:45:00 PM 0.01 32.018 0.073 7.38 1.32 14.93
12/20/2020 3:00:00 PM 0.01 32.018 0.073 7.38 1.27 14.92
12/20/2020 3:15:00 PM 0.01 32.018 0.072 7.38 1.42 14.91
12/20/2020 3:30:00 PM 0.02 32.036 0.072 7.37 1.26 14.88
12/20/2020 3:45:00 PM 0.01 32.018 0.072 7.37 1.4 14.87
12/20/2020 4:00:00 PM 0.02 32.036 0.072 7.36 1.34 14.83
12/20/2020 4:15:00 PM 0.01 32.018 0.072 7.36 1.3 14.82
12/20/2020 4:30:00 PM 0.01 32.018 0.072 7.35 1.58 14.78
12/20/2020 4:45:00 PM 0.01 32.018 0.072 7.34 1.32 14.73
12/20/2020 5:00:00 PM 0.01 32.018 0.072 7.33 9.86 14.67
12/20/2020 5:15:00 PM 0.01 32.018 0.072 7.32 1.52 14.64
12/20/2020 5:30:00 PM 0.01 32.018 0.072 7.31 1.43 14.6
12/20/2020 5:45:00 PM 0.01 32.018 0.073 7.3 1.5 14.57
12/20/2020 6:00:00 PM 0.01 32.018 0.072 7.29 1.57 14.55
12/20/2020 6:15:00 PM 0 32 0.072 7.29 1.44 14.53
12/20/2020 6:30:00 PM 0.01 32.018 0.072 7.28 1.46 14.5
12/20/2020 6:45:00 PM 0.01 32.018 0.073 7.27 1.71 14.47
12/20/2020 7:00:00 PM 0.01 32.018 0.072 7.27 1.35 14.47
12/20/2020 7:15:00 PM 0.01 32.018 0.072 7.26 1.31 14.45
12/20/2020 7:30:00 PM 0.01 32.018 0.073 7.26 1.38 14.45
12/20/2020 7:45:00 PM 0.01 32.018 0.072 7.26 1.28 14.44
12/20/2020 8:00:00 PM 0.01 32.018 0.073 7.25 1.39 14.42
12/20/2020 8:15:00 PM 0.01 32.018 0.073 7.25 1.39 14.42
12/20/2020 8:30:00 PM 0.01 32.018 0.073 7.25 1.38 14.42
12/20/2020 8:45:00 PM 0.01 32.018 0.073 7.25 1.28 14.42
12/20/2020 9:00:00 PM 0.01 32.018 0.073 7.24 1.3 14.42
12/20/2020 9:15:00 PM 0.01 32.018 0.073 7.24 1.28 14.41
12/20/2020 9:30:00 PM 0.01 32.018 0.073 7.24 1.37 14.4
12/20/2020 9:45:00 PM 0.01 32.018 0.073 7.24 1.33 14.39
12/20/2020 10:00:00 PM 0.01 32.018 0.073 7.23 1.3 14.38
12/20/2020 10:15:00 PM 0.01 32.018 0.073 7.23 1.33 14.39
12/20/2020 10:30:00 PM 0.01 32.018 0.073 7.23 1.31 14.39
12/20/2020 10:45:00 PM 0.01 32.018 0.073 7.23 1.29 14.38
12/20/2020 11:00:00 PM 0.01 32.018 0.073 7.23 1.28 14.38
12/20/2020 11:15:00 PM 0.01 32.018 0.073 7.23 1.31 14.38
12/20/2020 11:30:00 PM 0.01 32.018 0.073 7.23 1.33 14.38
12/20/2020 11:45:00 PM 0.01 32.018 0.073 7.23 1.3 14.37
12/21/2020 12:00:00 AM 0.01 32.018 0.073 7.23 1.24 14.38
12/21/2020 12:15:00 AM 0.01 32.018 0.073 7.23 3.23 14.35
12/21/2020 12:30:00 AM 0.01 32.018 0.073 7.23 1.26 14.37
12/21/2020 12:45:00 AM 0.02 32.036 0.073 7.23 1.21 14.37
12/21/2020 1:00:00 AM 0.02 32.036 0.073 7.23 1.16 14.35
12/21/2020 1:15:00 AM 0.02 32.036 0.073 7.23 1.2 14.35
12/21/2020 1:30:00 AM 0.02 32.036 0.073 7.23 1.18 14.33
12/21/2020 1:45:00 AM 0.02 32.036 0.074 7.23 1.23 14.36
12/21/2020 2:00:00 AM 0.02 32.036 0.074 7.23 1.18 14.35
12/21/2020 2:15:00 AM 0.02 32.036 0.073 7.22 1.27 14.34
12/21/2020 2:30:00 AM 0.02 32.036 0.073 7.22 1.3 14.33
12/21/2020 2:45:00 AM 0.02 32.036 0.073 7.22 1.4 14.33
12/21/2020 3:00:00 AM 0.01 32.018 0.073 7.22 1.44 14.36
12/21/2020 3:15:00 AM 0.01 32.018 0.073 7.21 1.43 14.36
12/21/2020 3:30:00 AM 0.02 32.036 0.074 7.21 1.6 14.36
12/21/2020 3:45:00 AM 0.01 32.018 0.074 7.22 1.55 14.36
12/21/2020 4:00:00 AM 0.01 32.018 0.074 7.22 1.7 14.37
12/21/2020 4:15:00 AM 0.02 32.036 0.074 7.22 2.3 14.33
12/21/2020 4:30:00 AM 0.02 32.036 0.074 7.22 1.63 14.34
12/21/2020 4:45:00 AM 0.02 32.036 0.074 7.21 1.45 14.34
12/21/2020 5:00:00 AM 0.02 32.036 0.074 7.22 1.44 14.34
12/21/2020 5:15:00 AM 0.02 32.036 0.074 7.22 1.47 14.36
12/21/2020 5:30:00 AM 0.02 32.036 0.074 7.21 39.02 14.33
12/21/2020 5:45:00 AM 0.01 32.018 0.074 7.22 2.27 14.37
12/21/2020 6:00:00 AM 0.01 32.018 0.074 7.22 1.55 14.35
12/21/2020 6:15:00 AM 0.01 32.018 0.074 7.22 1.64 14.33
12/21/2020 6:30:00 AM 0.02 32.036 0.074 7.22 1.56 14.34
12/21/2020 6:45:00 AM 0.01 32.018 0.074 7.22 1.64 14.35
12/21/2020 7:00:00 AM 0.01 32.018 0.074 7.21 1.21 14.35
12/21/2020 7:15:00 AM 0.01 32.018 0.074 7.21 1.31 14.34
12/21/2020 7:30:00 AM 0.01 32.018 0.074 7.22 1.74 14.34
12/21/2020 7:45:00 AM 0.01 32.018 0.073 7.21 2.5 14.34
12/21/2020 8:00:00 AM 0.01 32.018 0.073 7.22 1.37 14.4
12/21/2020 8:15:00 AM 0.01 32.018 0.073 7.23 1.43 14.45
12/21/2020 8:30:00 AM 0.02 32.036 0.073 7.24 1.45 14.51
12/21/2020 8:45:00 AM 0.02 32.036 0.073 7.25 1.43 14.56
12/21/2020 9:00:00 AM 0.02 32.036 0.073 7.26 1.66 14.64
12/21/2020 9:15:00 AM 0.03 32.054 0.073 7.27 1.65 14.71
12/21/2020 9:30:00 AM 0.03 32.054 0.073 7.29 1.56 14.75
12/21/2020 9:45:00 AM 0.02 32.036 0.073 7.3 1.57 14.77
12/21/2020 10:00:00 AM 0.02 32.036 0.073 7.31 1.62 14.79
12/21/2020 10:15:00 AM 0.03 32.054 0.073 7.32 1.62 14.84
12/21/2020 10:30:00 AM 0.03 32.054 0.072 7.33 1.5 14.88
12/21/2020 10:45:00 AM 0.03 32.054 0.073 7.34 1.46 14.89
12/21/2020 11:00:00 AM 0.03 32.054 0.073 7.36 1.5 14.93
12/21/2020 11:15:00 AM 0.04 32.072 0.072 7.36 1.48 14.94
12/21/2020 11:30:00 AM 0.07 32.126 0.07 7.66 5.6 14.44
12/21/2020 11:45:00 AM 0.02 32.036 0.07 7.19 1.97 14.58
12/21/2020 12:00:00 PM 0.02 32.036 0.07 7.07 14.14 14.58
12/21/2020 12:15:00 PM 0.01 32.018 0.07 7.03 2.24 14.6
12/21/2020 12:30:00 PM 0.01 32.018 0.07 7.01 1.74 14.59
12/21/2020 12:45:00 PM 0.02 32.036 0.07 6.98 2.29 14.58
12/21/2020 1:00:00 PM 0.02 32.036 0.069 6.99 1.8 14.6
12/21/2020 1:15:00 PM 0.02 32.036 0.069 6.97 1.8 14.6
12/21/2020 1:30:00 PM 0.03 32.054 0.069 6.98 1.95 14.61
12/21/2020 1:45:00 PM 0.04 32.072 0.069 6.97 2.01 14.61
12/21/2020 2:00:00 PM 0.03 32.054 0.069 6.98 1.83 14.6
12/21/2020 2:15:00 PM 0.03 32.054 0.069 6.91 3.27 14.59
12/21/2020 2:30:00 PM 0.02 32.036 0.069 6.8 2.35 14.57
12/21/2020 2:45:00 PM 0.01 32.018 0.069 6.79 1.96 14.56
12/21/2020 3:00:00 PM 0.01 32.018 0.068 6.8 1.93 14.54
12/21/2020 3:15:00 PM 0 32 0.068 6.89 1.89 14.52
12/21/2020 3:30:00 PM 0 32 0.068 6.9 1.93 14.5
12/21/2020 3:45:00 PM 0 32 0.068 6.89 2.14 14.47
12/21/2020 4:00:00 PM -0.01 31.982 0.068 6.78 1.97 14.42
12/21/2020 4:15:00 PM -0.01 31.982 0.069 6.78 1.88 14.36
12/21/2020 4:30:00 PM -0.01 31.982 0.069 6.83 1.89 14.3
12/21/2020 4:45:00 PM -0.02 31.964 0.069 6.78 1.9 14.25
12/21/2020 5:00:00 PM -0.02 31.964 0.069 6.78 1.89 14.2
12/21/2020 5:15:00 PM -0.02 31.964 0.069 6.77 1.86 14.16
12/21/2020 5:30:00 PM -0.02 31.964 0.069 6.76 1.87 14.12
12/21/2020 5:45:00 PM -0.02 31.964 0.069 6.76 2.01 14.09
12/21/2020 6:00:00 PM -0.02 31.964 0.069 6.72 1.91 14.08
12/21/2020 6:15:00 PM -0.02 31.964 0.069 6.71 2.01 14.06
12/21/2020 6:30:00 PM -0.02 31.964 0.069 6.73 1.9 14.05
12/21/2020 6:45:00 PM -0.02 31.964 0.069 6.74 1.94 14.03
12/21/2020 7:00:00 PM -0.02 31.964 0.069 6.74 1.8 14.02
12/21/2020 7:15:00 PM -0.02 31.964 0.069 6.74 1.78 14.01
12/21/2020 7:30:00 PM -0.02 31.964 0.07 6.74 1.76 14
12/21/2020 7:45:00 PM -0.02 31.964 0.07 6.74 1.67 13.99
12/21/2020 8:00:00 PM -0.02 31.964 0.07 6.72 1.66 13.97
12/21/2020 8:15:00 PM -0.02 31.964 0.07 6.73 1.76 13.98
12/21/2020 8:30:00 PM -0.02 31.964 0.07 6.72 1.63 13.96
12/21/2020 8:45:00 PM -0.02 31.964 0.07 6.73 1.65 13.96
12/21/2020 9:00:00 PM -0.02 31.964 0.07 6.72 1.61 13.95
12/21/2020 9:15:00 PM -0.02 31.964 0.07 6.7 1.82 13.95
12/21/2020 9:30:00 PM -0.02 31.964 0.07 6.71 1.88 13.95
12/21/2020 9:45:00 PM -0.02 31.964 0.07 6.7 1.65 13.94
12/21/2020 10:00:00 PM -0.02 31.964 0.071 6.69 1.63 13.93
12/21/2020 10:15:00 PM -0.02 31.964 0.071 6.66 1.7 13.93
12/21/2020 10:30:00 PM -0.02 31.964 0.071 6.68 2.02 13.93
12/21/2020 10:45:00 PM -0.02 31.964 0.071 6.68 1.75 13.93
12/21/2020 11:00:00 PM -0.02 31.964 0.071 6.66 1.73 13.92
12/21/2020 11:15:00 PM -0.02 31.964 0.071 6.67 1.66 13.92
12/21/2020 11:30:00 PM -0.02 31.964 0.071 6.67 1.69 13.92
12/21/2020 11:45:00 PM -0.02 31.964 0.071 6.64 1.72 13.92
12/22/2020 12:00:00 AM -0.02 31.964 0.071 6.66 1.69 13.91
12/22/2020 12:15:00 AM -0.02 31.964 0.071 6.67 1.74 13.91
12/22/2020 12:30:00 AM -0.02 31.964 0.071 6.63 1.78 13.92
12/22/2020 12:45:00 AM -0.02 31.964 0.071 6.64 1.69 13.92
12/22/2020 1:00:00 AM -0.02 31.964 0.071 6.61 1.71 13.92
12/22/2020 1:15:00 AM -0.02 31.964 0.071 6.64 1.75 13.91
12/22/2020 1:30:00 AM -0.02 31.964 0.071 6.64 1.7 13.91
12/22/2020 1:45:00 AM -0.03 31.946 0.071 6.66 1.8 13.91
12/22/2020 2:00:00 AM -0.03 31.946 0.071 6.65 1.75 13.91
12/22/2020 2:15:00 AM -0.02 31.964 0.071 6.62 1.72 13.91
12/22/2020 2:30:00 AM -0.02 31.964 0.071 6.63 1.73 13.91
12/22/2020 2:45:00 AM -0.02 31.964 0.071 6.62 1.74 13.91
12/22/2020 3:00:00 AM -0.02 31.964 0.071 6.62 1.82 13.91
12/22/2020 3:15:00 AM -0.02 31.964 0.071 6.61 1.76 13.92
12/22/2020 3:30:00 AM -0.02 31.964 0.071 6.62 1.68 13.92
12/22/2020 3:45:00 AM -0.02 31.964 0.072 6.59 1.76 13.91
12/22/2020 4:00:00 AM -0.02 31.964 0.072 6.63 1.78 13.92
12/22/2020 4:15:00 AM -0.02 31.964 0.072 6.61 1.78 13.91
12/22/2020 4:30:00 AM -0.02 31.964 0.072 6.59 1.79 13.92
12/22/2020 4:45:00 AM -0.02 31.964 0.072 6.62 1.83 13.92
12/22/2020 5:00:00 AM -0.02 31.964 0.072 6.61 1.75 13.92
12/22/2020 5:15:00 AM -0.02 31.964 0.072 6.62 1.72 13.93
12/22/2020 5:30:00 AM -0.02 31.964 0.072 6.61 1.8 13.92
12/22/2020 5:45:00 AM -0.02 31.964 0.072 6.59 1.84 13.93
12/22/2020 6:00:00 AM -0.02 31.964 0.072 6.6 1.81 13.93
12/22/2020 6:15:00 AM -0.02 31.964 0.072 6.6 1.78 13.93
12/22/2020 6:30:00 AM -0.02 31.964 0.072 6.57 1.81 13.94
12/22/2020 6:45:00 AM -0.03 31.946 0.072 6.61 1.77 13.95
12/22/2020 7:00:00 AM -0.02 31.964 0.072 6.59 1.8 13.94
12/22/2020 7:15:00 AM -0.02 31.964 0.072 6.6 1.83 13.94
12/22/2020 7:30:00 AM -0.02 31.964 0.073 6.6 1.95 13.95
12/22/2020 7:45:00 AM -0.01 31.982 0.073 6.58 1.82 13.95
12/22/2020 8:00:00 AM -0.01 31.982 0.074 6.58 1.85 13.98
12/22/2020 8:15:00 AM -0.01 31.982 0.074 6.56 1.81 14.03
12/22/2020 8:30:00 AM -0.01 31.982 0.074 6.59 1.76 14.1
12/22/2020 8:45:00 AM 0 32 0.074 6.6 1.81 14.16
12/22/2020 9:00:00 AM 0.02 32.036 0.073 6.63 1.87 14.22
12/22/2020 9:15:00 AM 0.02 32.036 0.073 6.65 1.93 14.28
12/22/2020 9:30:00 AM 0.02 32.036 0.073 6.65 1.85 14.29
12/22/2020 9:45:00 AM 0.02 32.036 0.073 6.69 1.85 14.33
12/22/2020 10:00:00 AM 0.03 32.054 0.073 6.7 1.81 14.38
12/22/2020 10:15:00 AM 0.05 32.09 0.073 6.74 1.85 14.43
12/22/2020 10:30:00 AM 0.05 32.09 0.072 6.76 1.95 14.46
12/22/2020 10:45:00 AM 0.06 32.108 0.072 6.78 1.83 14.46
12/22/2020 11:00:00 AM 0.08 32.144 0.072 6.8 1.81 14.49
12/22/2020 11:15:00 AM 0.1 32.18 0.071 6.81 1.84 14.49
12/22/2020 11:30:00 AM 0.11 32.198 0.071 6.79 1.98 14.45
12/22/2020 11:45:00 AM 0.11 32.198 0.071 6.83 1.94 14.46
12/22/2020 12:00:00 PM 0.1 32.18 0.071 6.82 1.9 14.45
12/22/2020 12:15:00 PM 0.11 32.198 0.071 6.82 1.93 14.46
12/22/2020 12:30:00 PM 0.11 32.198 0.071 6.84 1.99 14.46
12/22/2020 12:45:00 PM 0.14 32.252 0.071 6.85 1.95 14.46
12/22/2020 1:00:00 PM 0.16 32.288 0.071 6.85 1.91 14.44
12/22/2020 1:15:00 PM 0.17 32.306 0.071 6.86 2.21 14.43
12/22/2020 1:30:00 PM 0.16 32.288 0.071 6.85 1.93 14.41
12/22/2020 1:45:00 PM 0.17 32.306 0.071 6.84 1.89 14.39
12/22/2020 2:00:00 PM 0.17 32.306 0.07 6.85 1.92 14.37
12/22/2020 2:15:00 PM 0.16 32.288 0.07 6.83 2.08 14.34
12/22/2020 2:30:00 PM 0.18 32.324 0.07 6.83 1.98 14.3
12/22/2020 2:45:00 PM 0.18 32.324 0.07 6.84 1.95 14.31
12/22/2020 3:00:00 PM 0.2 32.36 0.07 6.83 1.94 14.3
12/22/2020 3:15:00 PM 0.22 32.396 0.07 6.84 1.96 14.3
12/22/2020 3:30:00 PM 0.24 32.432 0.07 6.84 1.98 14.28
12/22/2020 3:45:00 PM 0.26 32.468 0.07 6.84 1.92 14.27
12/22/2020 4:00:00 PM 0.27 32.486 0.071 6.83 1.96 14.23
12/22/2020 4:15:00 PM 0.29 32.522 0.071 6.83 1.97 14.17
12/22/2020 4:30:00 PM 0.31 32.558 0.071 6.79 1.98 14.1
12/22/2020 4:45:00 PM 0.34 32.612 0.071 6.81 1.92 14.04
12/22/2020 5:00:00 PM 0.37 32.666 0.072 6.78 2.03 13.97
12/22/2020 5:15:00 PM 0.41 32.738 0.072 6.78 1.93 13.91
12/22/2020 5:30:00 PM 0.44 32.792 0.072 6.78 2.05 13.88
12/22/2020 5:45:00 PM 0.48 32.864 0.072 6.77 2.01 13.85
12/22/2020 6:00:00 PM 0.53 32.954 0.073 6.77 1.99 13.81
12/22/2020 6:15:00 PM 0.57 33.026 0.073 6.75 1.96 13.79
12/22/2020 6:30:00 PM 0.62 33.116 0.073 6.75 1.9 13.75
12/22/2020 6:45:00 PM 0.67 33.206 0.073 6.75 2.02 13.73
12/22/2020 7:00:00 PM 0.72 33.296 0.073 6.75 1.91 13.71
12/22/2020 7:15:00 PM 0.76 33.368 0.073 6.75 1.99 13.7
12/22/2020 7:30:00 PM 0.79 33.422 0.073 6.74 1.95 13.68
12/22/2020 7:45:00 PM 0.83 33.494 0.074 6.74 1.93 13.66
12/22/2020 8:00:00 PM 0.88 33.584 0.074 6.74 1.94 13.68
12/22/2020 8:15:00 PM 0.94 33.692 0.074 6.74 2.05 13.65
12/22/2020 8:30:00 PM 0.98 33.764 0.074 6.74 1.97 13.65
12/22/2020 8:45:00 PM 1.02 33.836 0.074 6.74 2.09 13.63
12/22/2020 9:00:00 PM 1.04 33.872 0.074 6.72 1.97 13.63
12/22/2020 9:15:00 PM 1.07 33.926 0.075 6.73 2.02 13.63
12/22/2020 9:30:00 PM 1.12 34.016 0.075 6.73 2.46 13.61
12/22/2020 9:45:00 PM 1.16 34.088 0.075 6.73 1.97 13.61
12/22/2020 10:00:00 PM 1.19 34.142 0.075 6.74 1.88 13.61
12/22/2020 10:15:00 PM 1.21 34.178 0.075 6.74 2.31 13.59
12/22/2020 10:30:00 PM 1.22 34.196 0.076 6.74 1.88 13.61
12/22/2020 10:45:00 PM 1.22 34.196 0.076 6.74 2.04 13.61
12/22/2020 11:00:00 PM 1.21 34.178 0.076 6.74 1.93 13.61
12/22/2020 11:15:00 PM 1.21 34.178 0.076 6.73 1.98 13.61
12/22/2020 11:30:00 PM 1.2 34.16 0.076 6.73 2.03 13.61
12/22/2020 11:45:00 PM 1.2 34.16 0.076 6.72 2.17 13.63
12/23/2020 12:00:00 AM 1.21 34.178 0.076 6.69 1.85 13.62
12/23/2020 12:15:00 AM 1.21 34.178 0.076 6.73 1.92 13.63
12/23/2020 12:30:00 AM 1.22 34.196 0.076 6.69 1.89 13.63
12/23/2020 12:45:00 AM 1.22 34.196 0.076 6.72 1.94 13.63
12/23/2020 1:00:00 AM 1.22 34.196 0.076 6.69 1.96 13.64
12/23/2020 1:15:00 AM 1.21 34.178 0.076 6.71 2.17 13.65
12/23/2020 1:30:00 AM 1.19 34.142 0.076 6.72 1.97 13.65
12/23/2020 1:45:00 AM 1.2 34.16 0.077 6.7 2.18 13.65
12/23/2020 2:00:00 AM 1.2 34.16 0.077 6.7 2.12 13.65
12/23/2020 2:15:00 AM 1.2 34.16 0.077 6.7 1.96 13.66
12/23/2020 2:30:00 AM 1.2 34.16 0.077 6.67 1.82 13.66
12/23/2020 2:45:00 AM 1.2 34.16 0.077 6.7 1.89 13.67
12/23/2020 3:00:00 AM 1.21 34.178 0.077 6.7 1.94 13.67
12/23/2020 3:15:00 AM 1.22 34.196 0.077 6.69 1.92 13.68
12/23/2020 3:30:00 AM 1.22 34.196 0.077 6.69 1.91 13.67
12/23/2020 3:45:00 AM 1.22 34.196 0.077 6.69 1.92 13.67
12/23/2020 4:00:00 AM 1.21 34.178 0.077 6.69 1.88 13.66
12/23/2020 4:15:00 AM 1.18 34.124 0.077 6.69 1.98 13.68
12/23/2020 4:30:00 AM 1.16 34.088 0.077 6.69 1.89 13.69
12/23/2020 4:45:00 AM 1.13 34.034 0.077 6.68 1.91 13.68
12/23/2020 5:00:00 AM 1.1 33.98 0.077 6.68 1.89 13.69
12/23/2020 5:15:00 AM 1.07 33.926 0.077 6.67 2.15 13.71
12/23/2020 5:30:00 AM 1.04 33.872 0.077 6.67 1.92 13.71
12/23/2020 5:45:00 AM 1.01 33.818 0.077 6.67 1.95 13.71
12/23/2020 6:00:00 AM 0.98 33.764 0.077 6.66 1.9 13.73
12/23/2020 6:15:00 AM 0.95 33.71 0.077 6.63 2.33 13.72
12/23/2020 6:30:00 AM 0.92 33.656 0.077 6.67 1.89 13.76
12/23/2020 6:45:00 AM 0.89 33.602 0.077 6.65 1.91 13.79
12/23/2020 7:00:00 AM 0.86 33.548 0.077 6.64 1.9 13.8
12/23/2020 7:15:00 AM 0.82 33.476 0.077 6.66 1.92 13.81
12/23/2020 7:30:00 AM 0.79 33.422 0.077 6.65 1.92 13.82
12/23/2020 7:45:00 AM 0.76 33.368 0.077 6.66 1.85 13.84
12/23/2020 8:00:00 AM 0.73 33.314 0.077 6.65 1.88 13.89
12/23/2020 8:15:00 AM 0.71 33.278 0.077 6.68 1.96 13.97
12/23/2020 8:30:00 AM 0.69 33.242 0.077 6.69 2.35 14.06
12/23/2020 8:45:00 AM 0.69 33.242 0.077 6.71 1.86 14.15
12/23/2020 9:00:00 AM 0.69 33.242 0.077 6.72 1.98 14.2
12/23/2020 9:15:00 AM 0.71 33.278 0.077 6.74 1.9 14.26
12/23/2020 9:30:00 AM 0.74 33.332 0.076 6.77 1.85 14.34
12/23/2020 9:45:00 AM 0.78 33.404 0.076 6.75 1.92 14.38
12/23/2020 10:00:00 AM 0.81 33.458 0.076 6.8 1.9 14.39
12/23/2020 10:15:00 AM 0.85 33.53 0.076 6.82 1.87 14.4
12/23/2020 10:30:00 AM 0.92 33.656 0.076 6.83 1.88 14.4
12/23/2020 10:45:00 AM 1.01 33.818 0.076 6.84 1.95 14.39
12/23/2020 11:00:00 AM 1.09 33.962 0.076 6.86 2.07 14.39
12/23/2020 11:15:00 AM 1.18 34.124 0.076 6.87 1.83 14.4
12/23/2020 11:30:00 AM 1.28 34.304 0.076 6.89 1.88 14.36
12/23/2020 11:45:00 AM 1.41 34.538 0.075 6.9 1.89 14.34
12/23/2020 12:00:00 PM 1.55 34.79 0.075 6.91 1.86 14.29
12/23/2020 12:15:00 PM 1.64 34.952 0.075 6.92 1.84 14.25
12/23/2020 12:30:00 PM 1.74 35.132 0.075 6.93 1.9 14.22
12/23/2020 12:45:00 PM 1.84 35.312 0.075 6.93 1.83 14.18
12/23/2020 1:00:00 PM 1.97 35.546 0.075 6.95 2.11 14.12
12/23/2020 1:15:00 PM 2.11 35.798 0.075 6.95 1.9 14.07
12/23/2020 1:30:00 PM 2.22 35.996 0.075 6.96 1.95 14.02
12/23/2020 1:45:00 PM 2.32 36.176 0.075 6.97 1.88 13.96
12/23/2020 2:00:00 PM 2.42 36.356 0.074 6.98 1.95 13.92
12/23/2020 2:15:00 PM 2.5 36.5 0.074 6.97 1.94 13.88
12/23/2020 2:30:00 PM 2.57 36.626 0.074 6.98 2.07 13.84
12/23/2020 2:45:00 PM 2.63 36.734 0.074 6.99 1.95 13.82
12/23/2020 3:00:00 PM 2.66 36.788 0.075 6.99 2.41 13.78
12/23/2020 3:15:00 PM 2.65 36.77 0.075 6.98 2.23 13.74
12/23/2020 3:30:00 PM 2.61 36.698 0.075 6.98 2.08 13.71
12/23/2020 3:45:00 PM 2.56 36.608 0.075 6.97 2.03 13.68
12/23/2020 4:00:00 PM 2.5 36.5 0.075 6.93 2.05 13.66
12/23/2020 4:15:00 PM 2.43 36.374 0.075 6.94 2.17 13.62
12/23/2020 4:30:00 PM 2.37 36.266 0.075 6.92 2.19 13.57
12/23/2020 4:45:00 PM 2.32 36.176 0.075 6.89 2.2 13.53
12/23/2020 5:00:00 PM 2.27 36.086 0.076 6.86 2.05 13.46
12/23/2020 5:15:00 PM 2.23 36.014 0.076 6.83 1.93 13.41
12/23/2020 5:30:00 PM 2.19 35.942 0.076 6.81 2.08 13.37
12/23/2020 5:45:00 PM 2.17 35.906 0.076 6.79 2.3 13.34
12/23/2020 6:00:00 PM 2.14 35.852 0.076 6.77 2.09 13.32
12/23/2020 6:15:00 PM 2.13 35.834 0.077 6.76 2.08 13.3
12/23/2020 6:30:00 PM 2.11 35.798 0.076 6.75 1.99 13.29
12/23/2020 6:45:00 PM 2.09 35.762 0.076 6.68 2.11 13.27
12/23/2020 7:00:00 PM 2.08 35.744 0.077 6.74 2.2 13.26
12/23/2020 7:15:00 PM 2.06 35.708 0.077 6.7 2.07 13.25
12/23/2020 7:30:00 PM 2.05 35.69 0.077 6.73 2.08 13.26
12/23/2020 7:45:00 PM 2.03 35.654 0.077 6.72 2.61 13.25
12/23/2020 8:00:00 PM 2.01 35.618 0.077 6.71 2.17 13.25
12/23/2020 8:15:00 PM 1.99 35.582 0.077 6.71 2.21 13.25
12/23/2020 8:30:00 PM 1.98 35.564 0.078 6.71 2.07 13.27
12/23/2020 8:45:00 PM 1.97 35.546 0.078 6.71 1.98 13.27
12/23/2020 9:00:00 PM 1.96 35.528 0.078 6.71 2.45 13.27
12/23/2020 9:15:00 PM 1.95 35.51 0.078 6.7 2.14 13.28
12/23/2020 9:30:00 PM 1.94 35.492 0.078 6.7 2.08 13.24
12/23/2020 9:45:00 PM 1.92 35.456 0.078 6.7 2.07 13.29
12/23/2020 10:00:00 PM 1.89 35.402 0.078 6.71 2.02 13.3
12/23/2020 10:15:00 PM 1.86 35.348 0.078 6.7 2.1 13.3
12/23/2020 10:30:00 PM 1.83 35.294 0.078 6.7 2.14 13.32
12/23/2020 10:45:00 PM 1.8 35.24 4.602 6.53 2.07 13.1
12/23/2020 11:00:00 PM 1.77 35.186 3.262 6.58 2.03 13.19
12/23/2020 11:15:00 PM 1.74 35.132 3.113 6.58 1.95 13.2
12/23/2020 11:30:00 PM 1.71 35.078 3.029 6.57 1.98 13.21
12/23/2020 11:45:00 PM 1.69 35.042 2.957 6.58 2.04 13.23
12/24/2020 12:00:00 AM 1.66 34.988 2.986 6.57 2.01 13.22
12/24/2020 12:15:00 AM 1.63 34.934 2.954 6.58 1.89 13.22
12/24/2020 12:30:00 AM 1.61 34.898 2.924 6.58 1.97 13.22
12/24/2020 12:45:00 AM 1.59 34.862 2.923 6.58 2.05 13.24
12/24/2020 1:00:00 AM 1.58 34.844 2.931 6.54 1.91 13.26
12/24/2020 1:15:00 AM 1.56 34.808 2.947 6.57 1.98 13.25
12/24/2020 1:30:00 AM 1.55 34.79 2.884 6.56 2.01 13.26
12/24/2020 1:45:00 AM 1.55 34.79 2.951 6.58 1.93 13.27
12/24/2020 2:00:00 AM 1.56 34.808 2.871 6.54 1.95 13.26
12/24/2020 2:15:00 AM 1.57 34.826 2.902 6.58 2.06 13.24
12/24/2020 2:30:00 AM 1.56 34.808 2.87 6.54 1.95 13.27
12/24/2020 2:45:00 AM 1.53 34.754 2.936 6.59 1.94 13.28
12/24/2020 3:00:00 AM 1.53 34.754 2.863 6.58 1.99 13.28
12/24/2020 3:15:00 AM 1.53 34.754 2.845 6.59 1.92 13.28
12/24/2020 3:30:00 AM 1.55 34.79 2.896 6.58 1.9 13.27
12/24/2020 3:45:00 AM 1.56 34.808 2.876 6.59 1.9 13.27
12/24/2020 4:00:00 AM 1.57 34.826 2.891 6.58 1.91 13.27
12/24/2020 4:15:00 AM 1.59 34.862 2.836 6.58 1.87 13.26
12/24/2020 4:30:00 AM 1.59 34.862 2.835 6.59 1.98 13.25
12/24/2020 4:45:00 AM 1.58 34.844 2.866 6.59 2.61 13.25
12/24/2020 5:00:00 AM 1.58 34.844 2.877 6.59 2.29 13.25
12/24/2020 5:15:00 AM 1.59 34.862 2.905 6.56 1.92 13.24
12/24/2020 5:30:00 AM 1.62 34.916 2.868 6.59 1.87 13.24
12/24/2020 5:45:00 AM 1.65 34.97 2.813 6.56 1.94 13.23
12/24/2020 6:00:00 AM 1.69 35.042 2.887 6.59 2.09 13.22
12/24/2020 6:15:00 AM 1.72 35.096 2.879 6.59 1.92 13.2
12/24/2020 6:30:00 AM 1.76 35.168 2.844 6.59 1.93 13.19
12/24/2020 6:45:00 AM 1.8 35.24 2.8 6.6 1.94 13.18
12/24/2020 7:00:00 AM 1.84 35.312 2.819 6.6 1.9 13.17
12/24/2020 7:15:00 AM 1.89 35.402 2.843 6.6 1.87 13.15
12/24/2020 7:30:00 AM 1.93 35.474 2.845 6.6 1.93 13.14
12/24/2020 7:45:00 AM 1.97 35.546 2.849 6.6 1.91 13.13
12/24/2020 8:00:00 AM 2 35.6 2.831 6.6 1.96 13.12
12/24/2020 8:15:00 AM 2.04 35.672 2.913 6.61 2.51 13.1
12/24/2020 8:30:00 AM 2.07 35.726 2.934 6.63 3.08 13.09
12/24/2020 8:45:00 AM 2.1 35.78 2.901 6.63 3.2 13.1
12/24/2020 9:00:00 AM 2.15 35.87 2.854 6.62 3.21 13.12
12/24/2020 9:15:00 AM 2.21 35.978 2.867 6.66 3.37 13.19
12/24/2020 9:30:00 AM 2.26 36.068 2.881 6.67 3.33 13.21
12/24/2020 9:45:00 AM 2.29 36.122 2.835 6.67 3.22 13.24
12/24/2020 10:00:00 AM 2.32 36.176 2.893 6.68 3.11 13.26
12/24/2020 10:15:00 AM 2.36 36.248 2.87 6.69 3.19 13.3
12/24/2020 10:30:00 AM 2.41 36.338 2.899 6.67 3.42 13.32
12/24/2020 10:45:00 AM 2.44 36.392 2.919 6.72 3.32 13.35
12/24/2020 11:00:00 AM 2.49 36.482 2.937 6.72 3.7 13.35
12/24/2020 11:15:00 AM 2.54 36.572 2.914 6.73 4.03 13.35
12/24/2020 11:30:00 AM 2.59 36.662 2.942 6.74 4.76 13.35
12/24/2020 11:45:00 AM 2.64 36.752 2.916 6.75 4.91 13.34
12/24/2020 12:00:00 PM 2.68 36.824 2.977 6.75 5.52 13.3
12/24/2020 12:15:00 PM 2.72 36.896 2.927 6.75 5.32 13.28
12/24/2020 12:30:00 PM 2.73 36.914 2.963 6.74 5.82 13.26
12/24/2020 12:45:00 PM 2.75 36.95 2.96 6.73 5.94 13.23
12/24/2020 1:00:00 PM 2.75 36.95 2.944 6.72 6.29 13.22
12/24/2020 1:15:00 PM 2.75 36.95 2.988 6.71 6.99 13.18
12/24/2020 1:30:00 PM 2.73 36.914 3 6.7 7.5 13.17
12/24/2020 1:45:00 PM 2.68 36.824 2.98 6.68 9.35 13.13
12/24/2020 2:00:00 PM 2.63 36.734 2.985 6.64 10.81 13.1
12/24/2020 2:15:00 PM 2.57 36.626 2.984 6.62 10.67 13.06
12/24/2020 2:30:00 PM 2.5 36.5 2.946 6.58 14.36 13.05
12/24/2020 2:45:00 PM 2.43 36.374 2.978 6.54 28.25 13.01
12/24/2020 3:00:00 PM 2.36 36.248 2.922 6.51 22.31 12.99
12/24/2020 3:15:00 PM 2.33 36.194 2.851 6.44 34.37 12.97
12/24/2020 3:30:00 PM 2.28 36.104 2.85 6.39 36.32 12.94
12/24/2020 3:45:00 PM 2.31 36.158 2.789 6.31 45.6 12.89
12/24/2020 4:00:00 PM 2.34 36.212 2.742 6.16 86.29 12.88
12/24/2020 4:15:00 PM 2.39 36.302 2.698 6.16 79.61 12.82
12/24/2020 4:30:00 PM 2.46 36.428 2.615 6.08 85.18 12.74
12/24/2020 4:45:00 PM 2.52 36.536 2.586 6.15 80.91 12.74
12/24/2020 5:00:00 PM 2.57 36.626 2.594 6.13 88.48 12.7
12/24/2020 5:15:00 PM 2.6 36.68 2.536 6.13 94.3 12.68
12/24/2020 5:30:00 PM 2.66 36.788 2.484 6.01 106.03 12.68
12/24/2020 5:45:00 PM 2.71 36.878 2.476 6.09 105.62 12.69
12/24/2020 6:00:00 PM 2.76 36.968 2.441 6.1 119.78 12.66
12/24/2020 6:15:00 PM 2.79 37.022 2.415 6.11 113.11 12.64
12/24/2020 6:30:00 PM 2.83 37.094 2.374 6.05 120.1 12.58
12/24/2020 6:45:00 PM 2.87 37.166 2.337 6.05 165.57 12.59
12/24/2020 7:00:00 PM 2.89 37.202 2.325 5.96 143.99 12.61
12/24/2020 7:15:00 PM 2.89 37.202 2.294 5.91 118.81 12.6
12/24/2020 7:30:00 PM 2.9 37.22 2.285 5.92 162.42 12.6
12/24/2020 7:45:00 PM 2.9 37.22 2.229 5.92 157.32 12.57
12/24/2020 8:00:00 PM 2.93 37.274 2.16 5.86 165.91 12.54
12/24/2020 8:15:00 PM 2.97 37.346 2.16 5.84 149.68 12.53
12/24/2020 8:30:00 PM 3.02 37.436 2.138 5.87 177.34 12.5
12/24/2020 8:45:00 PM 3.06 37.508 2.111 5.82 128.49 12.52
12/24/2020 9:00:00 PM 3.11 37.598 2.062 5.84 280.1 12.45
12/24/2020 9:15:00 PM 3.18 37.724 2.027 5.86 136.36 12.46
12/24/2020 9:30:00 PM 3.24 37.832 1.986 5.88 171.57 12.47
12/24/2020 9:45:00 PM 3.3 37.94 1.975 5.87 117.66 12.46
12/24/2020 10:00:00 PM 3.37 38.066 1.97 5.87 118.02 12.45
12/24/2020 10:15:00 PM 3.44 38.192 1.964 5.85 157.3 12.4
12/24/2020 10:30:00 PM 3.52 38.336 1.926 5.87 114.99 12.38
12/24/2020 10:45:00 PM 3.6 38.48 1.907 5.86 133.9 12.34
12/24/2020 11:00:00 PM 3.68 38.624 1.91 5.87 111.78 12.32
12/24/2020 11:15:00 PM 3.75 38.75 1.895 5.81 95.22 12.29
12/24/2020 11:30:00 PM 3.83 38.894 1.887 5.82 139.91 12.23
12/24/2020 11:45:00 PM 3.9 39.02 1.867 5.81 90.91 12.21
12/25/2020 12:00:00 AM 3.97 39.146 1.859 5.82 106.9 12.19
12/25/2020 12:15:00 AM 4.05 39.29 1.866 5.78 110.53 12.17
12/25/2020 12:30:00 AM 4.11 39.398 1.855 5.85 112.22 12.15
12/25/2020 12:45:00 AM 4.17 39.506 1.848 5.79 124.25 12.11
12/25/2020 1:00:00 AM 4.22 39.596 1.829 5.77 123.86 12.08
12/25/2020 1:15:00 AM 4.26 39.668 1.807 5.75 170.06 12.06
12/25/2020 1:30:00 AM 4.3 39.74 1.804 5.76 123.79 12.06
12/25/2020 1:45:00 AM 4.33 39.794 1.808 5.76 110.78 12.06
12/25/2020 2:00:00 AM 4.35 39.83 1.796 5.7 139.55 12.01
12/25/2020 2:15:00 AM 4.38 39.884 1.78 5.75 181.88 11.97
12/25/2020 2:30:00 AM 4.39 39.902 1.779 5.75 166.73 12
12/25/2020 2:45:00 AM 4.38 39.884 1.755 5.7 218.4 11.98
12/25/2020 3:00:00 AM 4.39 39.902 1.739 5.67 163.06 11.99
12/25/2020 3:15:00 AM 4.41 39.938 1.757 5.74 144.23 12
12/25/2020 3:30:00 AM 4.43 39.974 1.751 5.72 168.4 11.98
12/25/2020 3:45:00 AM 4.41 39.938 1.748 5.74 316.16 11.92
12/25/2020 4:00:00 AM 4.41 39.938 1.727 5.73 231.98 11.95
12/25/2020 4:15:00 AM 4.41 39.938 1.723 5.73 133.69 11.95
12/25/2020 4:30:00 AM 4.41 39.938 1.715 5.7 113.08 11.96
12/25/2020 4:45:00 AM 4.43 39.974 1.71 5.71 137.88 11.97
12/25/2020 5:00:00 AM 4.44 39.992 1.691 5.72 170.12 11.97
12/25/2020 5:15:00 AM 4.45 40.01 1.693 5.68 141.43 11.98
12/25/2020 5:30:00 AM 4.46 40.028 1.695 5.71 148.69 11.93
12/25/2020 5:45:00 AM 4.47 40.046 1.675 5.69 101.11 11.94
12/25/2020 6:00:00 AM 4.47 40.046 1.668 5.68 102.31 11.95
12/25/2020 6:15:00 AM 4.48 40.064 1.671 5.69 108.39 11.95
12/25/2020 6:30:00 AM 4.5 40.1 1.632 5.53 112.31 11.94
12/25/2020 6:45:00 AM 4.53 40.154 1.665 5.68 82.26 11.93
12/25/2020 7:00:00 AM 4.57 40.226 1.643 5.62 119.81 11.91
12/25/2020 7:15:00 AM 4.6 40.28 1.645 5.61 77.91 11.91
12/25/2020 7:30:00 AM 4.63 40.334 1.668 5.68 88.34 11.91
12/25/2020 7:45:00 AM 4.67 40.406 1.652 5.66 90.35 11.93
12/25/2020 8:00:00 AM 4.7 40.46 1.649 5.68 94.57 11.87
12/25/2020 8:15:00 AM 4.73 40.514 1.609 5.64 85.57 11.92
12/25/2020 8:30:00 AM 4.76 40.568 1.631 5.68 99.24 11.93
12/25/2020 8:45:00 AM 4.79 40.622 1.634 5.67 77.76 11.94
12/25/2020 9:00:00 AM 4.81 40.658 1.641 5.69 69.75 11.93
12/25/2020 9:15:00 AM 4.82 40.676 1.631 5.69 98.51 11.92
12/25/2020 9:30:00 AM 4.84 40.712 1.632 5.69 77.79 11.92
12/25/2020 9:45:00 AM 4.85 40.73 1.64 5.65 55.92 11.92
12/25/2020 10:00:00 AM 4.87 40.766 1.644 5.69 90.02 11.92
12/25/2020 10:15:00 AM 4.89 40.802 1.619 5.59 60.42 11.92
12/25/2020 10:30:00 AM 4.92 40.856 1.649 5.67 63.03 11.92
12/25/2020 10:45:00 AM 4.95 40.91 1.632 5.71 53.56 11.92
12/25/2020 11:00:00 AM 4.98 40.964 1.614 5.65 49.09 11.91
12/25/2020 11:15:00 AM 4.99 40.982 1.648 5.71 37.54 11.92
12/25/2020 11:30:00 AM 5 41 1.642 5.72 43.12 11.93
12/25/2020 11:45:00 AM 5.02 41.036 1.648 5.72 47.68 11.92
12/25/2020 12:00:00 PM 5.03 41.054 1.653 5.7 54.61 11.92
12/25/2020 12:15:00 PM 5.03 41.054 1.634 5.62 46.47 11.92
12/25/2020 12:30:00 PM 5.04 41.072 1.639 5.69 38.58 11.92
12/25/2020 12:45:00 PM 5.05 41.09 1.639 5.68 38.06 11.92
12/25/2020 1:00:00 PM 5.05 41.09 1.658 5.69 43.47 11.94
12/25/2020 1:15:00 PM 5.06 41.108 1.656 5.7 41.67 11.93
12/25/2020 1:30:00 PM 5.07 41.126 1.636 5.68 32.66 11.92
12/25/2020 1:45:00 PM 5.08 41.144 1.63 5.67 34.37 11.92
12/25/2020 2:00:00 PM 5.08 41.144 1.646 5.7 34.21 11.9
12/25/2020 2:15:00 PM 5.09 41.162 1.674 5.69 38.39 11.91
12/25/2020 2:30:00 PM 5.08 41.144 1.664 5.74 29.68 11.9
12/25/2020 2:45:00 PM 5.08 41.144 1.659 5.71 39.04 11.91
12/25/2020 3:00:00 PM 5.08 41.144 1.672 5.75 31.52 11.9
12/25/2020 3:15:00 PM 5.07 41.126 1.626 5.67 34.39 11.9
12/25/2020 3:30:00 PM 5.06 41.108 1.661 5.72 30.67 11.92
12/25/2020 3:45:00 PM 5.04 41.072 1.672 5.75 36.27 11.92
12/25/2020 4:00:00 PM 5.02 41.036 1.678 5.78 26.88 11.91
12/25/2020 4:15:00 PM 5 41 1.673 5.75 29.26 11.92
12/25/2020 4:30:00 PM 4.97 40.946 1.663 5.73 36.25 11.92
12/25/2020 4:45:00 PM 4.95 40.91 1.67 5.74 27.9 11.93
12/25/2020 5:00:00 PM 4.92 40.856 1.675 5.75 30.8 11.93
12/25/2020 5:15:00 PM 4.89 40.802 1.677 5.74 25.19 11.95
12/25/2020 5:30:00 PM 4.87 40.766 1.681 5.74 32.82 11.96
12/25/2020 5:45:00 PM 4.84 40.712 1.681 5.74 28.56 11.98
12/25/2020 6:00:00 PM 4.8 40.64 1.677 5.75 30.82 11.98
12/25/2020 6:15:00 PM 4.77 40.586 1.673 5.76 33.46 12
12/25/2020 6:30:00 PM 4.73 40.514 1.687 5.77 33.2 12.01
12/25/2020 6:45:00 PM 4.7 40.46 1.684 5.72 21.67 12.03
12/25/2020 7:00:00 PM 4.67 40.406 1.703 5.75 30.12 12.03
12/25/2020 7:15:00 PM 4.64 40.352 1.698 5.75 23.36 12.05
12/25/2020 7:30:00 PM 4.6 40.28 1.679 5.72 22.49 12.08
12/25/2020 7:45:00 PM 4.57 40.226 1.684 5.75 25.99 12.09
12/25/2020 8:00:00 PM 4.54 40.172 1.68 5.76 27.35 12.1
12/25/2020 8:15:00 PM 4.5 40.1 1.691 5.75 28.82 12.12
12/25/2020 8:30:00 PM 4.46 40.028 1.696 5.76 19 12.13
12/25/2020 8:45:00 PM 4.43 39.974 1.7 5.74 21.05 12.14
12/25/2020 9:00:00 PM 4.4 39.92 1.704 5.73 30.34 12.16
12/25/2020 9:15:00 PM 4.37 39.866 1.693 5.78 20.57 12.17
12/25/2020 9:30:00 PM 4.34 39.812 1.703 5.78 23.98 12.18
12/25/2020 9:45:00 PM 4.31 39.758 1.694 5.79 23.83 12.19
12/25/2020 10:00:00 PM 4.27 39.686 1.699 5.77 21.38 12.2
12/25/2020 10:15:00 PM 4.24 39.632 1.709 5.79 31.44 12.2
12/25/2020 10:30:00 PM 4.21 39.578 1.719 5.8 20.47 12.21
12/25/2020 10:45:00 PM 4.18 39.524 1.708 5.8 22.2 12.23
12/25/2020 11:00:00 PM 4.15 39.47 1.698 5.8 19.64 12.24
12/25/2020 11:15:00 PM 4.12 39.416 1.714 5.85 19.27 12.24
12/25/2020 11:30:00 PM 4.09 39.362 1.728 5.84 18.18 12.26
12/25/2020 11:45:00 PM 4.06 39.308 1.727 5.84 18.29 12.27
12/26/2020 12:00:00 AM 4.03 39.254 1.715 5.85 18.94 12.29
12/26/2020 12:15:00 AM 4 39.2 1.714 5.86 17.82 12.29
12/26/2020 12:30:00 AM 3.97 39.146 1.715 5.86 18.57 12.3
12/26/2020 12:45:00 AM 3.93 39.074 1.728 5.87 21.02 12.31
12/26/2020 1:00:00 AM 3.9 39.02 1.726 5.86 17.54 12.33
12/26/2020 1:15:00 AM 3.87 38.966 1.72 5.87 15.77 12.33
12/26/2020 1:30:00 AM 3.84 38.912 1.723 5.86 17.29 12.35
12/26/2020 1:45:00 AM 3.81 38.858 1.743 5.85 17.76 12.35
12/26/2020 2:00:00 AM 3.78 38.804 1.732 5.84 16.21 12.37
12/26/2020 2:15:00 AM 3.76 38.768 1.736 5.86 17.81 12.38
12/26/2020 2:30:00 AM 3.73 38.714 1.727 5.86 17.19 12.39
12/26/2020 2:45:00 AM 3.7 38.66 1.742 5.88 21.35 12.41
12/26/2020 3:00:00 AM 3.68 38.624 1.747 5.88 16.15 12.41
12/26/2020 3:15:00 AM 3.66 38.588 1.738 5.83 16.55 12.41
12/26/2020 3:30:00 AM 3.64 38.552 1.738 5.91 14.26 12.43
12/26/2020 3:45:00 AM 3.61 38.498 1.756 5.93 15.39 12.44
12/26/2020 4:00:00 AM 3.58 38.444 1.755 5.9 16.86 12.45
12/26/2020 4:15:00 AM 3.56 38.408 1.762 5.92 15.87 12.46
12/26/2020 4:30:00 AM 3.53 38.354 1.746 5.92 16.54 12.47
12/26/2020 4:45:00 AM 3.5 38.3 1.76 5.92 15.25 12.48
12/26/2020 5:00:00 AM 3.48 38.264 1.768 5.91 14.65 12.49
12/26/2020 5:15:00 AM 3.45 38.21 1.748 5.9 15.99 12.49
12/26/2020 5:30:00 AM 3.43 38.174 1.756 5.94 15.47 12.49
12/26/2020 5:45:00 AM 3.41 38.138 1.77 5.95 14.62 12.52
12/26/2020 6:00:00 AM 3.39 38.102 1.778 5.96 14.49 12.51
12/26/2020 6:15:00 AM 3.37 38.066 1.772 5.96 14.54 12.53
12/26/2020 6:30:00 AM 3.35 38.03 1.764 5.98 15.54 12.53
12/26/2020 6:45:00 AM 3.33 37.994 1.77 5.99 13.64 12.55
12/26/2020 7:00:00 AM 3.31 37.958 1.757 5.97 14.53 12.55
12/26/2020 7:15:00 AM 3.29 37.922 1.775 6.01 14.08 12.57
12/26/2020 7:30:00 AM 3.28 37.904 1.777 6.01 14.22 12.57
12/26/2020 7:45:00 AM 3.26 37.868 1.786 6 13.17 12.59
12/26/2020 8:00:00 AM 3.24 37.832 1.784 6.03 12.99 12.59
12/26/2020 8:15:00 AM 3.23 37.814 1.767 6.03 13.7 12.61
12/26/2020 8:30:00 AM 3.22 37.796 1.782 6.04 13.3 12.62
12/26/2020 8:45:00 AM 3.19 37.742 1.778 6 13.35 12.63
12/26/2020 9:00:00 AM 3.19 37.742 1.789 6.05 13.33 12.64
12/26/2020 9:15:00 AM 3.18 37.724 1.8 6.03 12.84 12.65
12/26/2020 9:30:00 AM 3.18 37.724 1.794 6.05 12.6 12.66
12/26/2020 9:45:00 AM 3.17 37.706 1.784 6.06 12.48 12.67
12/26/2020 10:00:00 AM 3.18 37.724 1.789 6.08 12.5 12.66
12/26/2020 10:15:00 AM 3.18 37.724 1.802 6.08 12.08 12.68
12/26/2020 10:30:00 AM 3.19 37.742 1.78 6.08 12.85 12.69
12/26/2020 10:45:00 AM 3.2 37.76 1.796 6.07 12.66 12.69
12/26/2020 11:00:00 AM 3.2 37.76 1.781 6.09 11.7 12.69
12/26/2020 11:15:00 AM 3.21 37.778 1.77 6.09 12.37 12.7
12/26/2020 11:30:00 AM 3.23 37.814 1.77 6.08 11.09 12.71
12/26/2020 11:45:00 AM 3.24 37.832 1.783 6.1 12.22 12.72
12/26/2020 12:00:00 PM 3.25 37.85 1.78 6.05 11.7 12.73
12/26/2020 12:15:00 PM 3.27 37.886 1.789 6.09 11.54 12.71
12/26/2020 12:30:00 PM 3.29 37.922 1.792 6.08 11.42 12.7
12/26/2020 12:45:00 PM 3.3 37.94 1.798 6.09 11.69 12.7
12/26/2020 1:00:00 PM 3.33 37.994 1.776 6.12 11.2 12.68
12/26/2020 1:15:00 PM 3.35 38.03 1.778 6.1 11.12 12.68
12/26/2020 1:30:00 PM 3.37 38.066 1.802 6.14 11.43 12.66
12/26/2020 1:45:00 PM 3.37 38.066 1.79 6.11 10.98 12.66
12/26/2020 2:00:00 PM 3.38 38.084 1.805 6.13 10.96 12.67
12/26/2020 2:15:00 PM 3.38 38.084 1.803 6.15 11.24 12.66
12/26/2020 2:30:00 PM 3.38 38.084 1.786 6.14 11.15 12.66
12/26/2020 2:45:00 PM 3.38 38.084 1.813 6.13 11.16 12.66
12/26/2020 3:00:00 PM 3.39 38.102 1.807 6.13 10.34 12.65
12/26/2020 3:15:00 PM 3.39 38.102 1.823 6.15 11 12.64
12/26/2020 3:30:00 PM 3.38 38.084 1.817 6.15 10.63 12.65
12/26/2020 3:45:00 PM 3.37 38.066 1.818 6.15 10.78 12.65
12/26/2020 4:00:00 PM 3.36 38.048 1.815 6.15 11.03 12.64
12/26/2020 4:15:00 PM 3.35 38.03 1.822 6.15 9.96 12.62
12/26/2020 4:30:00 PM 3.33 37.994 1.827 6.15 10.05 12.63
12/26/2020 4:45:00 PM 3.32 37.976 1.844 6.15 11.02 12.63
12/26/2020 5:00:00 PM 3.3 37.94 1.835 6.14 10.16 12.63
12/26/2020 5:15:00 PM 3.27 37.886 1.836 6.14 10.92 12.65
12/26/2020 5:30:00 PM 3.24 37.832 1.824 6.14 10.59 12.65
12/26/2020 5:45:00 PM 3.22 37.796 1.814 6.14 12.55 12.63
12/26/2020 6:00:00 PM 3.21 37.778 1.85 6.13 11.02 12.64
12/26/2020 6:15:00 PM 3.19 37.742 1.829 6.14 14.48 12.67
12/26/2020 6:30:00 PM 3.18 37.724 1.818 6.12 13.78 12.67
12/26/2020 6:45:00 PM 3.16 37.688 1.828 6.12 10.86 12.68
12/26/2020 7:00:00 PM 3.15 37.67 1.821 6.1 11.12 12.68
12/26/2020 7:15:00 PM 3.13 37.634 1.831 6.12 11.73 12.68
12/26/2020 7:30:00 PM 3.11 37.598 1.826 6.12 10.69 12.69
12/26/2020 7:45:00 PM 3.1 37.58 1.846 6.12 10.62 12.7
12/26/2020 8:00:00 PM 3.08 37.544 1.851 6.11 10.1 12.7
12/26/2020 8:15:00 PM 3.07 37.526 1.835 6.12 10.62 12.71
12/26/2020 8:30:00 PM 3.06 37.508 1.835 6.12 10.43 12.74
12/26/2020 8:45:00 PM 3.05 37.49 1.854 6.12 35.51 12.72
12/26/2020 9:00:00 PM 3.05 37.49 1.841 6.12 11.54 12.75
12/26/2020 9:15:00 PM 3.04 37.472 1.848 6.12 9.84 12.76
12/26/2020 9:30:00 PM 3.03 37.454 1.853 6.13 9.67 12.76
12/26/2020 9:45:00 PM 3.02 37.436 1.832 6.11 9.67 12.77
12/26/2020 10:00:00 PM 3.01 37.418 1.836 6.12 9.53 12.77
12/26/2020 10:15:00 PM 3 37.4 1.863 6.13 9.31 12.77
12/26/2020 10:30:00 PM 2.99 37.382 1.861 6.11 9.54 12.77
12/26/2020 10:45:00 PM 2.98 37.364 1.871 6.12 10.73 12.79
12/26/2020 11:00:00 PM 2.97 37.346 1.869 6.11 9.58 12.79
12/26/2020 11:15:00 PM 2.97 37.346 1.854 6.12 9.43 12.8
12/26/2020 11:30:00 PM 2.97 37.346 1.85 6.1 9.22 12.79
12/26/2020 11:45:00 PM 2.97 37.346 1.869 6.11 9.3 12.79
12/27/2020 12:00:00 AM 2.96 37.328 1.875 6.12 9.85 12.81
12/27/2020 12:15:00 AM 2.96 37.328 1.877 6.11 9.58 12.8
12/27/2020 12:30:00 AM 2.95 37.31 1.867 6.11 9.33 12.8
12/27/2020 12:45:00 AM 2.95 37.31 1.871 6.11 8.9 12.8
12/27/2020 1:00:00 AM 2.94 37.292 1.873 6.11 8.73 12.81
12/27/2020 1:15:00 AM 2.94 37.292 1.869 6.1 9.26 12.81
12/27/2020 1:30:00 AM 2.94 37.292 1.869 6.11 8.8 12.82
12/27/2020 1:45:00 AM 2.94 37.292 1.872 6.11 8.66 12.81
12/27/2020 2:00:00 AM 2.94 37.292 1.884 6.11 8.57 12.82
12/27/2020 2:15:00 AM 2.94 37.292 1.864 6.1 8.24 12.82
12/27/2020 2:30:00 AM 2.94 37.292 1.865 6.13 9.09 12.82
12/27/2020 2:45:00 AM 2.93 37.274 1.877 6.13 8.48 12.82
12/27/2020 3:00:00 AM 2.93 37.274 1.881 6.12 8.16 12.83
12/27/2020 3:15:00 AM 2.93 37.274 1.881 6.11 8.6 12.83
12/27/2020 3:30:00 AM 2.92 37.256 1.892 6.12 8.41 12.84
12/27/2020 3:45:00 AM 2.91 37.238 1.892 6.11 8.76 12.84
12/27/2020 4:00:00 AM 2.91 37.238 1.902 6.12 8.46 12.84
12/27/2020 4:15:00 AM 2.91 37.238 1.88 6.12 8.14 12.83
12/27/2020 4:30:00 AM 2.91 37.238 1.88 6.07 8.41 12.85
12/27/2020 4:45:00 AM 2.91 37.238 1.898 6.11 8.07 12.85
12/27/2020 5:00:00 AM 2.91 37.238 1.881 6.09 8.34 12.85
12/27/2020 5:15:00 AM 2.91 37.238 1.904 6.11 8.45 12.84
12/27/2020 5:30:00 AM 2.91 37.238 1.906 6.11 8.35 12.84
12/27/2020 5:45:00 AM 2.92 37.256 1.885 6.11 8.25 12.85
12/27/2020 6:00:00 AM 2.92 37.256 1.905 6.11 7.99 12.86
12/27/2020 6:15:00 AM 2.92 37.256 1.904 6.11 8.21 12.85
12/27/2020 6:30:00 AM 2.92 37.256 1.902 6.12 7.63 12.86
12/27/2020 6:45:00 AM 2.93 37.274 1.886 6.12 8.12 12.87
12/27/2020 7:00:00 AM 2.92 37.256 1.889 6.11 8.06 12.87
12/27/2020 7:15:00 AM 2.93 37.274 1.887 6.11 7.65 12.87
12/27/2020 7:30:00 AM 2.92 37.256 1.884 6.1 7.9 12.87
12/27/2020 7:45:00 AM 2.92 37.256 1.915 6.12 7.44 12.87
12/27/2020 8:00:00 AM 2.91 37.238 1.925 6.11 7.98 12.88
12/27/2020 8:15:00 AM 2.91 37.238 1.919 6.12 7.65 12.88
12/27/2020 8:30:00 AM 2.91 37.238 1.906 6.12 7.64 12.89
12/27/2020 8:45:00 AM 2.91 37.238 1.909 6.13 8.06 12.9
12/27/2020 9:00:00 AM 2.92 37.256 1.912 6.11 7.84 12.92
12/27/2020 9:15:00 AM 2.94 37.292 1.912 6.12 7.45 12.93
12/27/2020 9:30:00 AM 2.95 37.31 1.901 6.13 7.72 12.93
12/27/2020 9:45:00 AM 2.97 37.346 1.893 6.14 7.56 12.94
12/27/2020 10:00:00 AM 3 37.4 1.915 6.14 7.78 12.94
12/27/2020 10:15:00 AM 3.02 37.436 1.922 6.14 7.31 12.94
12/27/2020 10:30:00 AM 3.05 37.49 1.92 6.15 7.96 12.94
12/27/2020 10:45:00 AM 3.09 37.562 1.906 6.15 7.05 12.95
12/27/2020 11:00:00 AM 3.15 37.67 1.888 6.15 6.69 12.94
12/27/2020 11:15:00 AM 3.2 37.76 1.912 6.17 7.07 12.93
12/27/2020 11:30:00 AM 3.24 37.832 1.916 6.18 7.4 12.91
12/27/2020 11:45:00 AM 3.29 37.922 1.928 6.18 7.37 12.89
12/27/2020 12:00:00 PM 3.36 38.048 1.907 6.17 6.9 12.87
12/27/2020 12:15:00 PM 3.42 38.156 1.892 6.14 7.1 12.86
12/27/2020 12:30:00 PM 3.5 38.3 1.917 6.18 7.25 12.83
12/27/2020 12:45:00 PM 3.56 38.408 1.92 6.19 6.89 12.8
12/27/2020 1:00:00 PM 3.64 38.552 1.912 6.19 6.98 12.78
12/27/2020 1:15:00 PM 3.72 38.696 1.925 6.18 7.02 12.76
12/27/2020 1:30:00 PM 3.78 38.804 1.932 6.19 7.17 12.74
12/27/2020 1:45:00 PM 3.82 38.876 1.924 6.19 6.54 12.74
12/27/2020 2:00:00 PM 3.84 38.912 1.906 6.19 6.97 12.71
12/27/2020 2:15:00 PM 3.86 38.948 1.912 6.2 6.66 12.7
12/27/2020 2:30:00 PM 3.87 38.966 1.923 6.2 6.5 12.68
12/27/2020 2:45:00 PM 3.9 39.02 1.922 6.19 6.6 12.67
12/27/2020 3:00:00 PM 3.94 39.092 1.929 6.19 6.51 12.65
12/27/2020 3:15:00 PM 3.95 39.11 1.93 6.16 6.62 12.64
12/27/2020 3:30:00 PM 3.94 39.092 1.935 6.21 6.83 12.63
12/27/2020 3:45:00 PM 3.95 39.11 1.934 6.19 7.17 12.62
12/27/2020 4:00:00 PM 3.94 39.092 1.924 6.21 6.4 12.61
12/27/2020 4:15:00 PM 3.93 39.074 1.943 6.2 6.38 12.6
12/27/2020 4:30:00 PM 3.92 39.056 1.939 6.2 6.65 12.59
12/27/2020 4:45:00 PM 3.91 39.038 1.938 6.19 6.57 12.59
12/27/2020 5:00:00 PM 3.88 38.984 1.951 6.19 6.64 12.58
12/27/2020 5:15:00 PM 3.86 38.948 1.942 6.18 7.17 12.57
12/27/2020 5:30:00 PM 3.83 38.894 1.94 6.16 6.76 12.57
12/27/2020 5:45:00 PM 3.81 38.858 1.934 6.14 6.65 12.57
12/27/2020 6:00:00 PM 3.79 38.822 1.944 6.18 6.48 12.57
12/27/2020 6:15:00 PM 3.76 38.768 1.941 6.16 6.81 12.57
12/27/2020 6:30:00 PM 3.74 38.732 1.95 6.16 6.64 12.58
12/27/2020 6:45:00 PM 3.72 38.696 1.949 6.15 6.78 12.57
12/27/2020 7:00:00 PM 3.69 38.642 1.945 6.15 6.26 12.58
12/27/2020 7:15:00 PM 3.67 38.606 1.927 6.14 6.65 12.59
12/27/2020 7:30:00 PM 3.64 38.552 1.921 6.13 6.11 12.59
12/27/2020 7:45:00 PM 3.62 38.516 1.956 6.14 6.15 12.61
12/27/2020 8:00:00 PM 3.59 38.462 1.955 6.14 6.35 12.61
12/27/2020 8:15:00 PM 3.57 38.426 1.947 6.15 6.15 12.62
12/27/2020 8:30:00 PM 3.54 38.372 1.954 6.13 6.33 12.63
12/27/2020 8:45:00 PM 3.52 38.336 1.947 6.14 6.37 12.64
12/27/2020 9:00:00 PM 3.49 38.282 1.941 6.11 6.51 12.64
12/27/2020 9:15:00 PM 3.47 38.246 1.945 6.13 6.71 12.66
12/27/2020 9:30:00 PM 3.45 38.21 1.954 6.13 6.27 12.67
12/27/2020 9:45:00 PM 3.43 38.174 1.945 6.06 6.31 12.68
12/27/2020 10:00:00 PM 3.41 38.138 1.951 6.13 6.09 12.69
12/27/2020 10:15:00 PM 3.4 38.12 1.962 6.12 6.13 12.69
12/27/2020 10:30:00 PM 3.39 38.102 1.97 6.12 6.2 12.69
12/27/2020 10:45:00 PM 3.37 38.066 1.974 6.13 5.99 12.71
12/27/2020 11:00:00 PM 3.35 38.03 1.945 6.07 6.16 12.71
12/27/2020 11:15:00 PM 3.34 38.012 1.96 6.13 5.8 12.71
12/27/2020 11:30:00 PM 3.32 37.976 1.96 6.12 6.28 12.71
12/27/2020 11:45:00 PM 3.31 37.958 1.961 6.12 6.07 12.71
12/28/2020 12:00:00 AM 3.29 37.922 1.954 6.13 6.16 12.72
12/28/2020 12:15:00 AM 3.28 37.904 1.962 6.13 6.03 12.73
12/28/2020 12:30:00 AM 3.27 37.886 1.967 6.13 5.68 12.73
12/28/2020 12:45:00 AM 3.25 37.85 1.964 6.13 6.05 12.73
12/28/2020 1:00:00 AM 3.24 37.832 1.958 6.13 6 12.74
12/28/2020 1:15:00 AM 3.23 37.814 1.957 6.11 6.01 12.73
12/28/2020 1:30:00 AM 3.22 37.796 1.954 6.13 6.03 12.74
12/28/2020 1:45:00 AM 3.21 37.778 1.97 6.14 5.96 12.74
12/28/2020 2:00:00 AM 3.2 37.76 1.966 6.12 5.82 12.75
12/28/2020 2:15:00 AM 3.2 37.76 1.964 6.12 6.71 12.74
12/28/2020 2:30:00 AM 3.2 37.76 1.98 6.13 5.93 12.74
12/28/2020 2:45:00 AM 3.2 37.76 1.977 6.13 5.8 12.75
12/28/2020 3:00:00 AM 3.2 37.76 1.971 6.13 5.93 12.75
12/28/2020 3:15:00 AM 3.21 37.778 1.967 6.13 5.89 12.74
12/28/2020 3:30:00 AM 3.22 37.796 1.984 6.13 6.02 12.74
12/28/2020 3:45:00 AM 3.23 37.814 1.978 6.13 5.93 12.74
12/28/2020 4:00:00 AM 3.23 37.814 1.982 6.13 5.97 12.73
12/28/2020 4:15:00 AM 3.16 37.688 1.975 6.14 5.66 12.72
12/28/2020 4:30:00 AM 3.13 37.634 1.989 6.13 5.55 12.72
12/28/2020 4:45:00 AM 3.1 37.58 1.979 6.11 5.94 12.72
12/28/2020 5:00:00 AM 3.11 37.598 1.981 6.12 5.64 12.73
12/28/2020 5:15:00 AM 3.1 37.58 1.964 6.1 6.09 12.74
12/28/2020 5:30:00 AM 3.11 37.598 1.991 6.13 5.81 12.75
12/28/2020 5:45:00 AM 3.12 37.616 1.984 6.13 5.88 12.74
12/28/2020 6:00:00 AM 3.15 37.67 1.986 6.13 5.48 12.75
12/28/2020 6:15:00 AM 3.18 37.724 1.971 6.09 5.76 12.75
12/28/2020 6:30:00 AM 3.2 37.76 1.969 6.14 5.84 12.74
12/28/2020 6:45:00 AM 3.22 37.796 1.977 6.14 5.91 12.73
12/28/2020 7:00:00 AM 3.24 37.832 1.992 6.13 5.69 12.72
12/28/2020 7:15:00 AM 3.26 37.868 1.973 6.14 5.5 12.72
12/28/2020 7:30:00 AM 3.27 37.886 1.99 6.14 5.44 12.72
12/28/2020 7:45:00 AM 3.28 37.904 1.999 6.14 6.85 12.72
12/28/2020 8:00:00 AM 3.3 37.94 1.993 6.15 5.33 12.71
12/28/2020 8:15:00 AM 3.32 37.976 1.986 6.13 5.6 12.71
12/28/2020 8:30:00 AM 3.33 37.994 2.003 6.13 5.89 12.71
12/28/2020 8:45:00 AM 3.35 38.03 1.994 6.12 5.29 12.72
12/28/2020 9:00:00 AM 3.38 38.084 1.994 6.15 5.47 12.71
12/28/2020 9:15:00 AM 3.41 38.138 1.976 6.15 5.33 12.71
12/28/2020 9:30:00 AM 3.45